<?xml version="1.0" encoding="UTF-8" standalone="no" ?>
<gpx xmlns="http://www.topografix.com/GPX/1/1" xmlns:xsi="http://www.w3.org/2001/XMLSchema-instance" xsi:schemaLocation="http://www.topografix.com/GPX/1/1 http://www.topografix.com/GPX/1/1/gpx.xsd" version="1.1" creator="VisuGPX - https://www.visugpx.com">
  <metadata>
    <name>Arzenc de Randon - Rocles   25km</name>
    <desc><![CDATA[fait le 14/07/2025  J3 - Ecuries de Palheres - Gite du Giraldes]]></desc>
  </metadata>
  <wpt lat="44.736" lon="3.77861">
    <ele>1030.2</ele>
    <name><![CDATA[Relais de Palhere]]></name>
    <type><![CDATA[hotel]]></type>
    <extensions>
      <visugpx:TrackPointExtension xmlns:visugpx="https://www.visugpx.com/editgpx/">
        <visugpx:dec>-72,-102</visugpx:dec>
      </visugpx:TrackPointExtension>
    </extensions>
  </wpt>
  <wpt lat="44.58722" lon="3.63974">
    <ele>1238.1</ele>
    <cmt><![CDATA[2 gite du giraldes]]></cmt>
    <extensions>
      <visugpx:TrackPointExtension xmlns:visugpx="https://www.visugpx.com/editgpx/">
        <visugpx:dec>0,0</visugpx:dec>
      </visugpx:TrackPointExtension>
    </extensions>
  </wpt>
  <wpt lat="44.66776" lon="3.59765">
    <ele>1273.9</ele>
    <name><![CDATA[le Giraldes]]></name>
    <type><![CDATA[hotel]]></type>
    <extensions>
      <visugpx:TrackPointExtension xmlns:visugpx="https://www.visugpx.com/editgpx/">
        <visugpx:dec>190,76</visugpx:dec>
      </visugpx:TrackPointExtension>
    </extensions>
  </wpt>
  <trk>
    <name><![CDATA[2025-07-14 17:02:20]]></name>
    <extensions>
      <line xmlns="http://www.topografix.com/GPX/gpx_style/0/2">
        <color>0000FF</color>
        <width>4</width>
      </line>
    </extensions>
    <trkseg>
      <trkpt lat="44.66743" lon="3.59758">
        <ele>1284.94</ele>
        <time>2025-07-14T07:47:45Z</time>
      </trkpt>
      <trkpt lat="44.66747" lon="3.59759">
        <ele>1289.27</ele>
        <time>2025-07-14T07:48:09Z</time>
      </trkpt>
      <trkpt lat="44.66748" lon="3.59759">
        <ele>1290.23</ele>
        <time>2025-07-14T07:48:36Z</time>
      </trkpt>
      <trkpt lat="44.66747" lon="3.5976">
        <ele>1285.42</ele>
        <time>2025-07-14T07:49:05Z</time>
      </trkpt>
      <trkpt lat="44.66753" lon="3.59754">
        <ele>1283.98</ele>
        <time>2025-07-14T07:49:31Z</time>
      </trkpt>
      <trkpt lat="44.66758" lon="3.5976">
        <ele>1281.09</ele>
        <time>2025-07-14T07:49:57Z</time>
      </trkpt>
      <trkpt lat="44.66768" lon="3.59749">
        <ele>1280.13</ele>
        <time>2025-07-14T07:50:15Z</time>
      </trkpt>
      <trkpt lat="44.66768" lon="3.59757">
        <ele>1280.13</ele>
        <time>2025-07-14T07:50:39Z</time>
      </trkpt>
      <trkpt lat="44.66763" lon="3.59754">
        <ele>1282.06</ele>
        <time>2025-07-14T07:51:02Z</time>
      </trkpt>
      <trkpt lat="44.66764" lon="3.59755">
        <ele>1284.94</ele>
        <time>2025-07-14T07:51:29Z</time>
      </trkpt>
      <trkpt lat="44.6675" lon="3.59769">
        <ele>1283.98</ele>
        <time>2025-07-14T07:51:51Z</time>
      </trkpt>
      <trkpt lat="44.66736" lon="3.59773">
        <ele>1285.9</ele>
        <time>2025-07-14T07:52:16Z</time>
      </trkpt>
      <trkpt lat="44.66747" lon="3.5976">
        <ele>1289.27</ele>
        <time>2025-07-14T07:52:25Z</time>
      </trkpt>
      <trkpt lat="44.66748" lon="3.59751">
        <ele>1290.23</ele>
        <time>2025-07-14T07:52:29Z</time>
      </trkpt>
      <trkpt lat="44.66742" lon="3.59731">
        <ele>1291.19</ele>
        <time>2025-07-14T07:52:46Z</time>
      </trkpt>
      <trkpt lat="44.66738" lon="3.59716">
        <ele>1291.67</ele>
        <time>2025-07-14T07:53:01Z</time>
      </trkpt>
      <trkpt lat="44.66732" lon="3.59712">
        <ele>1292.63</ele>
        <time>2025-07-14T07:53:16Z</time>
      </trkpt>
      <trkpt lat="44.6673" lon="3.59712">
        <ele>1292.15</ele>
        <time>2025-07-14T07:53:35Z</time>
      </trkpt>
      <trkpt lat="44.66729" lon="3.59711">
        <ele>1290.71</ele>
        <time>2025-07-14T07:53:57Z</time>
      </trkpt>
      <trkpt lat="44.66727" lon="3.59709">
        <ele>1290.23</ele>
        <time>2025-07-14T07:54:14Z</time>
      </trkpt>
      <trkpt lat="44.66727" lon="3.59712">
        <ele>1287.34</ele>
        <time>2025-07-14T07:54:25Z</time>
      </trkpt>
      <trkpt lat="44.66729" lon="3.59714">
        <ele>1282.54</ele>
        <time>2025-07-14T07:54:40Z</time>
      </trkpt>
      <trkpt lat="44.66728" lon="3.59718">
        <ele>1281.09</ele>
        <time>2025-07-14T07:55:00Z</time>
      </trkpt>
      <trkpt lat="44.66732" lon="3.59716">
        <ele>1279.65</ele>
        <time>2025-07-14T07:55:17Z</time>
      </trkpt>
      <trkpt lat="44.66737" lon="3.59713">
        <ele>1278.69</ele>
        <time>2025-07-14T07:55:28Z</time>
      </trkpt>
      <trkpt lat="44.66742" lon="3.59709">
        <ele>1278.21</ele>
        <time>2025-07-14T07:55:33Z</time>
      </trkpt>
      <trkpt lat="44.66755" lon="3.5969">
        <ele>1281.09</ele>
        <time>2025-07-14T07:55:49Z</time>
      </trkpt>
      <trkpt lat="44.66765" lon="3.5966">
        <ele>1278.69</ele>
        <time>2025-07-14T07:56:08Z</time>
      </trkpt>
      <trkpt lat="44.66769" lon="3.59652">
        <ele>1277.73</ele>
        <time>2025-07-14T07:56:14Z</time>
      </trkpt>
      <trkpt lat="44.66781" lon="3.59659">
        <ele>1277.25</ele>
        <time>2025-07-14T07:56:25Z</time>
      </trkpt>
      <trkpt lat="44.66802" lon="3.59663">
        <ele>1277.25</ele>
        <time>2025-07-14T07:56:43Z</time>
      </trkpt>
      <trkpt lat="44.66807" lon="3.59667">
        <ele>1277.73</ele>
        <time>2025-07-14T07:56:57Z</time>
      </trkpt>
      <trkpt lat="44.66809" lon="3.59669">
        <ele>1278.21</ele>
        <time>2025-07-14T07:57:07Z</time>
      </trkpt>
      <trkpt lat="44.66811" lon="3.59695">
        <ele>1278.69</ele>
        <time>2025-07-14T07:57:25Z</time>
      </trkpt>
      <trkpt lat="44.66812" lon="3.59697">
        <ele>1278.69</ele>
        <time>2025-07-14T07:57:27Z</time>
      </trkpt>
      <trkpt lat="44.66815" lon="3.59702">
        <ele>1279.65</ele>
        <time>2025-07-14T07:57:32Z</time>
      </trkpt>
      <trkpt lat="44.66831" lon="3.59716">
        <ele>1286.86</ele>
        <time>2025-07-14T07:57:47Z</time>
      </trkpt>
      <trkpt lat="44.66837" lon="3.59734">
        <ele>1288.3</ele>
        <time>2025-07-14T07:58:02Z</time>
      </trkpt>
      <trkpt lat="44.66842" lon="3.59749">
        <ele>1292.15</ele>
        <time>2025-07-14T07:58:17Z</time>
      </trkpt>
      <trkpt lat="44.6685" lon="3.5977">
        <ele>1296.48</ele>
        <time>2025-07-14T07:58:33Z</time>
      </trkpt>
      <trkpt lat="44.66854" lon="3.59784">
        <ele>1296.96</ele>
        <time>2025-07-14T07:58:40Z</time>
      </trkpt>
      <trkpt lat="44.66853" lon="3.5981">
        <ele>1299.36</ele>
        <time>2025-07-14T07:58:54Z</time>
      </trkpt>
      <trkpt lat="44.66854" lon="3.59817">
        <ele>1301.76</ele>
        <time>2025-07-14T07:58:58Z</time>
      </trkpt>
      <trkpt lat="44.66855" lon="3.59822">
        <ele>1303.2</ele>
        <time>2025-07-14T07:59:01Z</time>
      </trkpt>
      <trkpt lat="44.66858" lon="3.5983">
        <ele>1305.13</ele>
        <time>2025-07-14T07:59:05Z</time>
      </trkpt>
      <trkpt lat="44.66857" lon="3.59864">
        <ele>1304.17</ele>
        <time>2025-07-14T07:59:21Z</time>
      </trkpt>
      <trkpt lat="44.66862" lon="3.59893">
        <ele>1303.69</ele>
        <time>2025-07-14T07:59:38Z</time>
      </trkpt>
      <trkpt lat="44.66867" lon="3.5992">
        <ele>1304.65</ele>
        <time>2025-07-14T07:59:53Z</time>
      </trkpt>
      <trkpt lat="44.66871" lon="3.59944">
        <ele>1306.57</ele>
        <time>2025-07-14T08:00:07Z</time>
      </trkpt>
      <trkpt lat="44.66878" lon="3.59972">
        <ele>1308.49</ele>
        <time>2025-07-14T08:00:25Z</time>
      </trkpt>
      <trkpt lat="44.66882" lon="3.59981">
        <ele>1309.45</ele>
        <time>2025-07-14T08:00:31Z</time>
      </trkpt>
      <trkpt lat="44.66898" lon="3.60001">
        <ele>1312.82</ele>
        <time>2025-07-14T08:00:48Z</time>
      </trkpt>
      <trkpt lat="44.66914" lon="3.60014">
        <ele>1312.34</ele>
        <time>2025-07-14T08:01:04Z</time>
      </trkpt>
      <trkpt lat="44.66917" lon="3.60013">
        <ele>1311.86</ele>
        <time>2025-07-14T08:01:06Z</time>
      </trkpt>
      <trkpt lat="44.6693" lon="3.59992">
        <ele>1313.3</ele>
        <time>2025-07-14T08:01:23Z</time>
      </trkpt>
      <trkpt lat="44.66937" lon="3.59971">
        <ele>1314.74</ele>
        <time>2025-07-14T08:01:37Z</time>
      </trkpt>
      <trkpt lat="44.66949" lon="3.59947">
        <ele>1316.18</ele>
        <time>2025-07-14T08:01:53Z</time>
      </trkpt>
      <trkpt lat="44.66959" lon="3.59923">
        <ele>1319.07</ele>
        <time>2025-07-14T08:02:10Z</time>
      </trkpt>
      <trkpt lat="44.66964" lon="3.59916">
        <ele>1319.55</ele>
        <time>2025-07-14T08:02:16Z</time>
      </trkpt>
      <trkpt lat="44.66974" lon="3.59895">
        <ele>1321.95</ele>
        <time>2025-07-14T08:02:29Z</time>
      </trkpt>
      <trkpt lat="44.66983" lon="3.59869">
        <ele>1324.35</ele>
        <time>2025-07-14T08:02:47Z</time>
      </trkpt>
      <trkpt lat="44.66994" lon="3.59846">
        <ele>1326.76</ele>
        <time>2025-07-14T08:03:03Z</time>
      </trkpt>
      <trkpt lat="44.67006" lon="3.59827">
        <ele>1328.2</ele>
        <time>2025-07-14T08:03:18Z</time>
      </trkpt>
      <trkpt lat="44.67018" lon="3.5981">
        <ele>1328.68</ele>
        <time>2025-07-14T08:03:32Z</time>
      </trkpt>
      <trkpt lat="44.6703" lon="3.59788">
        <ele>1330.6</ele>
        <time>2025-07-14T08:03:49Z</time>
      </trkpt>
      <trkpt lat="44.67045" lon="3.59765">
        <ele>1331.56</ele>
        <time>2025-07-14T08:04:07Z</time>
      </trkpt>
      <trkpt lat="44.67056" lon="3.59742">
        <ele>1333.01</ele>
        <time>2025-07-14T08:04:24Z</time>
      </trkpt>
      <trkpt lat="44.67065" lon="3.59722">
        <ele>1334.45</ele>
        <time>2025-07-14T08:04:38Z</time>
      </trkpt>
      <trkpt lat="44.67076" lon="3.59701">
        <ele>1336.85</ele>
        <time>2025-07-14T08:04:53Z</time>
      </trkpt>
      <trkpt lat="44.67089" lon="3.59679">
        <ele>1337.81</ele>
        <time>2025-07-14T08:05:09Z</time>
      </trkpt>
      <trkpt lat="44.671" lon="3.5966">
        <ele>1337.81</ele>
        <time>2025-07-14T08:05:23Z</time>
      </trkpt>
      <trkpt lat="44.6711" lon="3.59638">
        <ele>1339.25</ele>
        <time>2025-07-14T08:05:39Z</time>
      </trkpt>
      <trkpt lat="44.67119" lon="3.59618">
        <ele>1341.66</ele>
        <time>2025-07-14T08:05:52Z</time>
      </trkpt>
      <trkpt lat="44.67123" lon="3.59607">
        <ele>1342.62</ele>
        <time>2025-07-14T08:05:59Z</time>
      </trkpt>
      <trkpt lat="44.67124" lon="3.59606">
        <ele>1342.62</ele>
        <time>2025-07-14T08:06:00Z</time>
      </trkpt>
      <trkpt lat="44.67124" lon="3.59604">
        <ele>1342.62</ele>
        <time>2025-07-14T08:06:01Z</time>
      </trkpt>
      <trkpt lat="44.67125" lon="3.59603">
        <ele>1342.62</ele>
        <time>2025-07-14T08:06:02Z</time>
      </trkpt>
      <trkpt lat="44.67125" lon="3.59601">
        <ele>1343.1</ele>
        <time>2025-07-14T08:06:03Z</time>
      </trkpt>
      <trkpt lat="44.67126" lon="3.596">
        <ele>1343.1</ele>
        <time>2025-07-14T08:06:04Z</time>
      </trkpt>
      <trkpt lat="44.67135" lon="3.59575">
        <ele>1343.58</ele>
        <time>2025-07-14T08:06:19Z</time>
      </trkpt>
      <trkpt lat="44.67144" lon="3.59547">
        <ele>1344.06</ele>
        <time>2025-07-14T08:06:35Z</time>
      </trkpt>
      <trkpt lat="44.67153" lon="3.59516">
        <ele>1345.02</ele>
        <time>2025-07-14T08:06:52Z</time>
      </trkpt>
      <trkpt lat="44.67161" lon="3.59478">
        <ele>1345.5</ele>
        <time>2025-07-14T08:07:12Z</time>
      </trkpt>
      <trkpt lat="44.67165" lon="3.59446">
        <ele>1345.5</ele>
        <time>2025-07-14T08:07:28Z</time>
      </trkpt>
      <trkpt lat="44.67171" lon="3.59415">
        <ele>1344.54</ele>
        <time>2025-07-14T08:07:45Z</time>
      </trkpt>
      <trkpt lat="44.67173" lon="3.59379">
        <ele>1342.62</ele>
        <time>2025-07-14T08:08:03Z</time>
      </trkpt>
      <trkpt lat="44.67174" lon="3.59348">
        <ele>1341.18</ele>
        <time>2025-07-14T08:08:19Z</time>
      </trkpt>
      <trkpt lat="44.67171" lon="3.59313">
        <ele>1340.7</ele>
        <time>2025-07-14T08:08:37Z</time>
      </trkpt>
      <trkpt lat="44.67177" lon="3.5928">
        <ele>1339.25</ele>
        <time>2025-07-14T08:08:54Z</time>
      </trkpt>
      <trkpt lat="44.67182" lon="3.5925">
        <ele>1337.33</ele>
        <time>2025-07-14T08:09:10Z</time>
      </trkpt>
      <trkpt lat="44.67184" lon="3.59218">
        <ele>1336.37</ele>
        <time>2025-07-14T08:09:26Z</time>
      </trkpt>
      <trkpt lat="44.67184" lon="3.59186">
        <ele>1337.33</ele>
        <time>2025-07-14T08:09:43Z</time>
      </trkpt>
      <trkpt lat="44.67185" lon="3.59156">
        <ele>1337.33</ele>
        <time>2025-07-14T08:09:58Z</time>
      </trkpt>
      <trkpt lat="44.67186" lon="3.59124">
        <ele>1337.33</ele>
        <time>2025-07-14T08:10:15Z</time>
      </trkpt>
      <trkpt lat="44.67189" lon="3.59092">
        <ele>1336.85</ele>
        <time>2025-07-14T08:10:32Z</time>
      </trkpt>
      <trkpt lat="44.6719" lon="3.59063">
        <ele>1337.33</ele>
        <time>2025-07-14T08:10:47Z</time>
      </trkpt>
      <trkpt lat="44.67192" lon="3.59038">
        <ele>1338.77</ele>
        <time>2025-07-14T08:11:02Z</time>
      </trkpt>
      <trkpt lat="44.67192" lon="3.59004">
        <ele>1338.29</ele>
        <time>2025-07-14T08:11:18Z</time>
      </trkpt>
      <trkpt lat="44.67194" lon="3.58969">
        <ele>1338.29</ele>
        <time>2025-07-14T08:11:36Z</time>
      </trkpt>
      <trkpt lat="44.67196" lon="3.58936">
        <ele>1338.29</ele>
        <time>2025-07-14T08:11:53Z</time>
      </trkpt>
      <trkpt lat="44.67198" lon="3.58908">
        <ele>1338.77</ele>
        <time>2025-07-14T08:12:08Z</time>
      </trkpt>
      <trkpt lat="44.67206" lon="3.58879">
        <ele>1339.25</ele>
        <time>2025-07-14T08:12:23Z</time>
      </trkpt>
      <trkpt lat="44.67215" lon="3.58858">
        <ele>1338.77</ele>
        <time>2025-07-14T08:12:37Z</time>
      </trkpt>
      <trkpt lat="44.67226" lon="3.58827">
        <ele>1337.33</ele>
        <time>2025-07-14T08:12:54Z</time>
      </trkpt>
      <trkpt lat="44.67236" lon="3.58799">
        <ele>1338.29</ele>
        <time>2025-07-14T08:13:08Z</time>
      </trkpt>
      <trkpt lat="44.67247" lon="3.58773">
        <ele>1337.81</ele>
        <time>2025-07-14T08:13:22Z</time>
      </trkpt>
      <trkpt lat="44.6726" lon="3.58746">
        <ele>1337.81</ele>
        <time>2025-07-14T08:13:38Z</time>
      </trkpt>
      <trkpt lat="44.67261" lon="3.58744">
        <ele>1337.81</ele>
        <time>2025-07-14T08:13:39Z</time>
      </trkpt>
      <trkpt lat="44.67262" lon="3.58743">
        <ele>1337.81</ele>
        <time>2025-07-14T08:13:40Z</time>
      </trkpt>
      <trkpt lat="44.67266" lon="3.58731">
        <ele>1337.81</ele>
        <time>2025-07-14T08:13:47Z</time>
      </trkpt>
      <trkpt lat="44.67267" lon="3.5873">
        <ele>1337.33</ele>
        <time>2025-07-14T08:13:48Z</time>
      </trkpt>
      <trkpt lat="44.67278" lon="3.58703">
        <ele>1338.77</ele>
        <time>2025-07-14T08:14:04Z</time>
      </trkpt>
      <trkpt lat="44.67288" lon="3.58675">
        <ele>1340.7</ele>
        <time>2025-07-14T08:14:20Z</time>
      </trkpt>
      <trkpt lat="44.67302" lon="3.58646">
        <ele>1340.7</ele>
        <time>2025-07-14T08:14:37Z</time>
      </trkpt>
      <trkpt lat="44.67316" lon="3.58617">
        <ele>1342.62</ele>
        <time>2025-07-14T08:14:54Z</time>
      </trkpt>
      <trkpt lat="44.67328" lon="3.58587">
        <ele>1345.98</ele>
        <time>2025-07-14T08:15:13Z</time>
      </trkpt>
      <trkpt lat="44.6734" lon="3.58562">
        <ele>1346.94</ele>
        <time>2025-07-14T08:15:29Z</time>
      </trkpt>
      <trkpt lat="44.67353" lon="3.58538">
        <ele>1347.43</ele>
        <time>2025-07-14T08:15:45Z</time>
      </trkpt>
      <trkpt lat="44.67363" lon="3.58523">
        <ele>1347.91</ele>
        <time>2025-07-14T08:15:56Z</time>
      </trkpt>
      <trkpt lat="44.67363" lon="3.58522">
        <ele>1347.91</ele>
        <time>2025-07-14T08:15:57Z</time>
      </trkpt>
      <trkpt lat="44.67364" lon="3.5852">
        <ele>1347.91</ele>
        <time>2025-07-14T08:15:58Z</time>
      </trkpt>
      <trkpt lat="44.67365" lon="3.58518">
        <ele>1347.91</ele>
        <time>2025-07-14T08:15:59Z</time>
      </trkpt>
      <trkpt lat="44.67365" lon="3.58517">
        <ele>1347.91</ele>
        <time>2025-07-14T08:16:00Z</time>
      </trkpt>
      <trkpt lat="44.67366" lon="3.58515">
        <ele>1347.91</ele>
        <time>2025-07-14T08:16:01Z</time>
      </trkpt>
      <trkpt lat="44.67366" lon="3.58513">
        <ele>1347.91</ele>
        <time>2025-07-14T08:16:02Z</time>
      </trkpt>
      <trkpt lat="44.67374" lon="3.58489">
        <ele>1347.91</ele>
        <time>2025-07-14T08:16:15Z</time>
      </trkpt>
      <trkpt lat="44.67384" lon="3.58457">
        <ele>1348.87</ele>
        <time>2025-07-14T08:16:32Z</time>
      </trkpt>
      <trkpt lat="44.67394" lon="3.58429">
        <ele>1349.35</ele>
        <time>2025-07-14T08:16:48Z</time>
      </trkpt>
      <trkpt lat="44.67406" lon="3.58402">
        <ele>1350.31</ele>
        <time>2025-07-14T08:17:04Z</time>
      </trkpt>
      <trkpt lat="44.6742" lon="3.58371">
        <ele>1348.87</ele>
        <time>2025-07-14T08:17:23Z</time>
      </trkpt>
      <trkpt lat="44.67432" lon="3.58344">
        <ele>1349.35</ele>
        <time>2025-07-14T08:17:39Z</time>
      </trkpt>
      <trkpt lat="44.67445" lon="3.58315">
        <ele>1349.35</ele>
        <time>2025-07-14T08:17:56Z</time>
      </trkpt>
      <trkpt lat="44.67455" lon="3.5829">
        <ele>1349.83</ele>
        <time>2025-07-14T08:18:11Z</time>
      </trkpt>
      <trkpt lat="44.67466" lon="3.58267">
        <ele>1350.31</ele>
        <time>2025-07-14T08:18:25Z</time>
      </trkpt>
      <trkpt lat="44.67472" lon="3.5826">
        <ele>1349.83</ele>
        <time>2025-07-14T08:18:32Z</time>
      </trkpt>
      <trkpt lat="44.67473" lon="3.58261">
        <ele>1349.35</ele>
        <time>2025-07-14T08:18:33Z</time>
      </trkpt>
      <trkpt lat="44.6749" lon="3.58288">
        <ele>1347.43</ele>
        <time>2025-07-14T08:18:50Z</time>
      </trkpt>
      <trkpt lat="44.67514" lon="3.58309">
        <ele>1344.54</ele>
        <time>2025-07-14T08:19:09Z</time>
      </trkpt>
      <trkpt lat="44.6754" lon="3.58325">
        <ele>1342.62</ele>
        <time>2025-07-14T08:19:28Z</time>
      </trkpt>
      <trkpt lat="44.67571" lon="3.58338">
        <ele>1339.73</ele>
        <time>2025-07-14T08:19:48Z</time>
      </trkpt>
      <trkpt lat="44.67599" lon="3.58347">
        <ele>1334.93</ele>
        <time>2025-07-14T08:20:08Z</time>
      </trkpt>
      <trkpt lat="44.67626" lon="3.58354">
        <ele>1329.16</ele>
        <time>2025-07-14T08:20:26Z</time>
      </trkpt>
      <trkpt lat="44.67653" lon="3.58362">
        <ele>1327.24</ele>
        <time>2025-07-14T08:20:43Z</time>
      </trkpt>
      <trkpt lat="44.6768" lon="3.58371">
        <ele>1325.31</ele>
        <time>2025-07-14T08:21:02Z</time>
      </trkpt>
      <trkpt lat="44.67709" lon="3.58389">
        <ele>1325.8</ele>
        <time>2025-07-14T08:21:23Z</time>
      </trkpt>
      <trkpt lat="44.67726" lon="3.58414">
        <ele>1327.72</ele>
        <time>2025-07-14T08:21:40Z</time>
      </trkpt>
      <trkpt lat="44.67739" lon="3.58451">
        <ele>1331.08</ele>
        <time>2025-07-14T08:21:54Z</time>
      </trkpt>
      <trkpt lat="44.67752" lon="3.5848">
        <ele>1335.41</ele>
        <time>2025-07-14T08:22:09Z</time>
      </trkpt>
      <trkpt lat="44.67762" lon="3.58507">
        <ele>1338.29</ele>
        <time>2025-07-14T08:22:27Z</time>
      </trkpt>
      <trkpt lat="44.67771" lon="3.58529">
        <ele>1340.22</ele>
        <time>2025-07-14T08:22:43Z</time>
      </trkpt>
      <trkpt lat="44.67783" lon="3.58554">
        <ele>1342.14</ele>
        <time>2025-07-14T08:23:00Z</time>
      </trkpt>
      <trkpt lat="44.67796" lon="3.58574">
        <ele>1344.06</ele>
        <time>2025-07-14T08:23:16Z</time>
      </trkpt>
      <trkpt lat="44.67802" lon="3.58603">
        <ele>1345.5</ele>
        <time>2025-07-14T08:23:33Z</time>
      </trkpt>
      <trkpt lat="44.67809" lon="3.58636">
        <ele>1346.46</ele>
        <time>2025-07-14T08:23:52Z</time>
      </trkpt>
      <trkpt lat="44.67816" lon="3.5867">
        <ele>1348.87</ele>
        <time>2025-07-14T08:24:11Z</time>
      </trkpt>
      <trkpt lat="44.67811" lon="3.587">
        <ele>1351.27</ele>
        <time>2025-07-14T08:24:28Z</time>
      </trkpt>
      <trkpt lat="44.6781" lon="3.5871">
        <ele>1352.23</ele>
        <time>2025-07-14T08:24:35Z</time>
      </trkpt>
      <trkpt lat="44.67811" lon="3.58712">
        <ele>1352.23</ele>
        <time>2025-07-14T08:24:36Z</time>
      </trkpt>
      <trkpt lat="44.67825" lon="3.5873">
        <ele>1354.63</ele>
        <time>2025-07-14T08:24:52Z</time>
      </trkpt>
      <trkpt lat="44.67842" lon="3.58749">
        <ele>1356.56</ele>
        <time>2025-07-14T08:25:09Z</time>
      </trkpt>
      <trkpt lat="44.67858" lon="3.58768">
        <ele>1359.92</ele>
        <time>2025-07-14T08:25:20Z</time>
      </trkpt>
      <trkpt lat="44.6788" lon="3.58783">
        <ele>1361.84</ele>
        <time>2025-07-14T08:25:40Z</time>
      </trkpt>
      <trkpt lat="44.67901" lon="3.5879">
        <ele>1363.29</ele>
        <time>2025-07-14T08:25:58Z</time>
      </trkpt>
      <trkpt lat="44.6791" lon="3.58797">
        <ele>1363.77</ele>
        <time>2025-07-14T08:26:06Z</time>
      </trkpt>
      <trkpt lat="44.67911" lon="3.58798">
        <ele>1364.25</ele>
        <time>2025-07-14T08:26:07Z</time>
      </trkpt>
      <trkpt lat="44.67912" lon="3.58799">
        <ele>1364.25</ele>
        <time>2025-07-14T08:26:08Z</time>
      </trkpt>
      <trkpt lat="44.67914" lon="3.58799">
        <ele>1364.25</ele>
        <time>2025-07-14T08:26:09Z</time>
      </trkpt>
      <trkpt lat="44.67915" lon="3.588">
        <ele>1364.25</ele>
        <time>2025-07-14T08:26:10Z</time>
      </trkpt>
      <trkpt lat="44.67935" lon="3.58813">
        <ele>1366.17</ele>
        <time>2025-07-14T08:26:26Z</time>
      </trkpt>
      <trkpt lat="44.67957" lon="3.58826">
        <ele>1368.09</ele>
        <time>2025-07-14T08:26:45Z</time>
      </trkpt>
      <trkpt lat="44.67981" lon="3.5884">
        <ele>1370.02</ele>
        <time>2025-07-14T08:27:04Z</time>
      </trkpt>
      <trkpt lat="44.68002" lon="3.58854">
        <ele>1372.9</ele>
        <time>2025-07-14T08:27:20Z</time>
      </trkpt>
      <trkpt lat="44.68027" lon="3.58864">
        <ele>1375.78</ele>
        <time>2025-07-14T08:27:39Z</time>
      </trkpt>
      <trkpt lat="44.68053" lon="3.5887">
        <ele>1376.75</ele>
        <time>2025-07-14T08:27:58Z</time>
      </trkpt>
      <trkpt lat="44.68073" lon="3.58882">
        <ele>1378.67</ele>
        <time>2025-07-14T08:28:16Z</time>
      </trkpt>
      <trkpt lat="44.68092" lon="3.58893">
        <ele>1382.03</ele>
        <time>2025-07-14T08:28:34Z</time>
      </trkpt>
      <trkpt lat="44.68112" lon="3.58912">
        <ele>1386.36</ele>
        <time>2025-07-14T08:28:50Z</time>
      </trkpt>
      <trkpt lat="44.68138" lon="3.58925">
        <ele>1390.68</ele>
        <time>2025-07-14T08:29:11Z</time>
      </trkpt>
      <trkpt lat="44.68155" lon="3.58947">
        <ele>1392.61</ele>
        <time>2025-07-14T08:29:29Z</time>
      </trkpt>
      <trkpt lat="44.68167" lon="3.58969">
        <ele>1393.57</ele>
        <time>2025-07-14T08:29:44Z</time>
      </trkpt>
      <trkpt lat="44.68179" lon="3.58996">
        <ele>1392.13</ele>
        <time>2025-07-14T08:30:01Z</time>
      </trkpt>
      <trkpt lat="44.68193" lon="3.59019">
        <ele>1389.24</ele>
        <time>2025-07-14T08:30:18Z</time>
      </trkpt>
      <trkpt lat="44.68212" lon="3.5904">
        <ele>1386.84</ele>
        <time>2025-07-14T08:30:35Z</time>
      </trkpt>
      <trkpt lat="44.68228" lon="3.59068">
        <ele>1384.92</ele>
        <time>2025-07-14T08:30:54Z</time>
      </trkpt>
      <trkpt lat="44.68244" lon="3.59088">
        <ele>1383.47</ele>
        <time>2025-07-14T08:31:09Z</time>
      </trkpt>
      <trkpt lat="44.68263" lon="3.5911">
        <ele>1382.03</ele>
        <time>2025-07-14T08:31:26Z</time>
      </trkpt>
      <trkpt lat="44.68273" lon="3.5913">
        <ele>1381.07</ele>
        <time>2025-07-14T08:31:40Z</time>
      </trkpt>
      <trkpt lat="44.68283" lon="3.59153">
        <ele>1380.11</ele>
        <time>2025-07-14T08:31:55Z</time>
      </trkpt>
      <trkpt lat="44.683" lon="3.59183">
        <ele>1377.71</ele>
        <time>2025-07-14T08:32:13Z</time>
      </trkpt>
      <trkpt lat="44.68317" lon="3.59214">
        <ele>1375.78</ele>
        <time>2025-07-14T08:32:31Z</time>
      </trkpt>
      <trkpt lat="44.68338" lon="3.5924">
        <ele>1374.34</ele>
        <time>2025-07-14T08:32:49Z</time>
      </trkpt>
      <trkpt lat="44.68356" lon="3.59271">
        <ele>1373.38</ele>
        <time>2025-07-14T08:33:09Z</time>
      </trkpt>
      <trkpt lat="44.68373" lon="3.59304">
        <ele>1375.78</ele>
        <time>2025-07-14T08:33:28Z</time>
      </trkpt>
      <trkpt lat="44.6839" lon="3.59336">
        <ele>1381.55</ele>
        <time>2025-07-14T08:33:47Z</time>
      </trkpt>
      <trkpt lat="44.6841" lon="3.59363">
        <ele>1381.55</ele>
        <time>2025-07-14T08:34:07Z</time>
      </trkpt>
      <trkpt lat="44.68432" lon="3.59388">
        <ele>1382.03</ele>
        <time>2025-07-14T08:34:27Z</time>
      </trkpt>
      <trkpt lat="44.6846" lon="3.59416">
        <ele>1386.36</ele>
        <time>2025-07-14T08:34:48Z</time>
      </trkpt>
      <trkpt lat="44.68482" lon="3.59432">
        <ele>1387.32</ele>
        <time>2025-07-14T08:35:04Z</time>
      </trkpt>
      <trkpt lat="44.68507" lon="3.59449">
        <ele>1389.24</ele>
        <time>2025-07-14T08:35:22Z</time>
      </trkpt>
      <trkpt lat="44.68532" lon="3.5947">
        <ele>1391.65</ele>
        <time>2025-07-14T08:35:42Z</time>
      </trkpt>
      <trkpt lat="44.68551" lon="3.59488">
        <ele>1393.09</ele>
        <time>2025-07-14T08:35:59Z</time>
      </trkpt>
      <trkpt lat="44.68574" lon="3.59511">
        <ele>1395.01</ele>
        <time>2025-07-14T08:36:16Z</time>
      </trkpt>
      <trkpt lat="44.68586" lon="3.59544">
        <ele>1391.17</ele>
        <time>2025-07-14T08:36:35Z</time>
      </trkpt>
      <trkpt lat="44.68585" lon="3.59545">
        <ele>1390.2</ele>
        <time>2025-07-14T08:36:36Z</time>
      </trkpt>
      <trkpt lat="44.68585" lon="3.59547">
        <ele>1390.2</ele>
        <time>2025-07-14T08:36:37Z</time>
      </trkpt>
      <trkpt lat="44.68584" lon="3.59548">
        <ele>1390.2</ele>
        <time>2025-07-14T08:36:38Z</time>
      </trkpt>
      <trkpt lat="44.68584" lon="3.5955">
        <ele>1389.72</ele>
        <time>2025-07-14T08:36:39Z</time>
      </trkpt>
      <trkpt lat="44.68574" lon="3.59587">
        <ele>1387.8</ele>
        <time>2025-07-14T08:36:57Z</time>
      </trkpt>
      <trkpt lat="44.68569" lon="3.59622">
        <ele>1386.36</ele>
        <time>2025-07-14T08:37:15Z</time>
      </trkpt>
      <trkpt lat="44.68564" lon="3.59653">
        <ele>1386.36</ele>
        <time>2025-07-14T08:37:31Z</time>
      </trkpt>
      <trkpt lat="44.68559" lon="3.59684">
        <ele>1386.84</ele>
        <time>2025-07-14T08:37:46Z</time>
      </trkpt>
      <trkpt lat="44.68555" lon="3.59719">
        <ele>1386.36</ele>
        <time>2025-07-14T08:38:03Z</time>
      </trkpt>
      <trkpt lat="44.68551" lon="3.59755">
        <ele>1387.32</ele>
        <time>2025-07-14T08:38:20Z</time>
      </trkpt>
      <trkpt lat="44.68547" lon="3.5979">
        <ele>1386.84</ele>
        <time>2025-07-14T08:38:38Z</time>
      </trkpt>
      <trkpt lat="44.68544" lon="3.59828">
        <ele>1385.88</ele>
        <time>2025-07-14T08:38:57Z</time>
      </trkpt>
      <trkpt lat="44.68544" lon="3.59839">
        <ele>1386.36</ele>
        <time>2025-07-14T08:39:04Z</time>
      </trkpt>
      <trkpt lat="44.68543" lon="3.59841">
        <ele>1386.36</ele>
        <time>2025-07-14T08:39:05Z</time>
      </trkpt>
      <trkpt lat="44.68543" lon="3.59843">
        <ele>1386.36</ele>
        <time>2025-07-14T08:39:06Z</time>
      </trkpt>
      <trkpt lat="44.68541" lon="3.59861">
        <ele>1387.8</ele>
        <time>2025-07-14T08:39:23Z</time>
      </trkpt>
      <trkpt lat="44.68547" lon="3.59897">
        <ele>1389.24</ele>
        <time>2025-07-14T08:39:43Z</time>
      </trkpt>
      <trkpt lat="44.68557" lon="3.59935">
        <ele>1389.72</ele>
        <time>2025-07-14T08:40:02Z</time>
      </trkpt>
      <trkpt lat="44.68567" lon="3.59958">
        <ele>1389.72</ele>
        <time>2025-07-14T08:40:20Z</time>
      </trkpt>
      <trkpt lat="44.68574" lon="3.59981">
        <ele>1388.76</ele>
        <time>2025-07-14T08:40:35Z</time>
      </trkpt>
      <trkpt lat="44.68574" lon="3.60018">
        <ele>1387.32</ele>
        <time>2025-07-14T08:40:52Z</time>
      </trkpt>
      <trkpt lat="44.68579" lon="3.60033">
        <ele>1385.4</ele>
        <time>2025-07-14T08:41:05Z</time>
      </trkpt>
      <trkpt lat="44.68582" lon="3.60068">
        <ele>1381.07</ele>
        <time>2025-07-14T08:41:23Z</time>
      </trkpt>
      <trkpt lat="44.68587" lon="3.60107">
        <ele>1380.11</ele>
        <time>2025-07-14T08:41:42Z</time>
      </trkpt>
      <trkpt lat="44.68591" lon="3.6014">
        <ele>1379.63</ele>
        <time>2025-07-14T08:41:58Z</time>
      </trkpt>
      <trkpt lat="44.68596" lon="3.60173">
        <ele>1377.23</ele>
        <time>2025-07-14T08:42:15Z</time>
      </trkpt>
      <trkpt lat="44.68604" lon="3.60209">
        <ele>1373.86</ele>
        <time>2025-07-14T08:42:34Z</time>
      </trkpt>
      <trkpt lat="44.68619" lon="3.60244">
        <ele>1372.9</ele>
        <time>2025-07-14T08:42:52Z</time>
      </trkpt>
      <trkpt lat="44.6864" lon="3.60282">
        <ele>1370.5</ele>
        <time>2025-07-14T08:43:13Z</time>
      </trkpt>
      <trkpt lat="44.68649" lon="3.60311">
        <ele>1369.54</ele>
        <time>2025-07-14T08:43:28Z</time>
      </trkpt>
      <trkpt lat="44.68657" lon="3.60349">
        <ele>1370.02</ele>
        <time>2025-07-14T08:43:47Z</time>
      </trkpt>
      <trkpt lat="44.68663" lon="3.60386">
        <ele>1368.57</ele>
        <time>2025-07-14T08:44:07Z</time>
      </trkpt>
      <trkpt lat="44.68667" lon="3.60432">
        <ele>1369.05</ele>
        <time>2025-07-14T08:44:29Z</time>
      </trkpt>
      <trkpt lat="44.68667" lon="3.60449">
        <ele>1368.57</ele>
        <time>2025-07-14T08:44:38Z</time>
      </trkpt>
      <trkpt lat="44.68665" lon="3.6046">
        <ele>1370.02</ele>
        <time>2025-07-14T08:44:51Z</time>
      </trkpt>
      <trkpt lat="44.68662" lon="3.60457">
        <ele>1370.98</ele>
        <time>2025-07-14T08:45:07Z</time>
      </trkpt>
      <trkpt lat="44.68663" lon="3.60457">
        <ele>1370.5</ele>
        <time>2025-07-14T08:45:16Z</time>
      </trkpt>
      <trkpt lat="44.68664" lon="3.60458">
        <ele>1370.98</ele>
        <time>2025-07-14T08:45:17Z</time>
      </trkpt>
      <trkpt lat="44.68665" lon="3.6046">
        <ele>1370.98</ele>
        <time>2025-07-14T08:45:18Z</time>
      </trkpt>
      <trkpt lat="44.68666" lon="3.60461">
        <ele>1370.98</ele>
        <time>2025-07-14T08:45:19Z</time>
      </trkpt>
      <trkpt lat="44.68667" lon="3.60463">
        <ele>1370.98</ele>
        <time>2025-07-14T08:45:20Z</time>
      </trkpt>
      <trkpt lat="44.68667" lon="3.60465">
        <ele>1370.5</ele>
        <time>2025-07-14T08:45:21Z</time>
      </trkpt>
      <trkpt lat="44.68668" lon="3.60467">
        <ele>1370.5</ele>
        <time>2025-07-14T08:45:22Z</time>
      </trkpt>
      <trkpt lat="44.68668" lon="3.60469">
        <ele>1370.5</ele>
        <time>2025-07-14T08:45:23Z</time>
      </trkpt>
      <trkpt lat="44.68668" lon="3.60472">
        <ele>1370.5</ele>
        <time>2025-07-14T08:45:24Z</time>
      </trkpt>
      <trkpt lat="44.68669" lon="3.60474">
        <ele>1370.02</ele>
        <time>2025-07-14T08:45:25Z</time>
      </trkpt>
      <trkpt lat="44.68667" lon="3.60512">
        <ele>1369.54</ele>
        <time>2025-07-14T08:45:44Z</time>
      </trkpt>
      <trkpt lat="44.68664" lon="3.60545">
        <ele>1368.57</ele>
        <time>2025-07-14T08:46:01Z</time>
      </trkpt>
      <trkpt lat="44.68657" lon="3.60581">
        <ele>1366.17</ele>
        <time>2025-07-14T08:46:20Z</time>
      </trkpt>
      <trkpt lat="44.6865" lon="3.60615">
        <ele>1364.73</ele>
        <time>2025-07-14T08:46:38Z</time>
      </trkpt>
      <trkpt lat="44.6864" lon="3.60651">
        <ele>1363.77</ele>
        <time>2025-07-14T08:46:57Z</time>
      </trkpt>
      <trkpt lat="44.68632" lon="3.60678">
        <ele>1362.81</ele>
        <time>2025-07-14T08:47:14Z</time>
      </trkpt>
      <trkpt lat="44.68623" lon="3.60709">
        <ele>1360.4</ele>
        <time>2025-07-14T08:47:31Z</time>
      </trkpt>
      <trkpt lat="44.68623" lon="3.60711">
        <ele>1360.4</ele>
        <time>2025-07-14T08:47:32Z</time>
      </trkpt>
      <trkpt lat="44.68623" lon="3.60713">
        <ele>1359.92</ele>
        <time>2025-07-14T08:47:33Z</time>
      </trkpt>
      <trkpt lat="44.68623" lon="3.60715">
        <ele>1359.92</ele>
        <time>2025-07-14T08:47:34Z</time>
      </trkpt>
      <trkpt lat="44.68622" lon="3.60717">
        <ele>1359.92</ele>
        <time>2025-07-14T08:47:35Z</time>
      </trkpt>
      <trkpt lat="44.68622" lon="3.60718">
        <ele>1359.92</ele>
        <time>2025-07-14T08:47:36Z</time>
      </trkpt>
      <trkpt lat="44.68621" lon="3.6072">
        <ele>1359.92</ele>
        <time>2025-07-14T08:47:37Z</time>
      </trkpt>
      <trkpt lat="44.68613" lon="3.60747">
        <ele>1357.52</ele>
        <time>2025-07-14T08:47:53Z</time>
      </trkpt>
      <trkpt lat="44.68603" lon="3.60783">
        <ele>1355.6</ele>
        <time>2025-07-14T08:48:11Z</time>
      </trkpt>
      <trkpt lat="44.68597" lon="3.60813">
        <ele>1354.15</ele>
        <time>2025-07-14T08:48:26Z</time>
      </trkpt>
      <trkpt lat="44.68596" lon="3.60845">
        <ele>1351.27</ele>
        <time>2025-07-14T08:48:42Z</time>
      </trkpt>
      <trkpt lat="44.68592" lon="3.60882">
        <ele>1346.46</ele>
        <time>2025-07-14T08:49:00Z</time>
      </trkpt>
      <trkpt lat="44.68584" lon="3.60914">
        <ele>1345.02</ele>
        <time>2025-07-14T08:49:17Z</time>
      </trkpt>
      <trkpt lat="44.68577" lon="3.60948">
        <ele>1343.1</ele>
        <time>2025-07-14T08:49:36Z</time>
      </trkpt>
      <trkpt lat="44.68576" lon="3.60985">
        <ele>1346.94</ele>
        <time>2025-07-14T08:49:54Z</time>
      </trkpt>
      <trkpt lat="44.68574" lon="3.61019">
        <ele>1351.75</ele>
        <time>2025-07-14T08:50:11Z</time>
      </trkpt>
      <trkpt lat="44.68573" lon="3.61053">
        <ele>1352.71</ele>
        <time>2025-07-14T08:50:28Z</time>
      </trkpt>
      <trkpt lat="44.68577" lon="3.61093">
        <ele>1354.15</ele>
        <time>2025-07-14T08:50:47Z</time>
      </trkpt>
      <trkpt lat="44.68572" lon="3.61127">
        <ele>1353.19</ele>
        <time>2025-07-14T08:51:05Z</time>
      </trkpt>
      <trkpt lat="44.68566" lon="3.61159">
        <ele>1352.71</ele>
        <time>2025-07-14T08:51:22Z</time>
      </trkpt>
      <trkpt lat="44.68566" lon="3.61195">
        <ele>1351.75</ele>
        <time>2025-07-14T08:51:39Z</time>
      </trkpt>
      <trkpt lat="44.68579" lon="3.61231">
        <ele>1351.75</ele>
        <time>2025-07-14T08:51:57Z</time>
      </trkpt>
      <trkpt lat="44.68588" lon="3.61266">
        <ele>1351.27</ele>
        <time>2025-07-14T08:52:15Z</time>
      </trkpt>
      <trkpt lat="44.68592" lon="3.61303">
        <ele>1351.27</ele>
        <time>2025-07-14T08:52:33Z</time>
      </trkpt>
      <trkpt lat="44.686" lon="3.6134">
        <ele>1351.27</ele>
        <time>2025-07-14T08:52:51Z</time>
      </trkpt>
      <trkpt lat="44.68614" lon="3.61378">
        <ele>1348.87</ele>
        <time>2025-07-14T08:53:10Z</time>
      </trkpt>
      <trkpt lat="44.68632" lon="3.61413">
        <ele>1348.39</ele>
        <time>2025-07-14T08:53:30Z</time>
      </trkpt>
      <trkpt lat="44.68645" lon="3.61445">
        <ele>1345.5</ele>
        <time>2025-07-14T08:53:47Z</time>
      </trkpt>
      <trkpt lat="44.68657" lon="3.61479">
        <ele>1343.1</ele>
        <time>2025-07-14T08:54:04Z</time>
      </trkpt>
      <trkpt lat="44.68668" lon="3.61513">
        <ele>1342.62</ele>
        <time>2025-07-14T08:54:21Z</time>
      </trkpt>
      <trkpt lat="44.68679" lon="3.61548">
        <ele>1341.66</ele>
        <time>2025-07-14T08:54:39Z</time>
      </trkpt>
      <trkpt lat="44.6869" lon="3.61583">
        <ele>1341.18</ele>
        <time>2025-07-14T08:54:57Z</time>
      </trkpt>
      <trkpt lat="44.68693" lon="3.61618">
        <ele>1341.18</ele>
        <time>2025-07-14T08:55:14Z</time>
      </trkpt>
      <trkpt lat="44.68699" lon="3.61652">
        <ele>1341.18</ele>
        <time>2025-07-14T08:55:30Z</time>
      </trkpt>
      <trkpt lat="44.68706" lon="3.61692">
        <ele>1342.14</ele>
        <time>2025-07-14T08:55:49Z</time>
      </trkpt>
      <trkpt lat="44.68716" lon="3.61722">
        <ele>1342.14</ele>
        <time>2025-07-14T08:56:04Z</time>
      </trkpt>
      <trkpt lat="44.68726" lon="3.6176">
        <ele>1337.81</ele>
        <time>2025-07-14T08:56:24Z</time>
      </trkpt>
      <trkpt lat="44.68726" lon="3.61762">
        <ele>1337.33</ele>
        <time>2025-07-14T08:56:25Z</time>
      </trkpt>
      <trkpt lat="44.68734" lon="3.61772">
        <ele>1336.85</ele>
        <time>2025-07-14T08:56:35Z</time>
      </trkpt>
      <trkpt lat="44.68735" lon="3.61771">
        <ele>1336.37</ele>
        <time>2025-07-14T08:56:36Z</time>
      </trkpt>
      <trkpt lat="44.68737" lon="3.61769">
        <ele>1335.89</ele>
        <time>2025-07-14T08:56:37Z</time>
      </trkpt>
      <trkpt lat="44.68751" lon="3.61748">
        <ele>1332.52</ele>
        <time>2025-07-14T08:56:52Z</time>
      </trkpt>
      <trkpt lat="44.68763" lon="3.61765">
        <ele>1330.12</ele>
        <time>2025-07-14T08:57:05Z</time>
      </trkpt>
      <trkpt lat="44.68766" lon="3.61796">
        <ele>1326.76</ele>
        <time>2025-07-14T08:57:21Z</time>
      </trkpt>
      <trkpt lat="44.68767" lon="3.61838">
        <ele>1320.99</ele>
        <time>2025-07-14T08:57:40Z</time>
      </trkpt>
      <trkpt lat="44.68768" lon="3.61872">
        <ele>1314.74</ele>
        <time>2025-07-14T08:57:57Z</time>
      </trkpt>
      <trkpt lat="44.6877" lon="3.61904">
        <ele>1308.97</ele>
        <time>2025-07-14T08:58:12Z</time>
      </trkpt>
      <trkpt lat="44.68773" lon="3.61934">
        <ele>1305.61</ele>
        <time>2025-07-14T08:58:26Z</time>
      </trkpt>
      <trkpt lat="44.68773" lon="3.61935">
        <ele>1305.13</ele>
        <time>2025-07-14T08:58:27Z</time>
      </trkpt>
      <trkpt lat="44.68774" lon="3.61937">
        <ele>1305.13</ele>
        <time>2025-07-14T08:58:28Z</time>
      </trkpt>
      <trkpt lat="44.68775" lon="3.61939">
        <ele>1305.13</ele>
        <time>2025-07-14T08:58:29Z</time>
      </trkpt>
      <trkpt lat="44.68776" lon="3.61941">
        <ele>1304.65</ele>
        <time>2025-07-14T08:58:30Z</time>
      </trkpt>
      <trkpt lat="44.68776" lon="3.61943">
        <ele>1304.65</ele>
        <time>2025-07-14T08:58:31Z</time>
      </trkpt>
      <trkpt lat="44.68776" lon="3.61945">
        <ele>1304.65</ele>
        <time>2025-07-14T08:58:32Z</time>
      </trkpt>
      <trkpt lat="44.68781" lon="3.61978">
        <ele>1302.24</ele>
        <time>2025-07-14T08:58:47Z</time>
      </trkpt>
      <trkpt lat="44.68783" lon="3.62012">
        <ele>1297.44</ele>
        <time>2025-07-14T08:59:03Z</time>
      </trkpt>
      <trkpt lat="44.68786" lon="3.6204">
        <ele>1292.15</ele>
        <time>2025-07-14T08:59:18Z</time>
      </trkpt>
      <trkpt lat="44.68789" lon="3.62082">
        <ele>1286.86</ele>
        <time>2025-07-14T08:59:36Z</time>
      </trkpt>
      <trkpt lat="44.68792" lon="3.62115">
        <ele>1282.06</ele>
        <time>2025-07-14T08:59:52Z</time>
      </trkpt>
      <trkpt lat="44.68806" lon="3.6215">
        <ele>1277.73</ele>
        <time>2025-07-14T09:00:10Z</time>
      </trkpt>
      <trkpt lat="44.68815" lon="3.6217">
        <ele>1274.36</ele>
        <time>2025-07-14T09:00:26Z</time>
      </trkpt>
      <trkpt lat="44.68825" lon="3.62194">
        <ele>1270.52</ele>
        <time>2025-07-14T09:00:41Z</time>
      </trkpt>
      <trkpt lat="44.68826" lon="3.62199">
        <ele>1270.04</ele>
        <time>2025-07-14T09:00:43Z</time>
      </trkpt>
      <trkpt lat="44.68826" lon="3.62201">
        <ele>1270.04</ele>
        <time>2025-07-14T09:00:44Z</time>
      </trkpt>
      <trkpt lat="44.68827" lon="3.62203">
        <ele>1270.04</ele>
        <time>2025-07-14T09:00:45Z</time>
      </trkpt>
      <trkpt lat="44.68828" lon="3.62204">
        <ele>1269.56</ele>
        <time>2025-07-14T09:00:46Z</time>
      </trkpt>
      <trkpt lat="44.68828" lon="3.62206">
        <ele>1269.56</ele>
        <time>2025-07-14T09:00:47Z</time>
      </trkpt>
      <trkpt lat="44.68837" lon="3.62219">
        <ele>1269.56</ele>
        <time>2025-07-14T09:00:56Z</time>
      </trkpt>
      <trkpt lat="44.68837" lon="3.62221">
        <ele>1269.56</ele>
        <time>2025-07-14T09:00:57Z</time>
      </trkpt>
      <trkpt lat="44.68837" lon="3.62223">
        <ele>1269.56</ele>
        <time>2025-07-14T09:00:58Z</time>
      </trkpt>
      <trkpt lat="44.68837" lon="3.62225">
        <ele>1269.56</ele>
        <time>2025-07-14T09:00:59Z</time>
      </trkpt>
      <trkpt lat="44.68838" lon="3.62227">
        <ele>1269.56</ele>
        <time>2025-07-14T09:01:00Z</time>
      </trkpt>
      <trkpt lat="44.68838" lon="3.62228">
        <ele>1269.56</ele>
        <time>2025-07-14T09:01:01Z</time>
      </trkpt>
      <trkpt lat="44.6884" lon="3.62264">
        <ele>1270.04</ele>
        <time>2025-07-14T09:01:18Z</time>
      </trkpt>
      <trkpt lat="44.68841" lon="3.62277">
        <ele>1270.04</ele>
        <time>2025-07-14T09:01:24Z</time>
      </trkpt>
      <trkpt lat="44.68842" lon="3.62279">
        <ele>1270.04</ele>
        <time>2025-07-14T09:01:25Z</time>
      </trkpt>
      <trkpt lat="44.68844" lon="3.623">
        <ele>1270.52</ele>
        <time>2025-07-14T09:01:37Z</time>
      </trkpt>
      <trkpt lat="44.68844" lon="3.62302">
        <ele>1270.52</ele>
        <time>2025-07-14T09:01:38Z</time>
      </trkpt>
      <trkpt lat="44.68843" lon="3.62316">
        <ele>1270.04</ele>
        <time>2025-07-14T09:01:45Z</time>
      </trkpt>
      <trkpt lat="44.68843" lon="3.62318">
        <ele>1270.04</ele>
        <time>2025-07-14T09:01:46Z</time>
      </trkpt>
      <trkpt lat="44.68834" lon="3.62344">
        <ele>1268.12</ele>
        <time>2025-07-14T09:02:00Z</time>
      </trkpt>
      <trkpt lat="44.68829" lon="3.62377">
        <ele>1263.31</ele>
        <time>2025-07-14T09:02:21Z</time>
      </trkpt>
      <trkpt lat="44.6883" lon="3.62378">
        <ele>1263.31</ele>
        <time>2025-07-14T09:02:37Z</time>
      </trkpt>
      <trkpt lat="44.68829" lon="3.62383">
        <ele>1262.35</ele>
        <time>2025-07-14T09:02:53Z</time>
      </trkpt>
      <trkpt lat="44.6883" lon="3.62385">
        <ele>1263.31</ele>
        <time>2025-07-14T09:03:07Z</time>
      </trkpt>
      <trkpt lat="44.6883" lon="3.62392">
        <ele>1264.27</ele>
        <time>2025-07-14T09:03:20Z</time>
      </trkpt>
      <trkpt lat="44.68831" lon="3.62393">
        <ele>1264.27</ele>
        <time>2025-07-14T09:03:21Z</time>
      </trkpt>
      <trkpt lat="44.68836" lon="3.62404">
        <ele>1264.27</ele>
        <time>2025-07-14T09:03:29Z</time>
      </trkpt>
      <trkpt lat="44.68855" lon="3.62413">
        <ele>1264.27</ele>
        <time>2025-07-14T09:03:44Z</time>
      </trkpt>
      <trkpt lat="44.6887" lon="3.62429">
        <ele>1265.23</ele>
        <time>2025-07-14T09:04:00Z</time>
      </trkpt>
      <trkpt lat="44.68886" lon="3.62444">
        <ele>1266.67</ele>
        <time>2025-07-14T09:04:16Z</time>
      </trkpt>
      <trkpt lat="44.68902" lon="3.6246">
        <ele>1268.12</ele>
        <time>2025-07-14T09:04:31Z</time>
      </trkpt>
      <trkpt lat="44.68923" lon="3.6247">
        <ele>1267.64</ele>
        <time>2025-07-14T09:04:48Z</time>
      </trkpt>
      <trkpt lat="44.68947" lon="3.62477">
        <ele>1267.16</ele>
        <time>2025-07-14T09:05:06Z</time>
      </trkpt>
      <trkpt lat="44.6897" lon="3.62484">
        <ele>1267.64</ele>
        <time>2025-07-14T09:05:24Z</time>
      </trkpt>
      <trkpt lat="44.68997" lon="3.6249">
        <ele>1266.67</ele>
        <time>2025-07-14T09:05:43Z</time>
      </trkpt>
      <trkpt lat="44.69018" lon="3.62496">
        <ele>1265.71</ele>
        <time>2025-07-14T09:06:00Z</time>
      </trkpt>
      <trkpt lat="44.69045" lon="3.62503">
        <ele>1264.75</ele>
        <time>2025-07-14T09:06:20Z</time>
      </trkpt>
      <trkpt lat="44.69058" lon="3.62503">
        <ele>1263.79</ele>
        <time>2025-07-14T09:06:31Z</time>
      </trkpt>
      <trkpt lat="44.69059" lon="3.62503">
        <ele>1263.31</ele>
        <time>2025-07-14T09:06:32Z</time>
      </trkpt>
      <trkpt lat="44.69074" lon="3.62526">
        <ele>1263.31</ele>
        <time>2025-07-14T09:06:49Z</time>
      </trkpt>
      <trkpt lat="44.69081" lon="3.62552">
        <ele>1263.31</ele>
        <time>2025-07-14T09:07:04Z</time>
      </trkpt>
      <trkpt lat="44.69086" lon="3.62581">
        <ele>1263.79</ele>
        <time>2025-07-14T09:07:20Z</time>
      </trkpt>
      <trkpt lat="44.69085" lon="3.62583">
        <ele>1263.79</ele>
        <time>2025-07-14T09:07:22Z</time>
      </trkpt>
      <trkpt lat="44.69085" lon="3.62586">
        <ele>1263.79</ele>
        <time>2025-07-14T09:07:24Z</time>
      </trkpt>
      <trkpt lat="44.69086" lon="3.62588">
        <ele>1263.31</ele>
        <time>2025-07-14T09:07:26Z</time>
      </trkpt>
      <trkpt lat="44.69086" lon="3.62589">
        <ele>1263.31</ele>
        <time>2025-07-14T09:07:27Z</time>
      </trkpt>
      <trkpt lat="44.69087" lon="3.62591">
        <ele>1263.31</ele>
        <time>2025-07-14T09:07:28Z</time>
      </trkpt>
      <trkpt lat="44.69091" lon="3.62612">
        <ele>1262.83</ele>
        <time>2025-07-14T09:07:43Z</time>
      </trkpt>
      <trkpt lat="44.69085" lon="3.6261">
        <ele>1262.35</ele>
        <time>2025-07-14T09:08:01Z</time>
      </trkpt>
      <trkpt lat="44.69083" lon="3.62612">
        <ele>1262.35</ele>
        <time>2025-07-14T09:08:03Z</time>
      </trkpt>
      <trkpt lat="44.69073" lon="3.62626">
        <ele>1261.87</ele>
        <time>2025-07-14T09:08:14Z</time>
      </trkpt>
      <trkpt lat="44.69048" lon="3.62646">
        <ele>1259.94</ele>
        <time>2025-07-14T09:08:37Z</time>
      </trkpt>
      <trkpt lat="44.69038" lon="3.62655">
        <ele>1262.35</ele>
        <time>2025-07-14T09:08:45Z</time>
      </trkpt>
      <trkpt lat="44.69031" lon="3.62666">
        <ele>1262.35</ele>
        <time>2025-07-14T09:08:59Z</time>
      </trkpt>
      <trkpt lat="44.69028" lon="3.62668">
        <ele>1261.87</ele>
        <time>2025-07-14T09:09:07Z</time>
      </trkpt>
      <trkpt lat="44.69005" lon="3.62676">
        <ele>1263.79</ele>
        <time>2025-07-14T09:09:24Z</time>
      </trkpt>
      <trkpt lat="44.68985" lon="3.62691">
        <ele>1263.79</ele>
        <time>2025-07-14T09:09:38Z</time>
      </trkpt>
      <trkpt lat="44.6897" lon="3.62713">
        <ele>1266.67</ele>
        <time>2025-07-14T09:09:54Z</time>
      </trkpt>
      <trkpt lat="44.68966" lon="3.62727">
        <ele>1272.44</ele>
        <time>2025-07-14T09:10:03Z</time>
      </trkpt>
      <trkpt lat="44.68965" lon="3.62728">
        <ele>1272.44</ele>
        <time>2025-07-14T09:10:04Z</time>
      </trkpt>
      <trkpt lat="44.68954" lon="3.62757">
        <ele>1275.33</ele>
        <time>2025-07-14T09:10:22Z</time>
      </trkpt>
      <trkpt lat="44.68945" lon="3.62788">
        <ele>1277.25</ele>
        <time>2025-07-14T09:10:41Z</time>
      </trkpt>
      <trkpt lat="44.68945" lon="3.62817">
        <ele>1279.17</ele>
        <time>2025-07-14T09:10:58Z</time>
      </trkpt>
      <trkpt lat="44.68946" lon="3.62848">
        <ele>1281.09</ele>
        <time>2025-07-14T09:11:13Z</time>
      </trkpt>
      <trkpt lat="44.68951" lon="3.62877">
        <ele>1282.54</ele>
        <time>2025-07-14T09:11:28Z</time>
      </trkpt>
      <trkpt lat="44.6897" lon="3.62881">
        <ele>1285.42</ele>
        <time>2025-07-14T09:11:42Z</time>
      </trkpt>
      <trkpt lat="44.68992" lon="3.62878">
        <ele>1290.71</ele>
        <time>2025-07-14T09:11:59Z</time>
      </trkpt>
      <trkpt lat="44.69006" lon="3.62893">
        <ele>1293.11</ele>
        <time>2025-07-14T09:12:14Z</time>
      </trkpt>
      <trkpt lat="44.69028" lon="3.62917">
        <ele>1297.44</ele>
        <time>2025-07-14T09:12:35Z</time>
      </trkpt>
      <trkpt lat="44.69048" lon="3.62935">
        <ele>1299.84</ele>
        <time>2025-07-14T09:12:54Z</time>
      </trkpt>
      <trkpt lat="44.69067" lon="3.62956">
        <ele>1301.28</ele>
        <time>2025-07-14T09:13:12Z</time>
      </trkpt>
      <trkpt lat="44.69085" lon="3.62977">
        <ele>1304.17</ele>
        <time>2025-07-14T09:13:31Z</time>
      </trkpt>
      <trkpt lat="44.69101" lon="3.63003">
        <ele>1307.05</ele>
        <time>2025-07-14T09:13:50Z</time>
      </trkpt>
      <trkpt lat="44.69099" lon="3.63037">
        <ele>1307.53</ele>
        <time>2025-07-14T09:14:08Z</time>
      </trkpt>
      <trkpt lat="44.69106" lon="3.63071">
        <ele>1307.05</ele>
        <time>2025-07-14T09:14:27Z</time>
      </trkpt>
      <trkpt lat="44.69125" lon="3.63093">
        <ele>1308.49</ele>
        <time>2025-07-14T09:14:43Z</time>
      </trkpt>
      <trkpt lat="44.69147" lon="3.63121">
        <ele>1309.93</ele>
        <time>2025-07-14T09:15:00Z</time>
      </trkpt>
      <trkpt lat="44.69167" lon="3.63146">
        <ele>1311.86</ele>
        <time>2025-07-14T09:15:19Z</time>
      </trkpt>
      <trkpt lat="44.69183" lon="3.63164">
        <ele>1313.78</ele>
        <time>2025-07-14T09:15:34Z</time>
      </trkpt>
      <trkpt lat="44.69199" lon="3.63184">
        <ele>1314.26</ele>
        <time>2025-07-14T09:15:50Z</time>
      </trkpt>
      <trkpt lat="44.69203" lon="3.6319">
        <ele>1314.74</ele>
        <time>2025-07-14T09:15:55Z</time>
      </trkpt>
      <trkpt lat="44.69203" lon="3.63192">
        <ele>1314.74</ele>
        <time>2025-07-14T09:15:56Z</time>
      </trkpt>
      <trkpt lat="44.69202" lon="3.63194">
        <ele>1314.74</ele>
        <time>2025-07-14T09:15:57Z</time>
      </trkpt>
      <trkpt lat="44.69201" lon="3.63195">
        <ele>1314.74</ele>
        <time>2025-07-14T09:15:58Z</time>
      </trkpt>
      <trkpt lat="44.69201" lon="3.63197">
        <ele>1314.74</ele>
        <time>2025-07-14T09:15:59Z</time>
      </trkpt>
      <trkpt lat="44.692" lon="3.63198">
        <ele>1314.74</ele>
        <time>2025-07-14T09:16:00Z</time>
      </trkpt>
      <trkpt lat="44.69199" lon="3.632">
        <ele>1314.74</ele>
        <time>2025-07-14T09:16:01Z</time>
      </trkpt>
      <trkpt lat="44.69198" lon="3.63202">
        <ele>1314.74</ele>
        <time>2025-07-14T09:16:02Z</time>
      </trkpt>
      <trkpt lat="44.69179" lon="3.63234">
        <ele>1315.22</ele>
        <time>2025-07-14T09:16:21Z</time>
      </trkpt>
      <trkpt lat="44.69164" lon="3.63262">
        <ele>1315.22</ele>
        <time>2025-07-14T09:16:37Z</time>
      </trkpt>
      <trkpt lat="44.6915" lon="3.63291">
        <ele>1314.74</ele>
        <time>2025-07-14T09:16:54Z</time>
      </trkpt>
      <trkpt lat="44.69139" lon="3.63325">
        <ele>1313.3</ele>
        <time>2025-07-14T09:17:12Z</time>
      </trkpt>
      <trkpt lat="44.69125" lon="3.63356">
        <ele>1313.3</ele>
        <time>2025-07-14T09:17:29Z</time>
      </trkpt>
      <trkpt lat="44.69106" lon="3.6339">
        <ele>1312.34</ele>
        <time>2025-07-14T09:17:49Z</time>
      </trkpt>
      <trkpt lat="44.69091" lon="3.63421">
        <ele>1312.34</ele>
        <time>2025-07-14T09:18:07Z</time>
      </trkpt>
      <trkpt lat="44.69078" lon="3.63453">
        <ele>1311.38</ele>
        <time>2025-07-14T09:18:25Z</time>
      </trkpt>
      <trkpt lat="44.6907" lon="3.63482">
        <ele>1311.38</ele>
        <time>2025-07-14T09:18:41Z</time>
      </trkpt>
      <trkpt lat="44.69061" lon="3.63517">
        <ele>1311.38</ele>
        <time>2025-07-14T09:18:59Z</time>
      </trkpt>
      <trkpt lat="44.69051" lon="3.63551">
        <ele>1308.01</ele>
        <time>2025-07-14T09:19:15Z</time>
      </trkpt>
      <trkpt lat="44.69039" lon="3.63583">
        <ele>1308.01</ele>
        <time>2025-07-14T09:19:33Z</time>
      </trkpt>
      <trkpt lat="44.69022" lon="3.63614">
        <ele>1305.13</ele>
        <time>2025-07-14T09:19:51Z</time>
      </trkpt>
      <trkpt lat="44.69009" lon="3.63646">
        <ele>1303.2</ele>
        <time>2025-07-14T09:20:08Z</time>
      </trkpt>
      <trkpt lat="44.68995" lon="3.63672">
        <ele>1301.28</ele>
        <time>2025-07-14T09:20:24Z</time>
      </trkpt>
      <trkpt lat="44.68982" lon="3.63708">
        <ele>1299.36</ele>
        <time>2025-07-14T09:20:43Z</time>
      </trkpt>
      <trkpt lat="44.6897" lon="3.63738">
        <ele>1296.48</ele>
        <time>2025-07-14T09:21:00Z</time>
      </trkpt>
      <trkpt lat="44.68956" lon="3.63772">
        <ele>1293.59</ele>
        <time>2025-07-14T09:21:20Z</time>
      </trkpt>
      <trkpt lat="44.68938" lon="3.63818">
        <ele>1286.86</ele>
        <time>2025-07-14T09:21:43Z</time>
      </trkpt>
      <trkpt lat="44.68921" lon="3.63858">
        <ele>1283.98</ele>
        <time>2025-07-14T09:22:04Z</time>
      </trkpt>
      <trkpt lat="44.68906" lon="3.639">
        <ele>1283.02</ele>
        <time>2025-07-14T09:22:27Z</time>
      </trkpt>
      <trkpt lat="44.68887" lon="3.63927">
        <ele>1281.57</ele>
        <time>2025-07-14T09:22:45Z</time>
      </trkpt>
      <trkpt lat="44.68864" lon="3.63955">
        <ele>1281.57</ele>
        <time>2025-07-14T09:23:06Z</time>
      </trkpt>
      <trkpt lat="44.68857" lon="3.63977">
        <ele>1281.09</ele>
        <time>2025-07-14T09:23:17Z</time>
      </trkpt>
      <trkpt lat="44.68858" lon="3.63979">
        <ele>1281.57</ele>
        <time>2025-07-14T09:23:18Z</time>
      </trkpt>
      <trkpt lat="44.68857" lon="3.63981">
        <ele>1281.09</ele>
        <time>2025-07-14T09:23:19Z</time>
      </trkpt>
      <trkpt lat="44.68857" lon="3.63982">
        <ele>1281.09</ele>
        <time>2025-07-14T09:23:20Z</time>
      </trkpt>
      <trkpt lat="44.68857" lon="3.63985">
        <ele>1281.09</ele>
        <time>2025-07-14T09:23:21Z</time>
      </trkpt>
      <trkpt lat="44.68857" lon="3.63987">
        <ele>1281.09</ele>
        <time>2025-07-14T09:23:22Z</time>
      </trkpt>
      <trkpt lat="44.68854" lon="3.64029">
        <ele>1279.17</ele>
        <time>2025-07-14T09:23:42Z</time>
      </trkpt>
      <trkpt lat="44.68852" lon="3.64073">
        <ele>1278.21</ele>
        <time>2025-07-14T09:24:02Z</time>
      </trkpt>
      <trkpt lat="44.6885" lon="3.64102">
        <ele>1278.21</ele>
        <time>2025-07-14T09:24:17Z</time>
      </trkpt>
      <trkpt lat="44.68852" lon="3.64139">
        <ele>1277.73</ele>
        <time>2025-07-14T09:24:35Z</time>
      </trkpt>
      <trkpt lat="44.68858" lon="3.64174">
        <ele>1279.17</ele>
        <time>2025-07-14T09:24:52Z</time>
      </trkpt>
      <trkpt lat="44.6886" lon="3.64209">
        <ele>1277.25</ele>
        <time>2025-07-14T09:25:09Z</time>
      </trkpt>
      <trkpt lat="44.6886" lon="3.64253">
        <ele>1277.73</ele>
        <time>2025-07-14T09:25:30Z</time>
      </trkpt>
      <trkpt lat="44.68861" lon="3.64281">
        <ele>1278.69</ele>
        <time>2025-07-14T09:25:45Z</time>
      </trkpt>
      <trkpt lat="44.68863" lon="3.64312">
        <ele>1278.21</ele>
        <time>2025-07-14T09:26:02Z</time>
      </trkpt>
      <trkpt lat="44.68863" lon="3.64317">
        <ele>1277.73</ele>
        <time>2025-07-14T09:26:16Z</time>
      </trkpt>
      <trkpt lat="44.68862" lon="3.64348">
        <ele>1276.77</ele>
        <time>2025-07-14T09:26:32Z</time>
      </trkpt>
      <trkpt lat="44.68862" lon="3.64386">
        <ele>1276.77</ele>
        <time>2025-07-14T09:26:50Z</time>
      </trkpt>
      <trkpt lat="44.68863" lon="3.64418">
        <ele>1277.73</ele>
        <time>2025-07-14T09:27:06Z</time>
      </trkpt>
      <trkpt lat="44.68862" lon="3.64447">
        <ele>1277.73</ele>
        <time>2025-07-14T09:27:22Z</time>
      </trkpt>
      <trkpt lat="44.68857" lon="3.64481">
        <ele>1276.29</ele>
        <time>2025-07-14T09:27:40Z</time>
      </trkpt>
      <trkpt lat="44.68851" lon="3.64514">
        <ele>1275.33</ele>
        <time>2025-07-14T09:27:57Z</time>
      </trkpt>
      <trkpt lat="44.68848" lon="3.6455">
        <ele>1274.85</ele>
        <time>2025-07-14T09:28:15Z</time>
      </trkpt>
      <trkpt lat="44.68843" lon="3.64565">
        <ele>1275.33</ele>
        <time>2025-07-14T09:28:30Z</time>
      </trkpt>
      <trkpt lat="44.68842" lon="3.64586">
        <ele>1275.33</ele>
        <time>2025-07-14T09:28:43Z</time>
      </trkpt>
      <trkpt lat="44.68836" lon="3.64622">
        <ele>1275.33</ele>
        <time>2025-07-14T09:29:01Z</time>
      </trkpt>
      <trkpt lat="44.68832" lon="3.64656">
        <ele>1275.33</ele>
        <time>2025-07-14T09:29:17Z</time>
      </trkpt>
      <trkpt lat="44.6883" lon="3.647">
        <ele>1275.81</ele>
        <time>2025-07-14T09:29:26Z</time>
      </trkpt>
      <trkpt lat="44.68824" lon="3.64754">
        <ele>1277.25</ele>
        <time>2025-07-14T09:29:36Z</time>
      </trkpt>
      <trkpt lat="44.68823" lon="3.6476">
        <ele>1277.73</ele>
        <time>2025-07-14T09:29:37Z</time>
      </trkpt>
      <trkpt lat="44.68822" lon="3.64766">
        <ele>1277.73</ele>
        <time>2025-07-14T09:29:38Z</time>
      </trkpt>
      <trkpt lat="44.68821" lon="3.64777">
        <ele>1278.21</ele>
        <time>2025-07-14T09:29:40Z</time>
      </trkpt>
      <trkpt lat="44.68809" lon="3.64855">
        <ele>1278.69</ele>
        <time>2025-07-14T09:29:55Z</time>
      </trkpt>
      <trkpt lat="44.68808" lon="3.64861">
        <ele>1278.21</ele>
        <time>2025-07-14T09:29:56Z</time>
      </trkpt>
      <trkpt lat="44.68807" lon="3.64874">
        <ele>1278.21</ele>
        <time>2025-07-14T09:29:58Z</time>
      </trkpt>
      <trkpt lat="44.68791" lon="3.64963">
        <ele>1280.13</ele>
        <time>2025-07-14T09:30:12Z</time>
      </trkpt>
      <trkpt lat="44.68788" lon="3.64991">
        <ele>1281.09</ele>
        <time>2025-07-14T09:30:17Z</time>
      </trkpt>
      <trkpt lat="44.68787" lon="3.64997">
        <ele>1281.09</ele>
        <time>2025-07-14T09:30:18Z</time>
      </trkpt>
      <trkpt lat="44.68784" lon="3.65022">
        <ele>1281.57</ele>
        <time>2025-07-14T09:30:22Z</time>
      </trkpt>
      <trkpt lat="44.68783" lon="3.65028">
        <ele>1281.57</ele>
        <time>2025-07-14T09:30:23Z</time>
      </trkpt>
      <trkpt lat="44.68783" lon="3.65035">
        <ele>1281.57</ele>
        <time>2025-07-14T09:30:24Z</time>
      </trkpt>
      <trkpt lat="44.68783" lon="3.65041">
        <ele>1281.57</ele>
        <time>2025-07-14T09:30:25Z</time>
      </trkpt>
      <trkpt lat="44.68784" lon="3.65047">
        <ele>1281.57</ele>
        <time>2025-07-14T09:30:26Z</time>
      </trkpt>
      <trkpt lat="44.68785" lon="3.65053">
        <ele>1281.57</ele>
        <time>2025-07-14T09:30:27Z</time>
      </trkpt>
      <trkpt lat="44.68786" lon="3.65059">
        <ele>1281.57</ele>
        <time>2025-07-14T09:30:28Z</time>
      </trkpt>
      <trkpt lat="44.68786" lon="3.65066">
        <ele>1281.57</ele>
        <time>2025-07-14T09:30:29Z</time>
      </trkpt>
      <trkpt lat="44.68787" lon="3.65073">
        <ele>1282.06</ele>
        <time>2025-07-14T09:30:30Z</time>
      </trkpt>
      <trkpt lat="44.68787" lon="3.6508">
        <ele>1282.06</ele>
        <time>2025-07-14T09:30:31Z</time>
      </trkpt>
      <trkpt lat="44.68788" lon="3.65087">
        <ele>1282.54</ele>
        <time>2025-07-14T09:30:32Z</time>
      </trkpt>
      <trkpt lat="44.68792" lon="3.65128">
        <ele>1284.94</ele>
        <time>2025-07-14T09:30:38Z</time>
      </trkpt>
      <trkpt lat="44.68793" lon="3.65134">
        <ele>1285.42</ele>
        <time>2025-07-14T09:30:39Z</time>
      </trkpt>
      <trkpt lat="44.68802" lon="3.65221">
        <ele>1288.3</ele>
        <time>2025-07-14T09:30:53Z</time>
      </trkpt>
      <trkpt lat="44.68803" lon="3.65227">
        <ele>1288.78</ele>
        <time>2025-07-14T09:30:54Z</time>
      </trkpt>
      <trkpt lat="44.688" lon="3.65302">
        <ele>1289.75</ele>
        <time>2025-07-14T09:31:05Z</time>
      </trkpt>
      <trkpt lat="44.688" lon="3.65309">
        <ele>1290.23</ele>
        <time>2025-07-14T09:31:06Z</time>
      </trkpt>
      <trkpt lat="44.68799" lon="3.65337">
        <ele>1290.71</ele>
        <time>2025-07-14T09:31:10Z</time>
      </trkpt>
      <trkpt lat="44.688" lon="3.65344">
        <ele>1290.71</ele>
        <time>2025-07-14T09:31:11Z</time>
      </trkpt>
      <trkpt lat="44.68802" lon="3.65351">
        <ele>1290.71</ele>
        <time>2025-07-14T09:31:12Z</time>
      </trkpt>
      <trkpt lat="44.68805" lon="3.65357">
        <ele>1290.71</ele>
        <time>2025-07-14T09:31:13Z</time>
      </trkpt>
      <trkpt lat="44.68809" lon="3.65362">
        <ele>1290.71</ele>
        <time>2025-07-14T09:31:14Z</time>
      </trkpt>
      <trkpt lat="44.68833" lon="3.65419">
        <ele>1288.3</ele>
        <time>2025-07-14T09:31:25Z</time>
      </trkpt>
      <trkpt lat="44.68844" lon="3.65465">
        <ele>1288.78</ele>
        <time>2025-07-14T09:31:32Z</time>
      </trkpt>
      <trkpt lat="44.68846" lon="3.65472">
        <ele>1289.27</ele>
        <time>2025-07-14T09:31:33Z</time>
      </trkpt>
      <trkpt lat="44.68847" lon="3.6548">
        <ele>1289.27</ele>
        <time>2025-07-14T09:31:34Z</time>
      </trkpt>
      <trkpt lat="44.68847" lon="3.65508">
        <ele>1290.23</ele>
        <time>2025-07-14T09:31:38Z</time>
      </trkpt>
      <trkpt lat="44.68847" lon="3.65515">
        <ele>1290.23</ele>
        <time>2025-07-14T09:31:39Z</time>
      </trkpt>
      <trkpt lat="44.68847" lon="3.65521">
        <ele>1290.71</ele>
        <time>2025-07-14T09:31:40Z</time>
      </trkpt>
      <trkpt lat="44.68847" lon="3.6554">
        <ele>1291.19</ele>
        <time>2025-07-14T09:31:43Z</time>
      </trkpt>
      <trkpt lat="44.68843" lon="3.65626">
        <ele>1288.78</ele>
        <time>2025-07-14T09:31:56Z</time>
      </trkpt>
      <trkpt lat="44.6884" lon="3.65668">
        <ele>1288.78</ele>
        <time>2025-07-14T09:32:08Z</time>
      </trkpt>
      <trkpt lat="44.68839" lon="3.65682">
        <ele>1288.78</ele>
        <time>2025-07-14T09:32:14Z</time>
      </trkpt>
      <trkpt lat="44.6884" lon="3.65684">
        <ele>1289.27</ele>
        <time>2025-07-14T09:32:15Z</time>
      </trkpt>
      <trkpt lat="44.6884" lon="3.65686">
        <ele>1289.27</ele>
        <time>2025-07-14T09:32:16Z</time>
      </trkpt>
      <trkpt lat="44.6884" lon="3.65689">
        <ele>1289.27</ele>
        <time>2025-07-14T09:32:17Z</time>
      </trkpt>
      <trkpt lat="44.6884" lon="3.65691">
        <ele>1289.27</ele>
        <time>2025-07-14T09:32:18Z</time>
      </trkpt>
      <trkpt lat="44.6884" lon="3.65729">
        <ele>1290.23</ele>
        <time>2025-07-14T09:32:33Z</time>
      </trkpt>
      <trkpt lat="44.68842" lon="3.6577">
        <ele>1290.71</ele>
        <time>2025-07-14T09:32:52Z</time>
      </trkpt>
      <trkpt lat="44.68848" lon="3.65804">
        <ele>1291.67</ele>
        <time>2025-07-14T09:33:07Z</time>
      </trkpt>
      <trkpt lat="44.68849" lon="3.65832">
        <ele>1290.71</ele>
        <time>2025-07-14T09:33:19Z</time>
      </trkpt>
      <trkpt lat="44.6885" lon="3.65866">
        <ele>1286.38</ele>
        <time>2025-07-14T09:33:34Z</time>
      </trkpt>
      <trkpt lat="44.68851" lon="3.65877">
        <ele>1284.94</ele>
        <time>2025-07-14T09:33:40Z</time>
      </trkpt>
      <trkpt lat="44.68852" lon="3.6588">
        <ele>1284.94</ele>
        <time>2025-07-14T09:33:41Z</time>
      </trkpt>
      <trkpt lat="44.68853" lon="3.65882">
        <ele>1285.42</ele>
        <time>2025-07-14T09:33:42Z</time>
      </trkpt>
      <trkpt lat="44.68853" lon="3.65885">
        <ele>1284.94</ele>
        <time>2025-07-14T09:33:43Z</time>
      </trkpt>
      <trkpt lat="44.68854" lon="3.65887">
        <ele>1284.94</ele>
        <time>2025-07-14T09:33:44Z</time>
      </trkpt>
      <trkpt lat="44.68854" lon="3.65889">
        <ele>1284.94</ele>
        <time>2025-07-14T09:33:45Z</time>
      </trkpt>
      <trkpt lat="44.68855" lon="3.65892">
        <ele>1285.42</ele>
        <time>2025-07-14T09:33:46Z</time>
      </trkpt>
      <trkpt lat="44.68863" lon="3.65926">
        <ele>1285.42</ele>
        <time>2025-07-14T09:34:00Z</time>
      </trkpt>
      <trkpt lat="44.68866" lon="3.65964">
        <ele>1279.65</ele>
        <time>2025-07-14T09:34:18Z</time>
      </trkpt>
      <trkpt lat="44.68874" lon="3.66008">
        <ele>1279.17</ele>
        <time>2025-07-14T09:34:37Z</time>
      </trkpt>
      <trkpt lat="44.68882" lon="3.66051">
        <ele>1277.73</ele>
        <time>2025-07-14T09:34:55Z</time>
      </trkpt>
      <trkpt lat="44.68887" lon="3.66086">
        <ele>1272.44</ele>
        <time>2025-07-14T09:35:12Z</time>
      </trkpt>
      <trkpt lat="44.68887" lon="3.66088">
        <ele>1272.44</ele>
        <time>2025-07-14T09:35:13Z</time>
      </trkpt>
      <trkpt lat="44.68886" lon="3.6609">
        <ele>1272.44</ele>
        <time>2025-07-14T09:35:14Z</time>
      </trkpt>
      <trkpt lat="44.68887" lon="3.66092">
        <ele>1271.96</ele>
        <time>2025-07-14T09:35:15Z</time>
      </trkpt>
      <trkpt lat="44.68887" lon="3.66094">
        <ele>1271.96</ele>
        <time>2025-07-14T09:35:16Z</time>
      </trkpt>
      <trkpt lat="44.68888" lon="3.66097">
        <ele>1271.96</ele>
        <time>2025-07-14T09:35:17Z</time>
      </trkpt>
      <trkpt lat="44.68888" lon="3.66099">
        <ele>1271.96</ele>
        <time>2025-07-14T09:35:18Z</time>
      </trkpt>
      <trkpt lat="44.68889" lon="3.66101">
        <ele>1271.48</ele>
        <time>2025-07-14T09:35:19Z</time>
      </trkpt>
      <trkpt lat="44.68889" lon="3.66103">
        <ele>1271.48</ele>
        <time>2025-07-14T09:35:20Z</time>
      </trkpt>
      <trkpt lat="44.68892" lon="3.66133">
        <ele>1268.12</ele>
        <time>2025-07-14T09:35:33Z</time>
      </trkpt>
      <trkpt lat="44.689" lon="3.66161">
        <ele>1266.19</ele>
        <time>2025-07-14T09:35:47Z</time>
      </trkpt>
      <trkpt lat="44.68918" lon="3.66195">
        <ele>1265.71</ele>
        <time>2025-07-14T09:36:04Z</time>
      </trkpt>
      <trkpt lat="44.68934" lon="3.6622">
        <ele>1267.64</ele>
        <time>2025-07-14T09:36:17Z</time>
      </trkpt>
      <trkpt lat="44.68935" lon="3.66222">
        <ele>1268.12</ele>
        <time>2025-07-14T09:36:18Z</time>
      </trkpt>
      <trkpt lat="44.68936" lon="3.66224">
        <ele>1268.12</ele>
        <time>2025-07-14T09:36:19Z</time>
      </trkpt>
      <trkpt lat="44.68938" lon="3.66226">
        <ele>1268.6</ele>
        <time>2025-07-14T09:36:20Z</time>
      </trkpt>
      <trkpt lat="44.68939" lon="3.66228">
        <ele>1268.6</ele>
        <time>2025-07-14T09:36:21Z</time>
      </trkpt>
      <trkpt lat="44.6894" lon="3.66229">
        <ele>1268.6</ele>
        <time>2025-07-14T09:36:22Z</time>
      </trkpt>
      <trkpt lat="44.68941" lon="3.66231">
        <ele>1268.6</ele>
        <time>2025-07-14T09:36:23Z</time>
      </trkpt>
      <trkpt lat="44.68943" lon="3.66233">
        <ele>1268.6</ele>
        <time>2025-07-14T09:36:24Z</time>
      </trkpt>
      <trkpt lat="44.68956" lon="3.6626">
        <ele>1267.16</ele>
        <time>2025-07-14T09:36:40Z</time>
      </trkpt>
      <trkpt lat="44.68978" lon="3.66279">
        <ele>1267.64</ele>
        <time>2025-07-14T09:36:56Z</time>
      </trkpt>
      <trkpt lat="44.69" lon="3.66298">
        <ele>1267.64</ele>
        <time>2025-07-14T09:37:11Z</time>
      </trkpt>
      <trkpt lat="44.69023" lon="3.66315">
        <ele>1263.79</ele>
        <time>2025-07-14T09:37:28Z</time>
      </trkpt>
      <trkpt lat="44.69043" lon="3.66331">
        <ele>1263.79</ele>
        <time>2025-07-14T09:37:41Z</time>
      </trkpt>
      <trkpt lat="44.69072" lon="3.6635">
        <ele>1264.27</ele>
        <time>2025-07-14T09:37:56Z</time>
      </trkpt>
      <trkpt lat="44.69091" lon="3.66366">
        <ele>1263.79</ele>
        <time>2025-07-14T09:38:11Z</time>
      </trkpt>
      <trkpt lat="44.69116" lon="3.66378">
        <ele>1262.35</ele>
        <time>2025-07-14T09:38:28Z</time>
      </trkpt>
      <trkpt lat="44.69131" lon="3.66388">
        <ele>1261.87</ele>
        <time>2025-07-14T09:38:38Z</time>
      </trkpt>
      <trkpt lat="44.69149" lon="3.66392">
        <ele>1262.35</ele>
        <time>2025-07-14T09:38:51Z</time>
      </trkpt>
      <trkpt lat="44.6917" lon="3.66399">
        <ele>1261.87</ele>
        <time>2025-07-14T09:39:05Z</time>
      </trkpt>
      <trkpt lat="44.69194" lon="3.66404">
        <ele>1258.02</ele>
        <time>2025-07-14T09:39:20Z</time>
      </trkpt>
      <trkpt lat="44.6922" lon="3.66413">
        <ele>1252.25</ele>
        <time>2025-07-14T09:39:37Z</time>
      </trkpt>
      <trkpt lat="44.69245" lon="3.66416">
        <ele>1249.85</ele>
        <time>2025-07-14T09:39:53Z</time>
      </trkpt>
      <trkpt lat="44.69263" lon="3.66417">
        <ele>1250.33</ele>
        <time>2025-07-14T09:40:05Z</time>
      </trkpt>
      <trkpt lat="44.69283" lon="3.6641">
        <ele>1252.25</ele>
        <time>2025-07-14T09:40:17Z</time>
      </trkpt>
      <trkpt lat="44.69302" lon="3.664">
        <ele>1250.81</ele>
        <time>2025-07-14T09:40:29Z</time>
      </trkpt>
      <trkpt lat="44.69313" lon="3.66396">
        <ele>1249.85</ele>
        <time>2025-07-14T09:40:38Z</time>
      </trkpt>
      <trkpt lat="44.69338" lon="3.66398">
        <ele>1249.37</ele>
        <time>2025-07-14T09:40:53Z</time>
      </trkpt>
      <trkpt lat="44.69355" lon="3.66418">
        <ele>1252.25</ele>
        <time>2025-07-14T09:41:09Z</time>
      </trkpt>
      <trkpt lat="44.69356" lon="3.66455">
        <ele>1250.33</ele>
        <time>2025-07-14T09:41:20Z</time>
      </trkpt>
      <trkpt lat="44.69355" lon="3.66466">
        <ele>1249.85</ele>
        <time>2025-07-14T09:41:24Z</time>
      </trkpt>
      <trkpt lat="44.69355" lon="3.66468">
        <ele>1249.85</ele>
        <time>2025-07-14T09:41:25Z</time>
      </trkpt>
      <trkpt lat="44.69353" lon="3.66496">
        <ele>1248.89</ele>
        <time>2025-07-14T09:41:37Z</time>
      </trkpt>
      <trkpt lat="44.69353" lon="3.66498">
        <ele>1248.89</ele>
        <time>2025-07-14T09:41:38Z</time>
      </trkpt>
      <trkpt lat="44.69353" lon="3.665">
        <ele>1248.89</ele>
        <time>2025-07-14T09:41:39Z</time>
      </trkpt>
      <trkpt lat="44.69352" lon="3.66502">
        <ele>1248.41</ele>
        <time>2025-07-14T09:41:40Z</time>
      </trkpt>
      <trkpt lat="44.69351" lon="3.66504">
        <ele>1247.93</ele>
        <time>2025-07-14T09:41:41Z</time>
      </trkpt>
      <trkpt lat="44.6935" lon="3.66506">
        <ele>1247.93</ele>
        <time>2025-07-14T09:41:42Z</time>
      </trkpt>
      <trkpt lat="44.69349" lon="3.66509">
        <ele>1247.45</ele>
        <time>2025-07-14T09:41:43Z</time>
      </trkpt>
      <trkpt lat="44.69348" lon="3.66511">
        <ele>1246.97</ele>
        <time>2025-07-14T09:41:44Z</time>
      </trkpt>
      <trkpt lat="44.69347" lon="3.66513">
        <ele>1246.97</ele>
        <time>2025-07-14T09:41:45Z</time>
      </trkpt>
      <trkpt lat="44.69347" lon="3.66515">
        <ele>1246.97</ele>
        <time>2025-07-14T09:41:46Z</time>
      </trkpt>
      <trkpt lat="44.69346" lon="3.66517">
        <ele>1246.97</ele>
        <time>2025-07-14T09:41:47Z</time>
      </trkpt>
      <trkpt lat="44.69346" lon="3.66519">
        <ele>1246.97</ele>
        <time>2025-07-14T09:41:48Z</time>
      </trkpt>
      <trkpt lat="44.69346" lon="3.66521">
        <ele>1246.97</ele>
        <time>2025-07-14T09:41:49Z</time>
      </trkpt>
      <trkpt lat="44.69346" lon="3.66523">
        <ele>1246.97</ele>
        <time>2025-07-14T09:41:50Z</time>
      </trkpt>
      <trkpt lat="44.69346" lon="3.66525">
        <ele>1246.97</ele>
        <time>2025-07-14T09:41:51Z</time>
      </trkpt>
      <trkpt lat="44.6934" lon="3.66558">
        <ele>1246.97</ele>
        <time>2025-07-14T09:42:05Z</time>
      </trkpt>
      <trkpt lat="44.69337" lon="3.6659">
        <ele>1246.97</ele>
        <time>2025-07-14T09:42:19Z</time>
      </trkpt>
      <trkpt lat="44.69339" lon="3.6662">
        <ele>1247.93</ele>
        <time>2025-07-14T09:42:31Z</time>
      </trkpt>
      <trkpt lat="44.69338" lon="3.66623">
        <ele>1248.41</ele>
        <time>2025-07-14T09:42:32Z</time>
      </trkpt>
      <trkpt lat="44.69331" lon="3.66659">
        <ele>1246.97</ele>
        <time>2025-07-14T09:42:42Z</time>
      </trkpt>
      <trkpt lat="44.69326" lon="3.66683">
        <ele>1245.53</ele>
        <time>2025-07-14T09:42:51Z</time>
      </trkpt>
      <trkpt lat="44.69326" lon="3.66685">
        <ele>1245.04</ele>
        <time>2025-07-14T09:42:52Z</time>
      </trkpt>
      <trkpt lat="44.69323" lon="3.66725">
        <ele>1244.08</ele>
        <time>2025-07-14T09:43:04Z</time>
      </trkpt>
      <trkpt lat="44.69329" lon="3.66772">
        <ele>1244.56</ele>
        <time>2025-07-14T09:43:16Z</time>
      </trkpt>
      <trkpt lat="44.69337" lon="3.66817">
        <ele>1246.97</ele>
        <time>2025-07-14T09:43:27Z</time>
      </trkpt>
      <trkpt lat="44.69346" lon="3.66865">
        <ele>1249.37</ele>
        <time>2025-07-14T09:43:40Z</time>
      </trkpt>
      <trkpt lat="44.69358" lon="3.66911">
        <ele>1252.25</ele>
        <time>2025-07-14T09:43:53Z</time>
      </trkpt>
      <trkpt lat="44.69373" lon="3.66955">
        <ele>1253.7</ele>
        <time>2025-07-14T09:44:05Z</time>
      </trkpt>
      <trkpt lat="44.69384" lon="3.67">
        <ele>1255.62</ele>
        <time>2025-07-14T09:44:18Z</time>
      </trkpt>
      <trkpt lat="44.69396" lon="3.67029">
        <ele>1257.54</ele>
        <time>2025-07-14T09:44:28Z</time>
      </trkpt>
      <trkpt lat="44.69407" lon="3.67068">
        <ele>1259.94</ele>
        <time>2025-07-14T09:44:42Z</time>
      </trkpt>
      <trkpt lat="44.6941" lon="3.67071">
        <ele>1260.43</ele>
        <time>2025-07-14T09:44:43Z</time>
      </trkpt>
      <trkpt lat="44.69429" lon="3.67109">
        <ele>1266.67</ele>
        <time>2025-07-14T09:44:56Z</time>
      </trkpt>
      <trkpt lat="44.69433" lon="3.67164">
        <ele>1270.04</ele>
        <time>2025-07-14T09:45:09Z</time>
      </trkpt>
      <trkpt lat="44.69433" lon="3.67168">
        <ele>1270.52</ele>
        <time>2025-07-14T09:45:11Z</time>
      </trkpt>
      <trkpt lat="44.69441" lon="3.67198">
        <ele>1276.77</ele>
        <time>2025-07-14T09:45:26Z</time>
      </trkpt>
      <trkpt lat="44.69443" lon="3.67202">
        <ele>1277.73</ele>
        <time>2025-07-14T09:45:28Z</time>
      </trkpt>
      <trkpt lat="44.69443" lon="3.67204">
        <ele>1277.73</ele>
        <time>2025-07-14T09:45:29Z</time>
      </trkpt>
      <trkpt lat="44.69444" lon="3.67207">
        <ele>1277.73</ele>
        <time>2025-07-14T09:45:30Z</time>
      </trkpt>
      <trkpt lat="44.69455" lon="3.6723">
        <ele>1277.73</ele>
        <time>2025-07-14T09:45:42Z</time>
      </trkpt>
      <trkpt lat="44.6946" lon="3.67244">
        <ele>1279.17</ele>
        <time>2025-07-14T09:45:51Z</time>
      </trkpt>
      <trkpt lat="44.6946" lon="3.67245">
        <ele>1279.17</ele>
        <time>2025-07-14T09:45:52Z</time>
      </trkpt>
      <trkpt lat="44.69461" lon="3.67247">
        <ele>1279.65</ele>
        <time>2025-07-14T09:45:53Z</time>
      </trkpt>
      <trkpt lat="44.69462" lon="3.67249">
        <ele>1280.61</ele>
        <time>2025-07-14T09:45:55Z</time>
      </trkpt>
      <trkpt lat="44.69462" lon="3.67252">
        <ele>1281.09</ele>
        <time>2025-07-14T09:45:57Z</time>
      </trkpt>
      <trkpt lat="44.69462" lon="3.67254">
        <ele>1281.57</ele>
        <time>2025-07-14T09:45:58Z</time>
      </trkpt>
      <trkpt lat="44.69468" lon="3.67275">
        <ele>1284.46</ele>
        <time>2025-07-14T09:46:10Z</time>
      </trkpt>
      <trkpt lat="44.69474" lon="3.67301">
        <ele>1285.42</ele>
        <time>2025-07-14T09:46:23Z</time>
      </trkpt>
      <trkpt lat="44.69477" lon="3.6733">
        <ele>1290.23</ele>
        <time>2025-07-14T09:46:38Z</time>
      </trkpt>
      <trkpt lat="44.69482" lon="3.67358">
        <ele>1295.99</ele>
        <time>2025-07-14T09:46:53Z</time>
      </trkpt>
      <trkpt lat="44.69487" lon="3.67376">
        <ele>1296.96</ele>
        <time>2025-07-14T09:47:04Z</time>
      </trkpt>
      <trkpt lat="44.69489" lon="3.6738">
        <ele>1296.96</ele>
        <time>2025-07-14T09:47:07Z</time>
      </trkpt>
      <trkpt lat="44.69489" lon="3.67381">
        <ele>1296.96</ele>
        <time>2025-07-14T09:47:08Z</time>
      </trkpt>
      <trkpt lat="44.6949" lon="3.67383">
        <ele>1296.96</ele>
        <time>2025-07-14T09:47:09Z</time>
      </trkpt>
      <trkpt lat="44.6949" lon="3.67385">
        <ele>1296.96</ele>
        <time>2025-07-14T09:47:10Z</time>
      </trkpt>
      <trkpt lat="44.69491" lon="3.67386">
        <ele>1296.96</ele>
        <time>2025-07-14T09:47:11Z</time>
      </trkpt>
      <trkpt lat="44.69491" lon="3.67388">
        <ele>1296.96</ele>
        <time>2025-07-14T09:47:12Z</time>
      </trkpt>
      <trkpt lat="44.69493" lon="3.67392">
        <ele>1297.44</ele>
        <time>2025-07-14T09:47:14Z</time>
      </trkpt>
      <trkpt lat="44.69492" lon="3.67395">
        <ele>1297.44</ele>
        <time>2025-07-14T09:47:15Z</time>
      </trkpt>
      <trkpt lat="44.69492" lon="3.67397">
        <ele>1297.44</ele>
        <time>2025-07-14T09:47:16Z</time>
      </trkpt>
      <trkpt lat="44.69491" lon="3.67399">
        <ele>1296.96</ele>
        <time>2025-07-14T09:47:17Z</time>
      </trkpt>
      <trkpt lat="44.6949" lon="3.67404">
        <ele>1296.48</ele>
        <time>2025-07-14T09:47:20Z</time>
      </trkpt>
      <trkpt lat="44.69489" lon="3.67406">
        <ele>1295.99</ele>
        <time>2025-07-14T09:47:21Z</time>
      </trkpt>
      <trkpt lat="44.69488" lon="3.67409">
        <ele>1295.51</ele>
        <time>2025-07-14T09:47:22Z</time>
      </trkpt>
      <trkpt lat="44.69489" lon="3.67411">
        <ele>1295.99</ele>
        <time>2025-07-14T09:47:23Z</time>
      </trkpt>
      <trkpt lat="44.69491" lon="3.67413">
        <ele>1295.99</ele>
        <time>2025-07-14T09:47:24Z</time>
      </trkpt>
      <trkpt lat="44.69492" lon="3.67415">
        <ele>1296.48</ele>
        <time>2025-07-14T09:47:25Z</time>
      </trkpt>
      <trkpt lat="44.69493" lon="3.67417">
        <ele>1296.48</ele>
        <time>2025-07-14T09:47:26Z</time>
      </trkpt>
      <trkpt lat="44.69493" lon="3.67419">
        <ele>1296.48</ele>
        <time>2025-07-14T09:47:27Z</time>
      </trkpt>
      <trkpt lat="44.69493" lon="3.67421">
        <ele>1296.48</ele>
        <time>2025-07-14T09:47:28Z</time>
      </trkpt>
      <trkpt lat="44.69494" lon="3.67423">
        <ele>1296.96</ele>
        <time>2025-07-14T09:47:29Z</time>
      </trkpt>
      <trkpt lat="44.69495" lon="3.67425">
        <ele>1296.96</ele>
        <time>2025-07-14T09:47:30Z</time>
      </trkpt>
      <trkpt lat="44.69495" lon="3.67426">
        <ele>1296.96</ele>
        <time>2025-07-14T09:47:31Z</time>
      </trkpt>
      <trkpt lat="44.69495" lon="3.67428">
        <ele>1297.44</ele>
        <time>2025-07-14T09:47:32Z</time>
      </trkpt>
      <trkpt lat="44.69499" lon="3.67438">
        <ele>1298.4</ele>
        <time>2025-07-14T09:47:37Z</time>
      </trkpt>
      <trkpt lat="44.69508" lon="3.67452">
        <ele>1297.44</ele>
        <time>2025-07-14T09:47:45Z</time>
      </trkpt>
      <trkpt lat="44.69508" lon="3.67455">
        <ele>1297.44</ele>
        <time>2025-07-14T09:47:46Z</time>
      </trkpt>
      <trkpt lat="44.6951" lon="3.67458">
        <ele>1297.92</ele>
        <time>2025-07-14T09:47:48Z</time>
      </trkpt>
      <trkpt lat="44.69511" lon="3.6746">
        <ele>1297.92</ele>
        <time>2025-07-14T09:47:49Z</time>
      </trkpt>
      <trkpt lat="44.69512" lon="3.67461">
        <ele>1297.92</ele>
        <time>2025-07-14T09:47:50Z</time>
      </trkpt>
      <trkpt lat="44.69516" lon="3.67468">
        <ele>1298.4</ele>
        <time>2025-07-14T09:47:54Z</time>
      </trkpt>
      <trkpt lat="44.69517" lon="3.6747">
        <ele>1298.4</ele>
        <time>2025-07-14T09:47:55Z</time>
      </trkpt>
      <trkpt lat="44.69517" lon="3.67472">
        <ele>1298.4</ele>
        <time>2025-07-14T09:47:56Z</time>
      </trkpt>
      <trkpt lat="44.69517" lon="3.67474">
        <ele>1298.4</ele>
        <time>2025-07-14T09:47:57Z</time>
      </trkpt>
      <trkpt lat="44.69519" lon="3.67475">
        <ele>1297.92</ele>
        <time>2025-07-14T09:47:58Z</time>
      </trkpt>
      <trkpt lat="44.6952" lon="3.67477">
        <ele>1297.92</ele>
        <time>2025-07-14T09:47:59Z</time>
      </trkpt>
      <trkpt lat="44.6952" lon="3.67479">
        <ele>1297.44</ele>
        <time>2025-07-14T09:48:00Z</time>
      </trkpt>
      <trkpt lat="44.69521" lon="3.67481">
        <ele>1296.96</ele>
        <time>2025-07-14T09:48:01Z</time>
      </trkpt>
      <trkpt lat="44.69523" lon="3.67482">
        <ele>1296.96</ele>
        <time>2025-07-14T09:48:02Z</time>
      </trkpt>
      <trkpt lat="44.69537" lon="3.67508">
        <ele>1296.48</ele>
        <time>2025-07-14T09:48:18Z</time>
      </trkpt>
      <trkpt lat="44.69541" lon="3.67536">
        <ele>1303.69</ele>
        <time>2025-07-14T09:48:33Z</time>
      </trkpt>
      <trkpt lat="44.69545" lon="3.6756">
        <ele>1306.57</ele>
        <time>2025-07-14T09:48:44Z</time>
      </trkpt>
      <trkpt lat="44.69546" lon="3.67564">
        <ele>1307.05</ele>
        <time>2025-07-14T09:48:46Z</time>
      </trkpt>
      <trkpt lat="44.6955" lon="3.67583">
        <ele>1308.01</ele>
        <time>2025-07-14T09:48:59Z</time>
      </trkpt>
      <trkpt lat="44.69552" lon="3.67594">
        <ele>1307.53</ele>
        <time>2025-07-14T09:49:02Z</time>
      </trkpt>
      <trkpt lat="44.69553" lon="3.67598">
        <ele>1307.05</ele>
        <time>2025-07-14T09:49:03Z</time>
      </trkpt>
      <trkpt lat="44.69554" lon="3.67609">
        <ele>1306.57</ele>
        <time>2025-07-14T09:49:07Z</time>
      </trkpt>
      <trkpt lat="44.69555" lon="3.67632">
        <ele>1306.57</ele>
        <time>2025-07-14T09:49:19Z</time>
      </trkpt>
      <trkpt lat="44.69554" lon="3.67624">
        <ele>1307.53</ele>
        <time>2025-07-14T09:49:32Z</time>
      </trkpt>
      <trkpt lat="44.69569" lon="3.676">
        <ele>1307.05</ele>
        <time>2025-07-14T09:49:53Z</time>
      </trkpt>
      <trkpt lat="44.69578" lon="3.67589">
        <ele>1307.05</ele>
        <time>2025-07-14T09:50:03Z</time>
      </trkpt>
      <trkpt lat="44.69579" lon="3.67588">
        <ele>1307.05</ele>
        <time>2025-07-14T09:50:04Z</time>
      </trkpt>
      <trkpt lat="44.69597" lon="3.67578">
        <ele>1308.01</ele>
        <time>2025-07-14T09:50:19Z</time>
      </trkpt>
      <trkpt lat="44.69621" lon="3.67567">
        <ele>1306.57</ele>
        <time>2025-07-14T09:50:37Z</time>
      </trkpt>
      <trkpt lat="44.6964" lon="3.67557">
        <ele>1308.97</ele>
        <time>2025-07-14T09:50:52Z</time>
      </trkpt>
      <trkpt lat="44.69651" lon="3.67559">
        <ele>1312.82</ele>
        <time>2025-07-14T09:51:08Z</time>
      </trkpt>
      <trkpt lat="44.69663" lon="3.67547">
        <ele>1312.82</ele>
        <time>2025-07-14T09:51:25Z</time>
      </trkpt>
      <trkpt lat="44.69685" lon="3.67535">
        <ele>1311.86</ele>
        <time>2025-07-14T09:51:42Z</time>
      </trkpt>
      <trkpt lat="44.69711" lon="3.67528">
        <ele>1307.53</ele>
        <time>2025-07-14T09:52:00Z</time>
      </trkpt>
      <trkpt lat="44.69722" lon="3.67527">
        <ele>1308.49</ele>
        <time>2025-07-14T09:52:08Z</time>
      </trkpt>
      <trkpt lat="44.69745" lon="3.67528">
        <ele>1309.93</ele>
        <time>2025-07-14T09:52:22Z</time>
      </trkpt>
      <trkpt lat="44.69775" lon="3.67537">
        <ele>1310.9</ele>
        <time>2025-07-14T09:52:40Z</time>
      </trkpt>
      <trkpt lat="44.69798" lon="3.67543">
        <ele>1310.41</ele>
        <time>2025-07-14T09:52:56Z</time>
      </trkpt>
      <trkpt lat="44.6982" lon="3.67551">
        <ele>1311.38</ele>
        <time>2025-07-14T09:53:11Z</time>
      </trkpt>
      <trkpt lat="44.69847" lon="3.67554">
        <ele>1308.97</ele>
        <time>2025-07-14T09:53:28Z</time>
      </trkpt>
      <trkpt lat="44.69869" lon="3.67565">
        <ele>1309.45</ele>
        <time>2025-07-14T09:53:44Z</time>
      </trkpt>
      <trkpt lat="44.69887" lon="3.67567">
        <ele>1307.53</ele>
        <time>2025-07-14T09:53:59Z</time>
      </trkpt>
      <trkpt lat="44.69891" lon="3.67566">
        <ele>1305.61</ele>
        <time>2025-07-14T09:54:15Z</time>
      </trkpt>
      <trkpt lat="44.69891" lon="3.67566">
        <ele>1303.2</ele>
        <time>2025-07-14T09:54:36Z</time>
      </trkpt>
      <trkpt lat="44.69889" lon="3.6757">
        <ele>1302.72</ele>
        <time>2025-07-14T09:55:00Z</time>
      </trkpt>
      <trkpt lat="44.69891" lon="3.67578">
        <ele>1305.13</ele>
        <time>2025-07-14T09:55:29Z</time>
      </trkpt>
      <trkpt lat="44.69892" lon="3.6757">
        <ele>1305.61</ele>
        <time>2025-07-14T09:55:43Z</time>
      </trkpt>
      <trkpt lat="44.69914" lon="3.67573">
        <ele>1306.09</ele>
        <time>2025-07-14T09:56:01Z</time>
      </trkpt>
      <trkpt lat="44.69929" lon="3.67592">
        <ele>1306.09</ele>
        <time>2025-07-14T09:56:17Z</time>
      </trkpt>
      <trkpt lat="44.69947" lon="3.67619">
        <ele>1301.76</ele>
        <time>2025-07-14T09:56:35Z</time>
      </trkpt>
      <trkpt lat="44.69953" lon="3.6762">
        <ele>1301.76</ele>
        <time>2025-07-14T09:56:53Z</time>
      </trkpt>
      <trkpt lat="44.6995" lon="3.67632">
        <ele>1306.09</ele>
        <time>2025-07-14T09:57:14Z</time>
      </trkpt>
      <trkpt lat="44.6995" lon="3.67634">
        <ele>1306.57</ele>
        <time>2025-07-14T09:57:15Z</time>
      </trkpt>
      <trkpt lat="44.69954" lon="3.67653">
        <ele>1311.86</ele>
        <time>2025-07-14T09:57:30Z</time>
      </trkpt>
      <trkpt lat="44.69955" lon="3.67669">
        <ele>1310.41</ele>
        <time>2025-07-14T09:57:38Z</time>
      </trkpt>
      <trkpt lat="44.69961" lon="3.67692">
        <ele>1306.57</ele>
        <time>2025-07-14T09:57:52Z</time>
      </trkpt>
      <trkpt lat="44.69967" lon="3.67717">
        <ele>1302.72</ele>
        <time>2025-07-14T09:58:07Z</time>
      </trkpt>
      <trkpt lat="44.69975" lon="3.67744">
        <ele>1301.76</ele>
        <time>2025-07-14T09:58:23Z</time>
      </trkpt>
      <trkpt lat="44.69985" lon="3.67768">
        <ele>1299.84</ele>
        <time>2025-07-14T09:58:39Z</time>
      </trkpt>
      <trkpt lat="44.69995" lon="3.6779">
        <ele>1299.36</ele>
        <time>2025-07-14T09:58:53Z</time>
      </trkpt>
      <trkpt lat="44.70008" lon="3.67818">
        <ele>1296.48</ele>
        <time>2025-07-14T09:59:10Z</time>
      </trkpt>
      <trkpt lat="44.70017" lon="3.67845">
        <ele>1290.71</ele>
        <time>2025-07-14T09:59:25Z</time>
      </trkpt>
      <trkpt lat="44.70021" lon="3.67854">
        <ele>1289.75</ele>
        <time>2025-07-14T09:59:31Z</time>
      </trkpt>
      <trkpt lat="44.70023" lon="3.67857">
        <ele>1288.78</ele>
        <time>2025-07-14T09:59:33Z</time>
      </trkpt>
      <trkpt lat="44.70034" lon="3.67883">
        <ele>1285.9</ele>
        <time>2025-07-14T09:59:49Z</time>
      </trkpt>
      <trkpt lat="44.70043" lon="3.67909">
        <ele>1282.54</ele>
        <time>2025-07-14T10:00:05Z</time>
      </trkpt>
      <trkpt lat="44.70053" lon="3.67933">
        <ele>1276.77</ele>
        <time>2025-07-14T10:00:20Z</time>
      </trkpt>
      <trkpt lat="44.70065" lon="3.67952">
        <ele>1285.42</ele>
        <time>2025-07-14T10:00:31Z</time>
      </trkpt>
      <trkpt lat="44.70066" lon="3.67954">
        <ele>1285.9</ele>
        <time>2025-07-14T10:00:32Z</time>
      </trkpt>
      <trkpt lat="44.70072" lon="3.67982">
        <ele>1285.42</ele>
        <time>2025-07-14T10:00:48Z</time>
      </trkpt>
      <trkpt lat="44.70071" lon="3.68016">
        <ele>1284.94</ele>
        <time>2025-07-14T10:01:05Z</time>
      </trkpt>
      <trkpt lat="44.7007" lon="3.68052">
        <ele>1283.98</ele>
        <time>2025-07-14T10:01:23Z</time>
      </trkpt>
      <trkpt lat="44.70071" lon="3.68097">
        <ele>1285.9</ele>
        <time>2025-07-14T10:01:44Z</time>
      </trkpt>
      <trkpt lat="44.70067" lon="3.68131">
        <ele>1283.98</ele>
        <time>2025-07-14T10:02:01Z</time>
      </trkpt>
      <trkpt lat="44.70065" lon="3.68167">
        <ele>1285.42</ele>
        <time>2025-07-14T10:02:18Z</time>
      </trkpt>
      <trkpt lat="44.70062" lon="3.68201">
        <ele>1286.38</ele>
        <time>2025-07-14T10:02:34Z</time>
      </trkpt>
      <trkpt lat="44.70061" lon="3.6823">
        <ele>1285.9</ele>
        <time>2025-07-14T10:02:48Z</time>
      </trkpt>
      <trkpt lat="44.70062" lon="3.68263">
        <ele>1283.02</ele>
        <time>2025-07-14T10:03:04Z</time>
      </trkpt>
      <trkpt lat="44.70056" lon="3.68303">
        <ele>1279.65</ele>
        <time>2025-07-14T10:03:23Z</time>
      </trkpt>
      <trkpt lat="44.70055" lon="3.68333">
        <ele>1274.85</ele>
        <time>2025-07-14T10:03:39Z</time>
      </trkpt>
      <trkpt lat="44.70056" lon="3.68373">
        <ele>1271.96</ele>
        <time>2025-07-14T10:03:56Z</time>
      </trkpt>
      <trkpt lat="44.70058" lon="3.68404">
        <ele>1268.12</ele>
        <time>2025-07-14T10:04:10Z</time>
      </trkpt>
      <trkpt lat="44.70066" lon="3.68431">
        <ele>1265.71</ele>
        <time>2025-07-14T10:04:25Z</time>
      </trkpt>
      <trkpt lat="44.70076" lon="3.6847">
        <ele>1262.83</ele>
        <time>2025-07-14T10:04:44Z</time>
      </trkpt>
      <trkpt lat="44.70091" lon="3.68509">
        <ele>1258.02</ele>
        <time>2025-07-14T10:05:04Z</time>
      </trkpt>
      <trkpt lat="44.70099" lon="3.68535">
        <ele>1255.62</ele>
        <time>2025-07-14T10:05:19Z</time>
      </trkpt>
      <trkpt lat="44.701" lon="3.68537">
        <ele>1255.14</ele>
        <time>2025-07-14T10:05:20Z</time>
      </trkpt>
      <trkpt lat="44.70101" lon="3.68539">
        <ele>1255.14</ele>
        <time>2025-07-14T10:05:21Z</time>
      </trkpt>
      <trkpt lat="44.70107" lon="3.68558">
        <ele>1254.66</ele>
        <time>2025-07-14T10:05:36Z</time>
      </trkpt>
      <trkpt lat="44.70108" lon="3.68555">
        <ele>1256.1</ele>
        <time>2025-07-14T10:05:53Z</time>
      </trkpt>
      <trkpt lat="44.70108" lon="3.68553">
        <ele>1257.54</ele>
        <time>2025-07-14T10:06:11Z</time>
      </trkpt>
      <trkpt lat="44.70107" lon="3.68553">
        <ele>1258.02</ele>
        <time>2025-07-14T10:06:28Z</time>
      </trkpt>
      <trkpt lat="44.7011" lon="3.68554">
        <ele>1259.46</ele>
        <time>2025-07-14T10:06:48Z</time>
      </trkpt>
      <trkpt lat="44.70109" lon="3.68551">
        <ele>1259.46</ele>
        <time>2025-07-14T10:07:02Z</time>
      </trkpt>
      <trkpt lat="44.70109" lon="3.68551">
        <ele>1258.5</ele>
        <time>2025-07-14T10:07:39Z</time>
      </trkpt>
      <trkpt lat="44.7011" lon="3.68553">
        <ele>1258.02</ele>
        <time>2025-07-14T10:08:02Z</time>
      </trkpt>
      <trkpt lat="44.7011" lon="3.68555">
        <ele>1256.58</ele>
        <time>2025-07-14T10:08:16Z</time>
      </trkpt>
      <trkpt lat="44.7011" lon="3.68562">
        <ele>1253.7</ele>
        <time>2025-07-14T10:08:33Z</time>
      </trkpt>
      <trkpt lat="44.70107" lon="3.68561">
        <ele>1252.25</ele>
        <time>2025-07-14T10:08:48Z</time>
      </trkpt>
      <trkpt lat="44.70107" lon="3.68559">
        <ele>1256.58</ele>
        <time>2025-07-14T10:09:11Z</time>
      </trkpt>
      <trkpt lat="44.70106" lon="3.68556">
        <ele>1256.58</ele>
        <time>2025-07-14T10:09:33Z</time>
      </trkpt>
      <trkpt lat="44.7011" lon="3.68561">
        <ele>1256.1</ele>
        <time>2025-07-14T10:09:38Z</time>
      </trkpt>
      <trkpt lat="44.70124" lon="3.68578">
        <ele>1254.66</ele>
        <time>2025-07-14T10:09:52Z</time>
      </trkpt>
      <trkpt lat="44.70138" lon="3.68598">
        <ele>1250.81</ele>
        <time>2025-07-14T10:10:08Z</time>
      </trkpt>
      <trkpt lat="44.70154" lon="3.68615">
        <ele>1247.93</ele>
        <time>2025-07-14T10:10:24Z</time>
      </trkpt>
      <trkpt lat="44.70171" lon="3.68633">
        <ele>1247.45</ele>
        <time>2025-07-14T10:10:41Z</time>
      </trkpt>
      <trkpt lat="44.70183" lon="3.68649">
        <ele>1246.97</ele>
        <time>2025-07-14T10:10:52Z</time>
      </trkpt>
      <trkpt lat="44.70184" lon="3.68652">
        <ele>1246.49</ele>
        <time>2025-07-14T10:10:53Z</time>
      </trkpt>
      <trkpt lat="44.70188" lon="3.6866">
        <ele>1245.53</ele>
        <time>2025-07-14T10:10:58Z</time>
      </trkpt>
      <trkpt lat="44.70189" lon="3.68661">
        <ele>1245.53</ele>
        <time>2025-07-14T10:10:59Z</time>
      </trkpt>
      <trkpt lat="44.70191" lon="3.68662">
        <ele>1245.53</ele>
        <time>2025-07-14T10:11:00Z</time>
      </trkpt>
      <trkpt lat="44.70217" lon="3.68667">
        <ele>1248.89</ele>
        <time>2025-07-14T10:11:17Z</time>
      </trkpt>
      <trkpt lat="44.7024" lon="3.68674">
        <ele>1251.29</ele>
        <time>2025-07-14T10:11:34Z</time>
      </trkpt>
      <trkpt lat="44.70243" lon="3.68682">
        <ele>1250.81</ele>
        <time>2025-07-14T10:11:39Z</time>
      </trkpt>
      <trkpt lat="44.70252" lon="3.68715">
        <ele>1249.37</ele>
        <time>2025-07-14T10:11:57Z</time>
      </trkpt>
      <trkpt lat="44.70263" lon="3.68748">
        <ele>1248.41</ele>
        <time>2025-07-14T10:12:16Z</time>
      </trkpt>
      <trkpt lat="44.70277" lon="3.68783">
        <ele>1246.01</ele>
        <time>2025-07-14T10:12:35Z</time>
      </trkpt>
      <trkpt lat="44.70294" lon="3.68814">
        <ele>1245.53</ele>
        <time>2025-07-14T10:12:54Z</time>
      </trkpt>
      <trkpt lat="44.70309" lon="3.68849">
        <ele>1250.33</ele>
        <time>2025-07-14T10:13:13Z</time>
      </trkpt>
      <trkpt lat="44.70317" lon="3.68878">
        <ele>1248.41</ele>
        <time>2025-07-14T10:13:29Z</time>
      </trkpt>
      <trkpt lat="44.70329" lon="3.68909">
        <ele>1246.97</ele>
        <time>2025-07-14T10:13:47Z</time>
      </trkpt>
      <trkpt lat="44.70341" lon="3.6894">
        <ele>1244.56</ele>
        <time>2025-07-14T10:14:04Z</time>
      </trkpt>
      <trkpt lat="44.70352" lon="3.68973">
        <ele>1242.64</ele>
        <time>2025-07-14T10:14:22Z</time>
      </trkpt>
      <trkpt lat="44.70363" lon="3.69004">
        <ele>1241.2</ele>
        <time>2025-07-14T10:14:39Z</time>
      </trkpt>
      <trkpt lat="44.70374" lon="3.69033">
        <ele>1240.24</ele>
        <time>2025-07-14T10:14:56Z</time>
      </trkpt>
      <trkpt lat="44.70379" lon="3.69055">
        <ele>1239.28</ele>
        <time>2025-07-14T10:15:07Z</time>
      </trkpt>
      <trkpt lat="44.70379" lon="3.69057">
        <ele>1239.28</ele>
        <time>2025-07-14T10:15:08Z</time>
      </trkpt>
      <trkpt lat="44.70383" lon="3.6909">
        <ele>1238.8</ele>
        <time>2025-07-14T10:15:24Z</time>
      </trkpt>
      <trkpt lat="44.70384" lon="3.69095">
        <ele>1238.8</ele>
        <time>2025-07-14T10:15:27Z</time>
      </trkpt>
      <trkpt lat="44.70385" lon="3.69097">
        <ele>1238.8</ele>
        <time>2025-07-14T10:15:28Z</time>
      </trkpt>
      <trkpt lat="44.704" lon="3.69107">
        <ele>1238.8</ele>
        <time>2025-07-14T10:15:42Z</time>
      </trkpt>
      <trkpt lat="44.70422" lon="3.69118">
        <ele>1241.2</ele>
        <time>2025-07-14T10:15:59Z</time>
      </trkpt>
      <trkpt lat="44.70438" lon="3.69132">
        <ele>1241.68</ele>
        <time>2025-07-14T10:16:15Z</time>
      </trkpt>
      <trkpt lat="44.70455" lon="3.69152">
        <ele>1241.2</ele>
        <time>2025-07-14T10:16:31Z</time>
      </trkpt>
      <trkpt lat="44.7047" lon="3.69173">
        <ele>1242.16</ele>
        <time>2025-07-14T10:16:47Z</time>
      </trkpt>
      <trkpt lat="44.70482" lon="3.69197">
        <ele>1243.12</ele>
        <time>2025-07-14T10:17:03Z</time>
      </trkpt>
      <trkpt lat="44.70493" lon="3.69225">
        <ele>1243.12</ele>
        <time>2025-07-14T10:17:21Z</time>
      </trkpt>
      <trkpt lat="44.70504" lon="3.69248">
        <ele>1241.68</ele>
        <time>2025-07-14T10:17:35Z</time>
      </trkpt>
      <trkpt lat="44.70505" lon="3.69249">
        <ele>1241.2</ele>
        <time>2025-07-14T10:17:36Z</time>
      </trkpt>
      <trkpt lat="44.70506" lon="3.6925">
        <ele>1241.2</ele>
        <time>2025-07-14T10:17:37Z</time>
      </trkpt>
      <trkpt lat="44.70507" lon="3.69251">
        <ele>1240.72</ele>
        <time>2025-07-14T10:17:38Z</time>
      </trkpt>
      <trkpt lat="44.70508" lon="3.69253">
        <ele>1240.72</ele>
        <time>2025-07-14T10:17:39Z</time>
      </trkpt>
      <trkpt lat="44.70509" lon="3.69254">
        <ele>1240.24</ele>
        <time>2025-07-14T10:17:40Z</time>
      </trkpt>
      <trkpt lat="44.7051" lon="3.69255">
        <ele>1240.24</ele>
        <time>2025-07-14T10:17:41Z</time>
      </trkpt>
      <trkpt lat="44.7051" lon="3.69257">
        <ele>1239.76</ele>
        <time>2025-07-14T10:17:42Z</time>
      </trkpt>
      <trkpt lat="44.70511" lon="3.69258">
        <ele>1239.76</ele>
        <time>2025-07-14T10:17:43Z</time>
      </trkpt>
      <trkpt lat="44.70525" lon="3.69287">
        <ele>1235.91</ele>
        <time>2025-07-14T10:18:02Z</time>
      </trkpt>
      <trkpt lat="44.7054" lon="3.69314">
        <ele>1233.99</ele>
        <time>2025-07-14T10:18:21Z</time>
      </trkpt>
      <trkpt lat="44.70551" lon="3.69342">
        <ele>1231.11</ele>
        <time>2025-07-14T10:18:36Z</time>
      </trkpt>
      <trkpt lat="44.70558" lon="3.69366">
        <ele>1229.18</ele>
        <time>2025-07-14T10:18:51Z</time>
      </trkpt>
      <trkpt lat="44.70565" lon="3.69381">
        <ele>1228.7</ele>
        <time>2025-07-14T10:19:02Z</time>
      </trkpt>
      <trkpt lat="44.70566" lon="3.69381">
        <ele>1230.62</ele>
        <time>2025-07-14T10:19:16Z</time>
      </trkpt>
      <trkpt lat="44.70568" lon="3.69379">
        <ele>1231.11</ele>
        <time>2025-07-14T10:19:20Z</time>
      </trkpt>
      <trkpt lat="44.7058" lon="3.69367">
        <ele>1235.91</ele>
        <time>2025-07-14T10:19:35Z</time>
      </trkpt>
      <trkpt lat="44.70594" lon="3.69361">
        <ele>1240.72</ele>
        <time>2025-07-14T10:19:49Z</time>
      </trkpt>
      <trkpt lat="44.70595" lon="3.69363">
        <ele>1241.2</ele>
        <time>2025-07-14T10:19:53Z</time>
      </trkpt>
      <trkpt lat="44.70584" lon="3.69377">
        <ele>1240.24</ele>
        <time>2025-07-14T10:20:12Z</time>
      </trkpt>
      <trkpt lat="44.70582" lon="3.69386">
        <ele>1241.68</ele>
        <time>2025-07-14T10:20:23Z</time>
      </trkpt>
      <trkpt lat="44.7058" lon="3.69392">
        <ele>1241.68</ele>
        <time>2025-07-14T10:20:44Z</time>
      </trkpt>
      <trkpt lat="44.70584" lon="3.69415">
        <ele>1241.2</ele>
        <time>2025-07-14T10:20:59Z</time>
      </trkpt>
      <trkpt lat="44.70586" lon="3.69447">
        <ele>1239.28</ele>
        <time>2025-07-14T10:21:18Z</time>
      </trkpt>
      <trkpt lat="44.70587" lon="3.69473">
        <ele>1235.43</ele>
        <time>2025-07-14T10:21:34Z</time>
      </trkpt>
      <trkpt lat="44.70588" lon="3.69503">
        <ele>1231.11</ele>
        <time>2025-07-14T10:21:51Z</time>
      </trkpt>
      <trkpt lat="44.70586" lon="3.69525">
        <ele>1227.74</ele>
        <time>2025-07-14T10:22:05Z</time>
      </trkpt>
      <trkpt lat="44.70587" lon="3.69553">
        <ele>1225.82</ele>
        <time>2025-07-14T10:22:22Z</time>
      </trkpt>
      <trkpt lat="44.70594" lon="3.69572">
        <ele>1224.86</ele>
        <time>2025-07-14T10:22:34Z</time>
      </trkpt>
      <trkpt lat="44.70598" lon="3.69581">
        <ele>1224.38</ele>
        <time>2025-07-14T10:22:40Z</time>
      </trkpt>
      <trkpt lat="44.70614" lon="3.69605">
        <ele>1222.45</ele>
        <time>2025-07-14T10:22:58Z</time>
      </trkpt>
      <trkpt lat="44.70633" lon="3.69629">
        <ele>1222.45</ele>
        <time>2025-07-14T10:23:17Z</time>
      </trkpt>
      <trkpt lat="44.70652" lon="3.69651">
        <ele>1221.97</ele>
        <time>2025-07-14T10:23:36Z</time>
      </trkpt>
      <trkpt lat="44.70663" lon="3.69664">
        <ele>1221.49</ele>
        <time>2025-07-14T10:23:48Z</time>
      </trkpt>
      <trkpt lat="44.70677" lon="3.69671">
        <ele>1221.97</ele>
        <time>2025-07-14T10:24:04Z</time>
      </trkpt>
      <trkpt lat="44.70679" lon="3.69674">
        <ele>1222.45</ele>
        <time>2025-07-14T10:24:22Z</time>
      </trkpt>
      <trkpt lat="44.70676" lon="3.69672">
        <ele>1222.45</ele>
        <time>2025-07-14T10:24:32Z</time>
      </trkpt>
      <trkpt lat="44.70668" lon="3.69669">
        <ele>1221.49</ele>
        <time>2025-07-14T10:24:42Z</time>
      </trkpt>
      <trkpt lat="44.70674" lon="3.69694">
        <ele>1221.01</ele>
        <time>2025-07-14T10:24:57Z</time>
      </trkpt>
      <trkpt lat="44.70681" lon="3.69727">
        <ele>1221.49</ele>
        <time>2025-07-14T10:25:15Z</time>
      </trkpt>
      <trkpt lat="44.70687" lon="3.69767">
        <ele>1220.05</ele>
        <time>2025-07-14T10:25:36Z</time>
      </trkpt>
      <trkpt lat="44.70694" lon="3.69799">
        <ele>1218.61</ele>
        <time>2025-07-14T10:25:54Z</time>
      </trkpt>
      <trkpt lat="44.70704" lon="3.69836">
        <ele>1216.21</ele>
        <time>2025-07-14T10:26:13Z</time>
      </trkpt>
      <trkpt lat="44.70711" lon="3.69872">
        <ele>1214.76</ele>
        <time>2025-07-14T10:26:32Z</time>
      </trkpt>
      <trkpt lat="44.70717" lon="3.69907">
        <ele>1212.84</ele>
        <time>2025-07-14T10:26:51Z</time>
      </trkpt>
      <trkpt lat="44.70723" lon="3.69939">
        <ele>1211.88</ele>
        <time>2025-07-14T10:27:07Z</time>
      </trkpt>
      <trkpt lat="44.70728" lon="3.69976">
        <ele>1211.4</ele>
        <time>2025-07-14T10:27:27Z</time>
      </trkpt>
      <trkpt lat="44.70732" lon="3.70007">
        <ele>1212.36</ele>
        <time>2025-07-14T10:27:43Z</time>
      </trkpt>
      <trkpt lat="44.70738" lon="3.70054">
        <ele>1211.88</ele>
        <time>2025-07-14T10:28:05Z</time>
      </trkpt>
      <trkpt lat="44.70744" lon="3.7009">
        <ele>1211.88</ele>
        <time>2025-07-14T10:28:23Z</time>
      </trkpt>
      <trkpt lat="44.7075" lon="3.70126">
        <ele>1210.92</ele>
        <time>2025-07-14T10:28:41Z</time>
      </trkpt>
      <trkpt lat="44.70755" lon="3.70154">
        <ele>1209.96</ele>
        <time>2025-07-14T10:28:57Z</time>
      </trkpt>
      <trkpt lat="44.70758" lon="3.70182">
        <ele>1210.44</ele>
        <time>2025-07-14T10:29:12Z</time>
      </trkpt>
      <trkpt lat="44.70763" lon="3.70217">
        <ele>1208.51</ele>
        <time>2025-07-14T10:29:30Z</time>
      </trkpt>
      <trkpt lat="44.70765" lon="3.70251">
        <ele>1211.4</ele>
        <time>2025-07-14T10:29:47Z</time>
      </trkpt>
      <trkpt lat="44.70769" lon="3.70283">
        <ele>1211.4</ele>
        <time>2025-07-14T10:30:03Z</time>
      </trkpt>
      <trkpt lat="44.70776" lon="3.70311">
        <ele>1210.92</ele>
        <time>2025-07-14T10:30:18Z</time>
      </trkpt>
      <trkpt lat="44.70786" lon="3.70331">
        <ele>1210.44</ele>
        <time>2025-07-14T10:30:31Z</time>
      </trkpt>
      <trkpt lat="44.70792" lon="3.70343">
        <ele>1211.88</ele>
        <time>2025-07-14T10:30:39Z</time>
      </trkpt>
      <trkpt lat="44.70795" lon="3.7035">
        <ele>1212.84</ele>
        <time>2025-07-14T10:30:44Z</time>
      </trkpt>
      <trkpt lat="44.70798" lon="3.70364">
        <ele>1211.4</ele>
        <time>2025-07-14T10:30:52Z</time>
      </trkpt>
      <trkpt lat="44.708" lon="3.70371">
        <ele>1209</ele>
        <time>2025-07-14T10:30:56Z</time>
      </trkpt>
      <trkpt lat="44.70816" lon="3.70395">
        <ele>1209.48</ele>
        <time>2025-07-14T10:31:12Z</time>
      </trkpt>
      <trkpt lat="44.70836" lon="3.70414">
        <ele>1213.32</ele>
        <time>2025-07-14T10:31:28Z</time>
      </trkpt>
      <trkpt lat="44.70854" lon="3.70446">
        <ele>1208.03</ele>
        <time>2025-07-14T10:31:45Z</time>
      </trkpt>
      <trkpt lat="44.70869" lon="3.70466">
        <ele>1206.11</ele>
        <time>2025-07-14T10:31:59Z</time>
      </trkpt>
      <trkpt lat="44.70883" lon="3.70491">
        <ele>1203.71</ele>
        <time>2025-07-14T10:32:15Z</time>
      </trkpt>
      <trkpt lat="44.70894" lon="3.70517">
        <ele>1200.82</ele>
        <time>2025-07-14T10:32:29Z</time>
      </trkpt>
      <trkpt lat="44.70906" lon="3.70553">
        <ele>1199.86</ele>
        <time>2025-07-14T10:32:48Z</time>
      </trkpt>
      <trkpt lat="44.70913" lon="3.70583">
        <ele>1199.38</ele>
        <time>2025-07-14T10:33:03Z</time>
      </trkpt>
      <trkpt lat="44.7092" lon="3.70613">
        <ele>1199.38</ele>
        <time>2025-07-14T10:33:19Z</time>
      </trkpt>
      <trkpt lat="44.70922" lon="3.70626">
        <ele>1197.46</ele>
        <time>2025-07-14T10:33:26Z</time>
      </trkpt>
      <trkpt lat="44.70924" lon="3.70641">
        <ele>1197.46</ele>
        <time>2025-07-14T10:33:34Z</time>
      </trkpt>
      <trkpt lat="44.70925" lon="3.70645">
        <ele>1196.98</ele>
        <time>2025-07-14T10:33:37Z</time>
      </trkpt>
      <trkpt lat="44.70928" lon="3.70667">
        <ele>1195.06</ele>
        <time>2025-07-14T10:33:50Z</time>
      </trkpt>
      <trkpt lat="44.7093" lon="3.70691">
        <ele>1193.61</ele>
        <time>2025-07-14T10:34:03Z</time>
      </trkpt>
      <trkpt lat="44.70938" lon="3.70693">
        <ele>1195.06</ele>
        <time>2025-07-14T10:34:17Z</time>
      </trkpt>
      <trkpt lat="44.70938" lon="3.70688">
        <ele>1195.06</ele>
        <time>2025-07-14T10:34:31Z</time>
      </trkpt>
      <trkpt lat="44.70945" lon="3.7069">
        <ele>1195.54</ele>
        <time>2025-07-14T10:34:46Z</time>
      </trkpt>
      <trkpt lat="44.7095" lon="3.70692">
        <ele>1196.5</ele>
        <time>2025-07-14T10:35:16Z</time>
      </trkpt>
      <trkpt lat="44.70944" lon="3.70691">
        <ele>1197.94</ele>
        <time>2025-07-14T10:35:36Z</time>
      </trkpt>
      <trkpt lat="44.70941" lon="3.70707">
        <ele>1198.42</ele>
        <time>2025-07-14T10:35:49Z</time>
      </trkpt>
      <trkpt lat="44.70941" lon="3.70732">
        <ele>1196.02</ele>
        <time>2025-07-14T10:36:03Z</time>
      </trkpt>
      <trkpt lat="44.70941" lon="3.70743">
        <ele>1197.46</ele>
        <time>2025-07-14T10:36:10Z</time>
      </trkpt>
      <trkpt lat="44.70943" lon="3.7077">
        <ele>1196.5</ele>
        <time>2025-07-14T10:36:23Z</time>
      </trkpt>
      <trkpt lat="44.70947" lon="3.70799">
        <ele>1192.65</ele>
        <time>2025-07-14T10:36:37Z</time>
      </trkpt>
      <trkpt lat="44.70948" lon="3.70831">
        <ele>1187.85</ele>
        <time>2025-07-14T10:36:53Z</time>
      </trkpt>
      <trkpt lat="44.70948" lon="3.70833">
        <ele>1187.85</ele>
        <time>2025-07-14T10:36:54Z</time>
      </trkpt>
      <trkpt lat="44.70953" lon="3.70851">
        <ele>1184.96</ele>
        <time>2025-07-14T10:37:04Z</time>
      </trkpt>
      <trkpt lat="44.70961" lon="3.70878">
        <ele>1183.52</ele>
        <time>2025-07-14T10:37:20Z</time>
      </trkpt>
      <trkpt lat="44.70965" lon="3.70895">
        <ele>1184</ele>
        <time>2025-07-14T10:37:29Z</time>
      </trkpt>
      <trkpt lat="44.70967" lon="3.70904">
        <ele>1184</ele>
        <time>2025-07-14T10:37:34Z</time>
      </trkpt>
      <trkpt lat="44.7097" lon="3.70923">
        <ele>1182.56</ele>
        <time>2025-07-14T10:37:43Z</time>
      </trkpt>
      <trkpt lat="44.70975" lon="3.7093">
        <ele>1182.08</ele>
        <time>2025-07-14T10:37:48Z</time>
      </trkpt>
      <trkpt lat="44.70983" lon="3.70968">
        <ele>1177.75</ele>
        <time>2025-07-14T10:38:06Z</time>
      </trkpt>
      <trkpt lat="44.70984" lon="3.70979">
        <ele>1176.31</ele>
        <time>2025-07-14T10:38:12Z</time>
      </trkpt>
      <trkpt lat="44.7099" lon="3.71009">
        <ele>1173.91</ele>
        <time>2025-07-14T10:38:27Z</time>
      </trkpt>
      <trkpt lat="44.70997" lon="3.71042">
        <ele>1170.54</ele>
        <time>2025-07-14T10:38:43Z</time>
      </trkpt>
      <trkpt lat="44.71006" lon="3.71075">
        <ele>1172.47</ele>
        <time>2025-07-14T10:38:58Z</time>
      </trkpt>
      <trkpt lat="44.71013" lon="3.71107">
        <ele>1170.54</ele>
        <time>2025-07-14T10:39:14Z</time>
      </trkpt>
      <trkpt lat="44.71018" lon="3.71141">
        <ele>1170.06</ele>
        <time>2025-07-14T10:39:31Z</time>
      </trkpt>
      <trkpt lat="44.71022" lon="3.71174">
        <ele>1168.14</ele>
        <time>2025-07-14T10:39:47Z</time>
      </trkpt>
      <trkpt lat="44.71029" lon="3.71207">
        <ele>1166.7</ele>
        <time>2025-07-14T10:40:03Z</time>
      </trkpt>
      <trkpt lat="44.71031" lon="3.71238">
        <ele>1164.77</ele>
        <time>2025-07-14T10:40:19Z</time>
      </trkpt>
      <trkpt lat="44.71034" lon="3.71267">
        <ele>1162.37</ele>
        <time>2025-07-14T10:40:34Z</time>
      </trkpt>
      <trkpt lat="44.71038" lon="3.713">
        <ele>1159.49</ele>
        <time>2025-07-14T10:40:51Z</time>
      </trkpt>
      <trkpt lat="44.71042" lon="3.71334">
        <ele>1158.53</ele>
        <time>2025-07-14T10:41:09Z</time>
      </trkpt>
      <trkpt lat="44.71046" lon="3.71369">
        <ele>1155.16</ele>
        <time>2025-07-14T10:41:27Z</time>
      </trkpt>
      <trkpt lat="44.7105" lon="3.71402">
        <ele>1153.24</ele>
        <time>2025-07-14T10:41:45Z</time>
      </trkpt>
      <trkpt lat="44.71056" lon="3.71437">
        <ele>1152.28</ele>
        <time>2025-07-14T10:42:03Z</time>
      </trkpt>
      <trkpt lat="44.71064" lon="3.71475">
        <ele>1150.84</ele>
        <time>2025-07-14T10:42:23Z</time>
      </trkpt>
      <trkpt lat="44.71066" lon="3.71509">
        <ele>1147.95</ele>
        <time>2025-07-14T10:42:40Z</time>
      </trkpt>
      <trkpt lat="44.71067" lon="3.71542">
        <ele>1144.59</ele>
        <time>2025-07-14T10:42:57Z</time>
      </trkpt>
      <trkpt lat="44.71068" lon="3.71573">
        <ele>1143.14</ele>
        <time>2025-07-14T10:43:13Z</time>
      </trkpt>
      <trkpt lat="44.71073" lon="3.71601">
        <ele>1140.26</ele>
        <time>2025-07-14T10:43:29Z</time>
      </trkpt>
      <trkpt lat="44.71076" lon="3.71628">
        <ele>1137.86</ele>
        <time>2025-07-14T10:43:44Z</time>
      </trkpt>
      <trkpt lat="44.71081" lon="3.71652">
        <ele>1135.94</ele>
        <time>2025-07-14T10:43:57Z</time>
      </trkpt>
      <trkpt lat="44.71081" lon="3.71656">
        <ele>1134.49</ele>
        <time>2025-07-14T10:43:59Z</time>
      </trkpt>
      <trkpt lat="44.71087" lon="3.71677">
        <ele>1128.73</ele>
        <time>2025-07-14T10:44:12Z</time>
      </trkpt>
      <trkpt lat="44.71093" lon="3.71688">
        <ele>1129.21</ele>
        <time>2025-07-14T10:44:22Z</time>
      </trkpt>
      <trkpt lat="44.71077" lon="3.71698">
        <ele>1130.65</ele>
        <time>2025-07-14T10:44:38Z</time>
      </trkpt>
      <trkpt lat="44.71064" lon="3.71716">
        <ele>1131.61</ele>
        <time>2025-07-14T10:44:54Z</time>
      </trkpt>
      <trkpt lat="44.71052" lon="3.71743">
        <ele>1132.09</ele>
        <time>2025-07-14T10:45:12Z</time>
      </trkpt>
      <trkpt lat="44.71062" lon="3.71765">
        <ele>1132.09</ele>
        <time>2025-07-14T10:45:28Z</time>
      </trkpt>
      <trkpt lat="44.71075" lon="3.71791">
        <ele>1127.76</ele>
        <time>2025-07-14T10:45:47Z</time>
      </trkpt>
      <trkpt lat="44.71094" lon="3.71817">
        <ele>1132.09</ele>
        <time>2025-07-14T10:46:07Z</time>
      </trkpt>
      <trkpt lat="44.71116" lon="3.71848">
        <ele>1134.01</ele>
        <time>2025-07-14T10:46:30Z</time>
      </trkpt>
      <trkpt lat="44.71133" lon="3.71872">
        <ele>1134.01</ele>
        <time>2025-07-14T10:46:48Z</time>
      </trkpt>
      <trkpt lat="44.71135" lon="3.71876">
        <ele>1133.53</ele>
        <time>2025-07-14T10:46:51Z</time>
      </trkpt>
      <trkpt lat="44.7115" lon="3.71903">
        <ele>1128.24</ele>
        <time>2025-07-14T10:47:11Z</time>
      </trkpt>
      <trkpt lat="44.71166" lon="3.71927">
        <ele>1125.84</ele>
        <time>2025-07-14T10:47:27Z</time>
      </trkpt>
      <trkpt lat="44.71183" lon="3.71954">
        <ele>1126.8</ele>
        <time>2025-07-14T10:47:44Z</time>
      </trkpt>
      <trkpt lat="44.71198" lon="3.71976">
        <ele>1128.24</ele>
        <time>2025-07-14T10:48:00Z</time>
      </trkpt>
      <trkpt lat="44.71219" lon="3.72003">
        <ele>1129.69</ele>
        <time>2025-07-14T10:48:19Z</time>
      </trkpt>
      <trkpt lat="44.71236" lon="3.72032">
        <ele>1127.76</ele>
        <time>2025-07-14T10:48:36Z</time>
      </trkpt>
      <trkpt lat="44.71251" lon="3.72054">
        <ele>1126.32</ele>
        <time>2025-07-14T10:48:53Z</time>
      </trkpt>
      <trkpt lat="44.71272" lon="3.72088">
        <ele>1124.88</ele>
        <time>2025-07-14T10:49:16Z</time>
      </trkpt>
      <trkpt lat="44.71286" lon="3.7212">
        <ele>1123.92</ele>
        <time>2025-07-14T10:49:36Z</time>
      </trkpt>
      <trkpt lat="44.71291" lon="3.72146">
        <ele>1124.88</ele>
        <time>2025-07-14T10:49:50Z</time>
      </trkpt>
      <trkpt lat="44.71294" lon="3.7218">
        <ele>1126.32</ele>
        <time>2025-07-14T10:50:07Z</time>
      </trkpt>
      <trkpt lat="44.71294" lon="3.72212">
        <ele>1126.32</ele>
        <time>2025-07-14T10:50:23Z</time>
      </trkpt>
      <trkpt lat="44.713" lon="3.72251">
        <ele>1125.36</ele>
        <time>2025-07-14T10:50:43Z</time>
      </trkpt>
      <trkpt lat="44.71306" lon="3.72299">
        <ele>1123.44</ele>
        <time>2025-07-14T10:51:07Z</time>
      </trkpt>
      <trkpt lat="44.71313" lon="3.72344">
        <ele>1123.44</ele>
        <time>2025-07-14T10:51:28Z</time>
      </trkpt>
      <trkpt lat="44.71319" lon="3.72379">
        <ele>1122.96</ele>
        <time>2025-07-14T10:51:45Z</time>
      </trkpt>
      <trkpt lat="44.71322" lon="3.72415">
        <ele>1122.96</ele>
        <time>2025-07-14T10:52:03Z</time>
      </trkpt>
      <trkpt lat="44.71328" lon="3.72459">
        <ele>1121.52</ele>
        <time>2025-07-14T10:52:24Z</time>
      </trkpt>
      <trkpt lat="44.7133" lon="3.72488">
        <ele>1121.03</ele>
        <time>2025-07-14T10:52:41Z</time>
      </trkpt>
      <trkpt lat="44.71332" lon="3.72524">
        <ele>1121.52</ele>
        <time>2025-07-14T10:52:58Z</time>
      </trkpt>
      <trkpt lat="44.71339" lon="3.7256">
        <ele>1122.48</ele>
        <time>2025-07-14T10:53:15Z</time>
      </trkpt>
      <trkpt lat="44.71341" lon="3.72591">
        <ele>1123.44</ele>
        <time>2025-07-14T10:53:30Z</time>
      </trkpt>
      <trkpt lat="44.71343" lon="3.72631">
        <ele>1125.36</ele>
        <time>2025-07-14T10:53:47Z</time>
      </trkpt>
      <trkpt lat="44.71346" lon="3.72662">
        <ele>1127.76</ele>
        <time>2025-07-14T10:54:03Z</time>
      </trkpt>
      <trkpt lat="44.71348" lon="3.727">
        <ele>1130.17</ele>
        <time>2025-07-14T10:54:20Z</time>
      </trkpt>
      <trkpt lat="44.7135" lon="3.72732">
        <ele>1131.61</ele>
        <time>2025-07-14T10:54:37Z</time>
      </trkpt>
      <trkpt lat="44.71348" lon="3.72763">
        <ele>1131.61</ele>
        <time>2025-07-14T10:54:53Z</time>
      </trkpt>
      <trkpt lat="44.71341" lon="3.728">
        <ele>1128.73</ele>
        <time>2025-07-14T10:55:11Z</time>
      </trkpt>
      <trkpt lat="44.71334" lon="3.72832">
        <ele>1129.21</ele>
        <time>2025-07-14T10:55:27Z</time>
      </trkpt>
      <trkpt lat="44.71325" lon="3.72864">
        <ele>1130.65</ele>
        <time>2025-07-14T10:55:45Z</time>
      </trkpt>
      <trkpt lat="44.7132" lon="3.72897">
        <ele>1129.69</ele>
        <time>2025-07-14T10:55:59Z</time>
      </trkpt>
      <trkpt lat="44.7132" lon="3.72933">
        <ele>1129.21</ele>
        <time>2025-07-14T10:56:18Z</time>
      </trkpt>
      <trkpt lat="44.71325" lon="3.72975">
        <ele>1129.69</ele>
        <time>2025-07-14T10:56:38Z</time>
      </trkpt>
      <trkpt lat="44.7133" lon="3.73014">
        <ele>1127.28</ele>
        <time>2025-07-14T10:56:55Z</time>
      </trkpt>
      <trkpt lat="44.71328" lon="3.73046">
        <ele>1124.4</ele>
        <time>2025-07-14T10:57:10Z</time>
      </trkpt>
      <trkpt lat="44.71322" lon="3.73084">
        <ele>1122</ele>
        <time>2025-07-14T10:57:28Z</time>
      </trkpt>
      <trkpt lat="44.71323" lon="3.7313">
        <ele>1119.59</ele>
        <time>2025-07-14T10:57:47Z</time>
      </trkpt>
      <trkpt lat="44.71324" lon="3.73176">
        <ele>1118.63</ele>
        <time>2025-07-14T10:58:07Z</time>
      </trkpt>
      <trkpt lat="44.71326" lon="3.73216">
        <ele>1118.63</ele>
        <time>2025-07-14T10:58:26Z</time>
      </trkpt>
      <trkpt lat="44.71327" lon="3.7326">
        <ele>1117.67</ele>
        <time>2025-07-14T10:58:47Z</time>
      </trkpt>
      <trkpt lat="44.71324" lon="3.733">
        <ele>1114.79</ele>
        <time>2025-07-14T10:59:06Z</time>
      </trkpt>
      <trkpt lat="44.71319" lon="3.73337">
        <ele>1119.11</ele>
        <time>2025-07-14T10:59:25Z</time>
      </trkpt>
      <trkpt lat="44.71316" lon="3.73384">
        <ele>1123.44</ele>
        <time>2025-07-14T10:59:47Z</time>
      </trkpt>
      <trkpt lat="44.71313" lon="3.73424">
        <ele>1121.03</ele>
        <time>2025-07-14T11:00:06Z</time>
      </trkpt>
      <trkpt lat="44.71312" lon="3.73474">
        <ele>1116.23</ele>
        <time>2025-07-14T11:00:28Z</time>
      </trkpt>
      <trkpt lat="44.71311" lon="3.73523">
        <ele>1113.34</ele>
        <time>2025-07-14T11:00:49Z</time>
      </trkpt>
      <trkpt lat="44.71307" lon="3.73564">
        <ele>1110.46</ele>
        <time>2025-07-14T11:01:09Z</time>
      </trkpt>
      <trkpt lat="44.71295" lon="3.73602">
        <ele>1109.02</ele>
        <time>2025-07-14T11:01:28Z</time>
      </trkpt>
      <trkpt lat="44.71283" lon="3.73633">
        <ele>1106.61</ele>
        <time>2025-07-14T11:01:45Z</time>
      </trkpt>
      <trkpt lat="44.71282" lon="3.73672">
        <ele>1103.25</ele>
        <time>2025-07-14T11:02:04Z</time>
      </trkpt>
      <trkpt lat="44.71291" lon="3.7371">
        <ele>1101.81</ele>
        <time>2025-07-14T11:02:23Z</time>
      </trkpt>
      <trkpt lat="44.71297" lon="3.73755">
        <ele>1101.33</ele>
        <time>2025-07-14T11:02:45Z</time>
      </trkpt>
      <trkpt lat="44.71313" lon="3.73779">
        <ele>1101.33</ele>
        <time>2025-07-14T11:03:01Z</time>
      </trkpt>
      <trkpt lat="44.71332" lon="3.73799">
        <ele>1098.44</ele>
        <time>2025-07-14T11:03:17Z</time>
      </trkpt>
      <trkpt lat="44.71343" lon="3.73832">
        <ele>1095.08</ele>
        <time>2025-07-14T11:03:36Z</time>
      </trkpt>
      <trkpt lat="44.7134" lon="3.73863">
        <ele>1092.2</ele>
        <time>2025-07-14T11:03:54Z</time>
      </trkpt>
      <trkpt lat="44.7132" lon="3.73891">
        <ele>1089.31</ele>
        <time>2025-07-14T11:04:11Z</time>
      </trkpt>
      <trkpt lat="44.71319" lon="3.73893">
        <ele>1089.31</ele>
        <time>2025-07-14T11:04:12Z</time>
      </trkpt>
      <trkpt lat="44.71318" lon="3.73896">
        <ele>1088.83</ele>
        <time>2025-07-14T11:04:13Z</time>
      </trkpt>
      <trkpt lat="44.7131" lon="3.73932">
        <ele>1087.39</ele>
        <time>2025-07-14T11:04:32Z</time>
      </trkpt>
      <trkpt lat="44.71308" lon="3.73958">
        <ele>1088.83</ele>
        <time>2025-07-14T11:04:50Z</time>
      </trkpt>
      <trkpt lat="44.71306" lon="3.7396">
        <ele>1088.35</ele>
        <time>2025-07-14T11:04:53Z</time>
      </trkpt>
      <trkpt lat="44.71303" lon="3.73991">
        <ele>1086.43</ele>
        <time>2025-07-14T11:05:10Z</time>
      </trkpt>
      <trkpt lat="44.71322" lon="3.74018">
        <ele>1084.5</ele>
        <time>2025-07-14T11:05:29Z</time>
      </trkpt>
      <trkpt lat="44.71338" lon="3.74046">
        <ele>1082.58</ele>
        <time>2025-07-14T11:05:46Z</time>
      </trkpt>
      <trkpt lat="44.71348" lon="3.74075">
        <ele>1079.22</ele>
        <time>2025-07-14T11:06:02Z</time>
      </trkpt>
      <trkpt lat="44.71356" lon="3.74111">
        <ele>1076.33</ele>
        <time>2025-07-14T11:06:22Z</time>
      </trkpt>
      <trkpt lat="44.71354" lon="3.74152">
        <ele>1075.85</ele>
        <time>2025-07-14T11:06:43Z</time>
      </trkpt>
      <trkpt lat="44.71354" lon="3.74182">
        <ele>1075.85</ele>
        <time>2025-07-14T11:07:00Z</time>
      </trkpt>
      <trkpt lat="44.71355" lon="3.74214">
        <ele>1072.97</ele>
        <time>2025-07-14T11:07:19Z</time>
      </trkpt>
      <trkpt lat="44.71362" lon="3.74246">
        <ele>1069.12</ele>
        <time>2025-07-14T11:07:40Z</time>
      </trkpt>
      <trkpt lat="44.71363" lon="3.74248">
        <ele>1069.12</ele>
        <time>2025-07-14T11:07:41Z</time>
      </trkpt>
      <trkpt lat="44.71365" lon="3.74249">
        <ele>1068.64</ele>
        <time>2025-07-14T11:07:42Z</time>
      </trkpt>
      <trkpt lat="44.71386" lon="3.74268">
        <ele>1068.16</ele>
        <time>2025-07-14T11:08:00Z</time>
      </trkpt>
      <trkpt lat="44.71387" lon="3.7427">
        <ele>1065.28</ele>
        <time>2025-07-14T11:08:19Z</time>
      </trkpt>
      <trkpt lat="44.71397" lon="3.74281">
        <ele>1064.32</ele>
        <time>2025-07-14T11:08:38Z</time>
      </trkpt>
      <trkpt lat="44.7142" lon="3.74302">
        <ele>1063.84</ele>
        <time>2025-07-14T11:08:58Z</time>
      </trkpt>
      <trkpt lat="44.71417" lon="3.74312">
        <ele>1063.84</ele>
        <time>2025-07-14T11:09:07Z</time>
      </trkpt>
      <trkpt lat="44.71416" lon="3.74313">
        <ele>1063.84</ele>
        <time>2025-07-14T11:09:08Z</time>
      </trkpt>
      <trkpt lat="44.71401" lon="3.74329">
        <ele>1061.43</ele>
        <time>2025-07-14T11:09:24Z</time>
      </trkpt>
      <trkpt lat="44.71384" lon="3.74353">
        <ele>1061.91</ele>
        <time>2025-07-14T11:09:42Z</time>
      </trkpt>
      <trkpt lat="44.71363" lon="3.74375">
        <ele>1062.39</ele>
        <time>2025-07-14T11:10:03Z</time>
      </trkpt>
      <trkpt lat="44.7135" lon="3.744">
        <ele>1062.39</ele>
        <time>2025-07-14T11:10:20Z</time>
      </trkpt>
      <trkpt lat="44.71354" lon="3.74427">
        <ele>1066.24</ele>
        <time>2025-07-14T11:10:37Z</time>
      </trkpt>
      <trkpt lat="44.71362" lon="3.74458">
        <ele>1066.24</ele>
        <time>2025-07-14T11:10:55Z</time>
      </trkpt>
      <trkpt lat="44.71364" lon="3.74492">
        <ele>1066.72</ele>
        <time>2025-07-14T11:11:13Z</time>
      </trkpt>
      <trkpt lat="44.71374" lon="3.74522">
        <ele>1067.2</ele>
        <time>2025-07-14T11:11:31Z</time>
      </trkpt>
      <trkpt lat="44.71385" lon="3.74537">
        <ele>1066.72</ele>
        <time>2025-07-14T11:11:48Z</time>
      </trkpt>
      <trkpt lat="44.71386" lon="3.74537">
        <ele>1064.8</ele>
        <time>2025-07-14T11:12:04Z</time>
      </trkpt>
      <trkpt lat="44.71388" lon="3.74539">
        <ele>1064.32</ele>
        <time>2025-07-14T11:12:11Z</time>
      </trkpt>
      <trkpt lat="44.71389" lon="3.74539">
        <ele>1064.32</ele>
        <time>2025-07-14T11:12:12Z</time>
      </trkpt>
      <trkpt lat="44.71408" lon="3.7455">
        <ele>1064.32</ele>
        <time>2025-07-14T11:12:28Z</time>
      </trkpt>
      <trkpt lat="44.71437" lon="3.74559">
        <ele>1064.8</ele>
        <time>2025-07-14T11:12:49Z</time>
      </trkpt>
      <trkpt lat="44.71461" lon="3.74552">
        <ele>1064.8</ele>
        <time>2025-07-14T11:13:07Z</time>
      </trkpt>
      <trkpt lat="44.71485" lon="3.74552">
        <ele>1065.76</ele>
        <time>2025-07-14T11:13:25Z</time>
      </trkpt>
      <trkpt lat="44.71499" lon="3.74552">
        <ele>1064.32</ele>
        <time>2025-07-14T11:13:44Z</time>
      </trkpt>
      <trkpt lat="44.71497" lon="3.74553">
        <ele>1064.32</ele>
        <time>2025-07-14T11:13:52Z</time>
      </trkpt>
      <trkpt lat="44.71474" lon="3.74551">
        <ele>1064.32</ele>
        <time>2025-07-14T11:14:09Z</time>
      </trkpt>
      <trkpt lat="44.71458" lon="3.74543">
        <ele>1061.91</ele>
        <time>2025-07-14T11:14:26Z</time>
      </trkpt>
      <trkpt lat="44.71458" lon="3.74535">
        <ele>1061.43</ele>
        <time>2025-07-14T11:14:30Z</time>
      </trkpt>
      <trkpt lat="44.71462" lon="3.74512">
        <ele>1060.47</ele>
        <time>2025-07-14T11:14:46Z</time>
      </trkpt>
      <trkpt lat="44.71462" lon="3.74485">
        <ele>1059.03</ele>
        <time>2025-07-14T11:15:06Z</time>
      </trkpt>
      <trkpt lat="44.71458" lon="3.74471">
        <ele>1058.55</ele>
        <time>2025-07-14T11:15:16Z</time>
      </trkpt>
      <trkpt lat="44.7145" lon="3.74465">
        <ele>1059.03</ele>
        <time>2025-07-14T11:15:35Z</time>
      </trkpt>
      <trkpt lat="44.71448" lon="3.74461">
        <ele>1057.59</ele>
        <time>2025-07-14T11:15:52Z</time>
      </trkpt>
      <trkpt lat="44.71446" lon="3.74457">
        <ele>1058.07</ele>
        <time>2025-07-14T11:16:06Z</time>
      </trkpt>
      <trkpt lat="44.71449" lon="3.74457">
        <ele>1056.63</ele>
        <time>2025-07-14T11:16:22Z</time>
      </trkpt>
      <trkpt lat="44.71449" lon="3.74458">
        <ele>1055.18</ele>
        <time>2025-07-14T11:16:35Z</time>
      </trkpt>
      <trkpt lat="44.7145" lon="3.74458">
        <ele>1056.15</ele>
        <time>2025-07-14T11:16:50Z</time>
      </trkpt>
      <trkpt lat="44.71451" lon="3.74456">
        <ele>1057.59</ele>
        <time>2025-07-14T11:17:10Z</time>
      </trkpt>
      <trkpt lat="44.71448" lon="3.74454">
        <ele>1055.18</ele>
        <time>2025-07-14T11:17:30Z</time>
      </trkpt>
      <trkpt lat="44.71448" lon="3.74455">
        <ele>1054.7</ele>
        <time>2025-07-14T11:17:43Z</time>
      </trkpt>
      <trkpt lat="44.71448" lon="3.74455">
        <ele>1052.3</ele>
        <time>2025-07-14T11:18:01Z</time>
      </trkpt>
      <trkpt lat="44.71447" lon="3.74454">
        <ele>1051.82</ele>
        <time>2025-07-14T11:18:15Z</time>
      </trkpt>
      <trkpt lat="44.71446" lon="3.74455">
        <ele>1053.26</ele>
        <time>2025-07-14T11:18:33Z</time>
      </trkpt>
      <trkpt lat="44.71446" lon="3.74453">
        <ele>1055.18</ele>
        <time>2025-07-14T11:18:49Z</time>
      </trkpt>
      <trkpt lat="44.71445" lon="3.74455">
        <ele>1055.67</ele>
        <time>2025-07-14T11:19:02Z</time>
      </trkpt>
      <trkpt lat="44.71445" lon="3.74455">
        <ele>1055.18</ele>
        <time>2025-07-14T11:19:20Z</time>
      </trkpt>
      <trkpt lat="44.71448" lon="3.74458">
        <ele>1054.22</ele>
        <time>2025-07-14T11:19:34Z</time>
      </trkpt>
      <trkpt lat="44.71448" lon="3.74457">
        <ele>1053.26</ele>
        <time>2025-07-14T11:19:46Z</time>
      </trkpt>
      <trkpt lat="44.71449" lon="3.74455">
        <ele>1050.38</ele>
        <time>2025-07-14T11:20:05Z</time>
      </trkpt>
      <trkpt lat="44.7145" lon="3.74455">
        <ele>1051.82</ele>
        <time>2025-07-14T11:20:21Z</time>
      </trkpt>
      <trkpt lat="44.71451" lon="3.74455">
        <ele>1052.3</ele>
        <time>2025-07-14T11:20:23Z</time>
      </trkpt>
      <trkpt lat="44.71451" lon="3.74461">
        <ele>1053.26</ele>
        <time>2025-07-14T11:20:37Z</time>
      </trkpt>
      <trkpt lat="44.71448" lon="3.74455">
        <ele>1053.26</ele>
        <time>2025-07-14T11:20:55Z</time>
      </trkpt>
      <trkpt lat="44.71446" lon="3.74455">
        <ele>1053.26</ele>
        <time>2025-07-14T11:21:03Z</time>
      </trkpt>
      <trkpt lat="44.71442" lon="3.74448">
        <ele>1053.74</ele>
        <time>2025-07-14T11:21:15Z</time>
      </trkpt>
      <trkpt lat="44.71443" lon="3.74445">
        <ele>1054.7</ele>
        <time>2025-07-14T11:21:29Z</time>
      </trkpt>
      <trkpt lat="44.71444" lon="3.74446">
        <ele>1055.67</ele>
        <time>2025-07-14T11:21:47Z</time>
      </trkpt>
      <trkpt lat="44.71441" lon="3.74448">
        <ele>1056.15</ele>
        <time>2025-07-14T11:22:01Z</time>
      </trkpt>
      <trkpt lat="44.71442" lon="3.74447">
        <ele>1057.11</ele>
        <time>2025-07-14T11:22:17Z</time>
      </trkpt>
      <trkpt lat="44.71443" lon="3.74448">
        <ele>1056.15</ele>
        <time>2025-07-14T11:22:46Z</time>
      </trkpt>
      <trkpt lat="44.71447" lon="3.74456">
        <ele>1055.18</ele>
        <time>2025-07-14T11:22:55Z</time>
      </trkpt>
      <trkpt lat="44.71452" lon="3.74459">
        <ele>1053.74</ele>
        <time>2025-07-14T11:23:10Z</time>
      </trkpt>
      <trkpt lat="44.71451" lon="3.74459">
        <ele>1053.74</ele>
        <time>2025-07-14T11:23:25Z</time>
      </trkpt>
      <trkpt lat="44.71451" lon="3.74458">
        <ele>1055.67</ele>
        <time>2025-07-14T11:23:45Z</time>
      </trkpt>
      <trkpt lat="44.71452" lon="3.74459">
        <ele>1060.47</ele>
        <time>2025-07-14T11:24:13Z</time>
      </trkpt>
      <trkpt lat="44.71451" lon="3.7446">
        <ele>1059.99</ele>
        <time>2025-07-14T11:24:43Z</time>
      </trkpt>
      <trkpt lat="44.7145" lon="3.74457">
        <ele>1059.99</ele>
        <time>2025-07-14T11:25:15Z</time>
      </trkpt>
      <trkpt lat="44.71446" lon="3.74456">
        <ele>1058.07</ele>
        <time>2025-07-14T11:25:30Z</time>
      </trkpt>
      <trkpt lat="44.71445" lon="3.74455">
        <ele>1056.15</ele>
        <time>2025-07-14T11:26:00Z</time>
      </trkpt>
      <trkpt lat="44.71444" lon="3.74457">
        <ele>1059.03</ele>
        <time>2025-07-14T11:26:27Z</time>
      </trkpt>
      <trkpt lat="44.71445" lon="3.74456">
        <ele>1057.59</ele>
        <time>2025-07-14T11:26:48Z</time>
      </trkpt>
      <trkpt lat="44.71449" lon="3.74461">
        <ele>1055.67</ele>
        <time>2025-07-14T11:27:04Z</time>
      </trkpt>
      <trkpt lat="44.71449" lon="3.74464">
        <ele>1052.78</ele>
        <time>2025-07-14T11:27:21Z</time>
      </trkpt>
      <trkpt lat="44.71452" lon="3.74464">
        <ele>1054.22</ele>
        <time>2025-07-14T11:27:48Z</time>
      </trkpt>
      <trkpt lat="44.71451" lon="3.74466">
        <ele>1057.11</ele>
        <time>2025-07-14T11:28:15Z</time>
      </trkpt>
      <trkpt lat="44.71449" lon="3.74465">
        <ele>1057.59</ele>
        <time>2025-07-14T11:28:41Z</time>
      </trkpt>
      <trkpt lat="44.71451" lon="3.74462">
        <ele>1058.07</ele>
        <time>2025-07-14T11:28:59Z</time>
      </trkpt>
      <trkpt lat="44.71451" lon="3.74462">
        <ele>1059.03</ele>
        <time>2025-07-14T11:29:05Z</time>
      </trkpt>
      <trkpt lat="44.71463" lon="3.7444">
        <ele>1042.69</ele>
        <time>2025-07-14T13:27:01Z</time>
      </trkpt>
      <trkpt lat="44.71451" lon="3.74464">
        <ele>1071.05</ele>
        <time>2025-07-14T13:27:14Z</time>
      </trkpt>
      <trkpt lat="44.71451" lon="3.74455">
        <ele>1064.8</ele>
        <time>2025-07-14T13:27:37Z</time>
      </trkpt>
      <trkpt lat="44.7145" lon="3.74455">
        <ele>1064.32</ele>
        <time>2025-07-14T13:27:55Z</time>
      </trkpt>
      <trkpt lat="44.7145" lon="3.74456">
        <ele>1064.8</ele>
        <time>2025-07-14T13:28:18Z</time>
      </trkpt>
      <trkpt lat="44.71455" lon="3.74455">
        <ele>1071.05</ele>
        <time>2025-07-14T13:28:53Z</time>
      </trkpt>
      <trkpt lat="44.71453" lon="3.74454">
        <ele>1068.16</ele>
        <time>2025-07-14T13:29:23Z</time>
      </trkpt>
      <trkpt lat="44.7145" lon="3.74449">
        <ele>1065.76</ele>
        <time>2025-07-14T13:29:49Z</time>
      </trkpt>
      <trkpt lat="44.7145" lon="3.74455">
        <ele>1063.36</ele>
        <time>2025-07-14T13:30:23Z</time>
      </trkpt>
      <trkpt lat="44.71454" lon="3.74456">
        <ele>1063.36</ele>
        <time>2025-07-14T13:30:43Z</time>
      </trkpt>
      <trkpt lat="44.71455" lon="3.74459">
        <ele>1061.91</ele>
        <time>2025-07-14T13:30:59Z</time>
      </trkpt>
      <trkpt lat="44.71456" lon="3.74454">
        <ele>1060.95</ele>
        <time>2025-07-14T13:31:22Z</time>
      </trkpt>
      <trkpt lat="44.71461" lon="3.74463">
        <ele>1059.99</ele>
        <time>2025-07-14T13:31:34Z</time>
      </trkpt>
      <trkpt lat="44.71463" lon="3.74473">
        <ele>1059.51</ele>
        <time>2025-07-14T13:31:43Z</time>
      </trkpt>
      <trkpt lat="44.71469" lon="3.74484">
        <ele>1057.59</ele>
        <time>2025-07-14T13:31:57Z</time>
      </trkpt>
      <trkpt lat="44.71469" lon="3.74484">
        <ele>1057.11</ele>
        <time>2025-07-14T13:32:18Z</time>
      </trkpt>
      <trkpt lat="44.71471" lon="3.74483">
        <ele>1059.03</ele>
        <time>2025-07-14T13:32:36Z</time>
      </trkpt>
      <trkpt lat="44.7147" lon="3.74485">
        <ele>1058.55</ele>
        <time>2025-07-14T13:32:58Z</time>
      </trkpt>
      <trkpt lat="44.71468" lon="3.7449">
        <ele>1058.55</ele>
        <time>2025-07-14T13:33:12Z</time>
      </trkpt>
      <trkpt lat="44.71467" lon="3.7449">
        <ele>1059.51</ele>
        <time>2025-07-14T13:33:27Z</time>
      </trkpt>
      <trkpt lat="44.71468" lon="3.74497">
        <ele>1059.51</ele>
        <time>2025-07-14T13:33:47Z</time>
      </trkpt>
      <trkpt lat="44.71466" lon="3.74508">
        <ele>1059.03</ele>
        <time>2025-07-14T13:34:04Z</time>
      </trkpt>
      <trkpt lat="44.71465" lon="3.74508">
        <ele>1059.03</ele>
        <time>2025-07-14T13:34:17Z</time>
      </trkpt>
      <trkpt lat="44.71464" lon="3.74514">
        <ele>1057.59</ele>
        <time>2025-07-14T13:34:34Z</time>
      </trkpt>
      <trkpt lat="44.71464" lon="3.74516">
        <ele>1058.55</ele>
        <time>2025-07-14T13:34:47Z</time>
      </trkpt>
      <trkpt lat="44.71463" lon="3.7452">
        <ele>1059.51</ele>
        <time>2025-07-14T13:35:03Z</time>
      </trkpt>
      <trkpt lat="44.71463" lon="3.74523">
        <ele>1060.47</ele>
        <time>2025-07-14T13:35:20Z</time>
      </trkpt>
      <trkpt lat="44.71462" lon="3.74525">
        <ele>1060.47</ele>
        <time>2025-07-14T13:35:24Z</time>
      </trkpt>
      <trkpt lat="44.7146" lon="3.74534">
        <ele>1060.47</ele>
        <time>2025-07-14T13:35:30Z</time>
      </trkpt>
      <trkpt lat="44.71465" lon="3.74549">
        <ele>1060.95</ele>
        <time>2025-07-14T13:35:44Z</time>
      </trkpt>
      <trkpt lat="44.7147" lon="3.74549">
        <ele>1061.43</ele>
        <time>2025-07-14T13:35:48Z</time>
      </trkpt>
      <trkpt lat="44.71482" lon="3.74548">
        <ele>1061.91</ele>
        <time>2025-07-14T13:35:58Z</time>
      </trkpt>
      <trkpt lat="44.71484" lon="3.74549">
        <ele>1063.36</ele>
        <time>2025-07-14T13:36:15Z</time>
      </trkpt>
      <trkpt lat="44.71483" lon="3.74551">
        <ele>1063.36</ele>
        <time>2025-07-14T13:36:33Z</time>
      </trkpt>
      <trkpt lat="44.71479" lon="3.7455">
        <ele>1061.43</ele>
        <time>2025-07-14T13:36:59Z</time>
      </trkpt>
      <trkpt lat="44.71482" lon="3.74551">
        <ele>1060.47</ele>
        <time>2025-07-14T13:37:14Z</time>
      </trkpt>
      <trkpt lat="44.71482" lon="3.7455">
        <ele>1062.39</ele>
        <time>2025-07-14T13:37:38Z</time>
      </trkpt>
      <trkpt lat="44.71489" lon="3.74553">
        <ele>1061.91</ele>
        <time>2025-07-14T13:37:53Z</time>
      </trkpt>
      <trkpt lat="44.71512" lon="3.74561">
        <ele>1062.87</ele>
        <time>2025-07-14T13:38:14Z</time>
      </trkpt>
      <trkpt lat="44.71515" lon="3.7456">
        <ele>1064.32</ele>
        <time>2025-07-14T13:38:28Z</time>
      </trkpt>
      <trkpt lat="44.71521" lon="3.7456">
        <ele>1064.8</ele>
        <time>2025-07-14T13:38:43Z</time>
      </trkpt>
      <trkpt lat="44.71532" lon="3.74563">
        <ele>1065.28</ele>
        <time>2025-07-14T13:38:56Z</time>
      </trkpt>
      <trkpt lat="44.71536" lon="3.7457">
        <ele>1064.8</ele>
        <time>2025-07-14T13:39:04Z</time>
      </trkpt>
      <trkpt lat="44.71545" lon="3.74595">
        <ele>1066.24</ele>
        <time>2025-07-14T13:39:20Z</time>
      </trkpt>
      <trkpt lat="44.71552" lon="3.74609">
        <ele>1067.2</ele>
        <time>2025-07-14T13:39:31Z</time>
      </trkpt>
      <trkpt lat="44.71555" lon="3.74608">
        <ele>1067.68</ele>
        <time>2025-07-14T13:39:36Z</time>
      </trkpt>
      <trkpt lat="44.71581" lon="3.74594">
        <ele>1070.08</ele>
        <time>2025-07-14T13:39:55Z</time>
      </trkpt>
      <trkpt lat="44.71599" lon="3.74578">
        <ele>1071.05</ele>
        <time>2025-07-14T13:40:11Z</time>
      </trkpt>
      <trkpt lat="44.71615" lon="3.74562">
        <ele>1072.01</ele>
        <time>2025-07-14T13:40:26Z</time>
      </trkpt>
      <trkpt lat="44.71636" lon="3.74548">
        <ele>1073.45</ele>
        <time>2025-07-14T13:40:42Z</time>
      </trkpt>
      <trkpt lat="44.71656" lon="3.74534">
        <ele>1073.45</ele>
        <time>2025-07-14T13:40:58Z</time>
      </trkpt>
      <trkpt lat="44.71677" lon="3.74516">
        <ele>1074.41</ele>
        <time>2025-07-14T13:41:15Z</time>
      </trkpt>
      <trkpt lat="44.71695" lon="3.74503">
        <ele>1074.89</ele>
        <time>2025-07-14T13:41:31Z</time>
      </trkpt>
      <trkpt lat="44.71714" lon="3.74491">
        <ele>1075.85</ele>
        <time>2025-07-14T13:41:47Z</time>
      </trkpt>
      <trkpt lat="44.71731" lon="3.74477">
        <ele>1078.74</ele>
        <time>2025-07-14T13:42:02Z</time>
      </trkpt>
      <trkpt lat="44.7175" lon="3.74468">
        <ele>1081.14</ele>
        <time>2025-07-14T13:42:17Z</time>
      </trkpt>
      <trkpt lat="44.71751" lon="3.7447">
        <ele>1081.62</ele>
        <time>2025-07-14T13:42:19Z</time>
      </trkpt>
      <trkpt lat="44.71743" lon="3.74495">
        <ele>1083.54</ele>
        <time>2025-07-14T13:42:33Z</time>
      </trkpt>
      <trkpt lat="44.71729" lon="3.74521">
        <ele>1082.58</ele>
        <time>2025-07-14T13:42:50Z</time>
      </trkpt>
      <trkpt lat="44.71715" lon="3.74552">
        <ele>1084.02</ele>
        <time>2025-07-14T13:43:09Z</time>
      </trkpt>
      <trkpt lat="44.71702" lon="3.74583">
        <ele>1088.35</ele>
        <time>2025-07-14T13:43:28Z</time>
      </trkpt>
      <trkpt lat="44.71692" lon="3.74612">
        <ele>1090.75</ele>
        <time>2025-07-14T13:43:44Z</time>
      </trkpt>
      <trkpt lat="44.71682" lon="3.74643">
        <ele>1093.16</ele>
        <time>2025-07-14T13:44:00Z</time>
      </trkpt>
      <trkpt lat="44.71679" lon="3.74674">
        <ele>1096.04</ele>
        <time>2025-07-14T13:44:17Z</time>
      </trkpt>
      <trkpt lat="44.71672" lon="3.74712">
        <ele>1098.44</ele>
        <time>2025-07-14T13:44:38Z</time>
      </trkpt>
      <trkpt lat="44.71661" lon="3.74745">
        <ele>1100.85</ele>
        <time>2025-07-14T13:44:57Z</time>
      </trkpt>
      <trkpt lat="44.71645" lon="3.74779">
        <ele>1101.81</ele>
        <time>2025-07-14T13:45:18Z</time>
      </trkpt>
      <trkpt lat="44.71628" lon="3.74805">
        <ele>1103.25</ele>
        <time>2025-07-14T13:45:35Z</time>
      </trkpt>
      <trkpt lat="44.71617" lon="3.74836">
        <ele>1105.65</ele>
        <time>2025-07-14T13:45:54Z</time>
      </trkpt>
      <trkpt lat="44.7161" lon="3.74874">
        <ele>1106.61</ele>
        <time>2025-07-14T13:46:15Z</time>
      </trkpt>
      <trkpt lat="44.71605" lon="3.7491">
        <ele>1108.06</ele>
        <time>2025-07-14T13:46:34Z</time>
      </trkpt>
      <trkpt lat="44.716" lon="3.74944">
        <ele>1109.5</ele>
        <time>2025-07-14T13:46:52Z</time>
      </trkpt>
      <trkpt lat="44.71595" lon="3.74975">
        <ele>1110.46</ele>
        <time>2025-07-14T13:47:08Z</time>
      </trkpt>
      <trkpt lat="44.71589" lon="3.75011">
        <ele>1111.42</ele>
        <time>2025-07-14T13:47:27Z</time>
      </trkpt>
      <trkpt lat="44.71587" lon="3.75046">
        <ele>1112.86</ele>
        <time>2025-07-14T13:47:45Z</time>
      </trkpt>
      <trkpt lat="44.71588" lon="3.75075">
        <ele>1113.34</ele>
        <time>2025-07-14T13:47:59Z</time>
      </trkpt>
      <trkpt lat="44.71587" lon="3.75111">
        <ele>1112.86</ele>
        <time>2025-07-14T13:48:17Z</time>
      </trkpt>
      <trkpt lat="44.71586" lon="3.75148">
        <ele>1114.31</ele>
        <time>2025-07-14T13:48:35Z</time>
      </trkpt>
      <trkpt lat="44.71586" lon="3.7519">
        <ele>1115.27</ele>
        <time>2025-07-14T13:48:56Z</time>
      </trkpt>
      <trkpt lat="44.71587" lon="3.75227">
        <ele>1115.27</ele>
        <time>2025-07-14T13:49:15Z</time>
      </trkpt>
      <trkpt lat="44.71591" lon="3.75263">
        <ele>1114.31</ele>
        <time>2025-07-14T13:49:34Z</time>
      </trkpt>
      <trkpt lat="44.71599" lon="3.75294">
        <ele>1113.34</ele>
        <time>2025-07-14T13:49:51Z</time>
      </trkpt>
      <trkpt lat="44.7161" lon="3.75327">
        <ele>1112.86</ele>
        <time>2025-07-14T13:50:09Z</time>
      </trkpt>
      <trkpt lat="44.71622" lon="3.75358">
        <ele>1112.86</ele>
        <time>2025-07-14T13:50:26Z</time>
      </trkpt>
      <trkpt lat="44.71636" lon="3.75405">
        <ele>1113.34</ele>
        <time>2025-07-14T13:50:49Z</time>
      </trkpt>
      <trkpt lat="44.71652" lon="3.75452">
        <ele>1112.38</ele>
        <time>2025-07-14T13:51:14Z</time>
      </trkpt>
      <trkpt lat="44.71659" lon="3.75482">
        <ele>1113.34</ele>
        <time>2025-07-14T13:51:30Z</time>
      </trkpt>
      <trkpt lat="44.71662" lon="3.75514">
        <ele>1113.82</ele>
        <time>2025-07-14T13:51:48Z</time>
      </trkpt>
      <trkpt lat="44.71669" lon="3.75548">
        <ele>1113.34</ele>
        <time>2025-07-14T13:52:05Z</time>
      </trkpt>
      <trkpt lat="44.71672" lon="3.7558">
        <ele>1111.42</ele>
        <time>2025-07-14T13:52:21Z</time>
      </trkpt>
      <trkpt lat="44.71671" lon="3.7561">
        <ele>1109.5</ele>
        <time>2025-07-14T13:52:37Z</time>
      </trkpt>
      <trkpt lat="44.71681" lon="3.75642">
        <ele>1106.61</ele>
        <time>2025-07-14T13:52:55Z</time>
      </trkpt>
      <trkpt lat="44.71693" lon="3.75671">
        <ele>1103.25</ele>
        <time>2025-07-14T13:53:12Z</time>
      </trkpt>
      <trkpt lat="44.71701" lon="3.75703">
        <ele>1103.73</ele>
        <time>2025-07-14T13:53:30Z</time>
      </trkpt>
      <trkpt lat="44.71706" lon="3.75734">
        <ele>1098.92</ele>
        <time>2025-07-14T13:53:48Z</time>
      </trkpt>
      <trkpt lat="44.71711" lon="3.75761">
        <ele>1098.44</ele>
        <time>2025-07-14T13:54:03Z</time>
      </trkpt>
      <trkpt lat="44.71711" lon="3.75793">
        <ele>1097</ele>
        <time>2025-07-14T13:54:19Z</time>
      </trkpt>
      <trkpt lat="44.71711" lon="3.75809">
        <ele>1096.04</ele>
        <time>2025-07-14T13:54:28Z</time>
      </trkpt>
      <trkpt lat="44.71714" lon="3.75838">
        <ele>1094.6</ele>
        <time>2025-07-14T13:54:43Z</time>
      </trkpt>
      <trkpt lat="44.71718" lon="3.75863">
        <ele>1091.71</ele>
        <time>2025-07-14T13:54:56Z</time>
      </trkpt>
      <trkpt lat="44.71722" lon="3.759">
        <ele>1091.71</ele>
        <time>2025-07-14T13:55:13Z</time>
      </trkpt>
      <trkpt lat="44.71733" lon="3.75925">
        <ele>1090.27</ele>
        <time>2025-07-14T13:55:28Z</time>
      </trkpt>
      <trkpt lat="44.71748" lon="3.75953">
        <ele>1088.83</ele>
        <time>2025-07-14T13:55:44Z</time>
      </trkpt>
      <trkpt lat="44.71766" lon="3.75982">
        <ele>1089.31</ele>
        <time>2025-07-14T13:56:02Z</time>
      </trkpt>
      <trkpt lat="44.71786" lon="3.76006">
        <ele>1086.91</ele>
        <time>2025-07-14T13:56:20Z</time>
      </trkpt>
      <trkpt lat="44.71806" lon="3.76022">
        <ele>1086.43</ele>
        <time>2025-07-14T13:56:35Z</time>
      </trkpt>
      <trkpt lat="44.71825" lon="3.76042">
        <ele>1086.43</ele>
        <time>2025-07-14T13:56:51Z</time>
      </trkpt>
      <trkpt lat="44.71834" lon="3.76077">
        <ele>1083.06</ele>
        <time>2025-07-14T13:57:07Z</time>
      </trkpt>
      <trkpt lat="44.7184" lon="3.76105">
        <ele>1081.14</ele>
        <time>2025-07-14T13:57:20Z</time>
      </trkpt>
      <trkpt lat="44.71845" lon="3.76119">
        <ele>1078.74</ele>
        <time>2025-07-14T13:57:27Z</time>
      </trkpt>
      <trkpt lat="44.71868" lon="3.76139">
        <ele>1076.33</ele>
        <time>2025-07-14T13:57:42Z</time>
      </trkpt>
      <trkpt lat="44.7189" lon="3.76159">
        <ele>1075.37</ele>
        <time>2025-07-14T13:57:58Z</time>
      </trkpt>
      <trkpt lat="44.71913" lon="3.76177">
        <ele>1075.37</ele>
        <time>2025-07-14T13:58:16Z</time>
      </trkpt>
      <trkpt lat="44.7194" lon="3.76183">
        <ele>1074.89</ele>
        <time>2025-07-14T13:58:34Z</time>
      </trkpt>
      <trkpt lat="44.71949" lon="3.76183">
        <ele>1074.41</ele>
        <time>2025-07-14T13:58:45Z</time>
      </trkpt>
      <trkpt lat="44.7195" lon="3.76183">
        <ele>1074.41</ele>
        <time>2025-07-14T13:58:46Z</time>
      </trkpt>
      <trkpt lat="44.71955" lon="3.76186">
        <ele>1074.89</ele>
        <time>2025-07-14T13:58:52Z</time>
      </trkpt>
      <trkpt lat="44.71956" lon="3.76187">
        <ele>1074.89</ele>
        <time>2025-07-14T13:58:53Z</time>
      </trkpt>
      <trkpt lat="44.71958" lon="3.76188">
        <ele>1074.41</ele>
        <time>2025-07-14T13:58:54Z</time>
      </trkpt>
      <trkpt lat="44.71959" lon="3.76189">
        <ele>1074.41</ele>
        <time>2025-07-14T13:58:55Z</time>
      </trkpt>
      <trkpt lat="44.7196" lon="3.7619">
        <ele>1074.41</ele>
        <time>2025-07-14T13:58:56Z</time>
      </trkpt>
      <trkpt lat="44.71961" lon="3.76191">
        <ele>1074.41</ele>
        <time>2025-07-14T13:58:57Z</time>
      </trkpt>
      <trkpt lat="44.71962" lon="3.76191">
        <ele>1074.41</ele>
        <time>2025-07-14T13:58:58Z</time>
      </trkpt>
      <trkpt lat="44.71963" lon="3.76191">
        <ele>1074.41</ele>
        <time>2025-07-14T13:58:59Z</time>
      </trkpt>
      <trkpt lat="44.71974" lon="3.76198">
        <ele>1072.97</ele>
        <time>2025-07-14T13:59:12Z</time>
      </trkpt>
      <trkpt lat="44.7199" lon="3.76212">
        <ele>1073.45</ele>
        <time>2025-07-14T13:59:30Z</time>
      </trkpt>
      <trkpt lat="44.72002" lon="3.76231">
        <ele>1073.93</ele>
        <time>2025-07-14T13:59:45Z</time>
      </trkpt>
      <trkpt lat="44.72003" lon="3.76233">
        <ele>1073.93</ele>
        <time>2025-07-14T13:59:46Z</time>
      </trkpt>
      <trkpt lat="44.72021" lon="3.76257">
        <ele>1074.89</ele>
        <time>2025-07-14T14:00:04Z</time>
      </trkpt>
      <trkpt lat="44.72031" lon="3.7626">
        <ele>1073.93</ele>
        <time>2025-07-14T14:00:13Z</time>
      </trkpt>
      <trkpt lat="44.72045" lon="3.76269">
        <ele>1072.49</ele>
        <time>2025-07-14T14:00:27Z</time>
      </trkpt>
      <trkpt lat="44.72046" lon="3.76271">
        <ele>1072.49</ele>
        <time>2025-07-14T14:00:28Z</time>
      </trkpt>
      <trkpt lat="44.72071" lon="3.76301">
        <ele>1074.89</ele>
        <time>2025-07-14T14:00:48Z</time>
      </trkpt>
      <trkpt lat="44.72091" lon="3.76333">
        <ele>1077.78</ele>
        <time>2025-07-14T14:01:05Z</time>
      </trkpt>
      <trkpt lat="44.72102" lon="3.76353">
        <ele>1080.18</ele>
        <time>2025-07-14T14:01:18Z</time>
      </trkpt>
      <trkpt lat="44.72102" lon="3.76355">
        <ele>1080.18</ele>
        <time>2025-07-14T14:01:19Z</time>
      </trkpt>
      <trkpt lat="44.72102" lon="3.76356">
        <ele>1080.18</ele>
        <time>2025-07-14T14:01:20Z</time>
      </trkpt>
      <trkpt lat="44.72118" lon="3.76384">
        <ele>1081.14</ele>
        <time>2025-07-14T14:01:34Z</time>
      </trkpt>
      <trkpt lat="44.72123" lon="3.76414">
        <ele>1084.02</ele>
        <time>2025-07-14T14:01:46Z</time>
      </trkpt>
      <trkpt lat="44.72122" lon="3.76444">
        <ele>1084.99</ele>
        <time>2025-07-14T14:02:01Z</time>
      </trkpt>
      <trkpt lat="44.7212" lon="3.76475">
        <ele>1084.99</ele>
        <time>2025-07-14T14:02:18Z</time>
      </trkpt>
      <trkpt lat="44.72122" lon="3.76504">
        <ele>1084.02</ele>
        <time>2025-07-14T14:02:35Z</time>
      </trkpt>
      <trkpt lat="44.72125" lon="3.76535">
        <ele>1081.14</ele>
        <time>2025-07-14T14:02:50Z</time>
      </trkpt>
      <trkpt lat="44.7213" lon="3.76557">
        <ele>1080.18</ele>
        <time>2025-07-14T14:02:59Z</time>
      </trkpt>
      <trkpt lat="44.7213" lon="3.76586">
        <ele>1073.93</ele>
        <time>2025-07-14T14:03:13Z</time>
      </trkpt>
      <trkpt lat="44.72134" lon="3.76617">
        <ele>1076.33</ele>
        <time>2025-07-14T14:03:27Z</time>
      </trkpt>
      <trkpt lat="44.72134" lon="3.7662">
        <ele>1077.29</ele>
        <time>2025-07-14T14:03:28Z</time>
      </trkpt>
      <trkpt lat="44.72134" lon="3.76622">
        <ele>1077.78</ele>
        <time>2025-07-14T14:03:29Z</time>
      </trkpt>
      <trkpt lat="44.72138" lon="3.76635">
        <ele>1084.5</ele>
        <time>2025-07-14T14:03:37Z</time>
      </trkpt>
      <trkpt lat="44.72141" lon="3.76644">
        <ele>1087.39</ele>
        <time>2025-07-14T14:03:43Z</time>
      </trkpt>
      <trkpt lat="44.72142" lon="3.76646">
        <ele>1087.87</ele>
        <time>2025-07-14T14:03:44Z</time>
      </trkpt>
      <trkpt lat="44.72154" lon="3.76678">
        <ele>1092.2</ele>
        <time>2025-07-14T14:03:57Z</time>
      </trkpt>
      <trkpt lat="44.72158" lon="3.76698">
        <ele>1093.16</ele>
        <time>2025-07-14T14:04:05Z</time>
      </trkpt>
      <trkpt lat="44.72159" lon="3.767">
        <ele>1093.64</ele>
        <time>2025-07-14T14:04:06Z</time>
      </trkpt>
      <trkpt lat="44.7216" lon="3.76702">
        <ele>1094.12</ele>
        <time>2025-07-14T14:04:07Z</time>
      </trkpt>
      <trkpt lat="44.7216" lon="3.76704">
        <ele>1094.6</ele>
        <time>2025-07-14T14:04:08Z</time>
      </trkpt>
      <trkpt lat="44.72161" lon="3.76706">
        <ele>1095.08</ele>
        <time>2025-07-14T14:04:09Z</time>
      </trkpt>
      <trkpt lat="44.72162" lon="3.76707">
        <ele>1095.56</ele>
        <time>2025-07-14T14:04:10Z</time>
      </trkpt>
      <trkpt lat="44.72165" lon="3.76715">
        <ele>1096.52</ele>
        <time>2025-07-14T14:04:14Z</time>
      </trkpt>
      <trkpt lat="44.72166" lon="3.76717">
        <ele>1096.52</ele>
        <time>2025-07-14T14:04:15Z</time>
      </trkpt>
      <trkpt lat="44.72166" lon="3.76719">
        <ele>1096.52</ele>
        <time>2025-07-14T14:04:16Z</time>
      </trkpt>
      <trkpt lat="44.72166" lon="3.76721">
        <ele>1096.52</ele>
        <time>2025-07-14T14:04:17Z</time>
      </trkpt>
      <trkpt lat="44.72166" lon="3.76723">
        <ele>1096.52</ele>
        <time>2025-07-14T14:04:18Z</time>
      </trkpt>
      <trkpt lat="44.72167" lon="3.76725">
        <ele>1097</ele>
        <time>2025-07-14T14:04:19Z</time>
      </trkpt>
      <trkpt lat="44.72167" lon="3.76727">
        <ele>1097</ele>
        <time>2025-07-14T14:04:20Z</time>
      </trkpt>
      <trkpt lat="44.72168" lon="3.76729">
        <ele>1097</ele>
        <time>2025-07-14T14:04:21Z</time>
      </trkpt>
      <trkpt lat="44.72169" lon="3.76732">
        <ele>1097</ele>
        <time>2025-07-14T14:04:22Z</time>
      </trkpt>
      <trkpt lat="44.72169" lon="3.76734">
        <ele>1097</ele>
        <time>2025-07-14T14:04:23Z</time>
      </trkpt>
      <trkpt lat="44.72172" lon="3.76746">
        <ele>1097</ele>
        <time>2025-07-14T14:04:29Z</time>
      </trkpt>
      <trkpt lat="44.72174" lon="3.7675">
        <ele>1097.48</ele>
        <time>2025-07-14T14:04:32Z</time>
      </trkpt>
      <trkpt lat="44.72174" lon="3.76752">
        <ele>1097.48</ele>
        <time>2025-07-14T14:04:33Z</time>
      </trkpt>
      <trkpt lat="44.72184" lon="3.7678">
        <ele>1097.96</ele>
        <time>2025-07-14T14:04:47Z</time>
      </trkpt>
      <trkpt lat="44.72187" lon="3.76789">
        <ele>1098.92</ele>
        <time>2025-07-14T14:04:51Z</time>
      </trkpt>
      <trkpt lat="44.72187" lon="3.76791">
        <ele>1098.92</ele>
        <time>2025-07-14T14:04:52Z</time>
      </trkpt>
      <trkpt lat="44.72187" lon="3.76794">
        <ele>1098.92</ele>
        <time>2025-07-14T14:04:53Z</time>
      </trkpt>
      <trkpt lat="44.72188" lon="3.76796">
        <ele>1099.4</ele>
        <time>2025-07-14T14:04:54Z</time>
      </trkpt>
      <trkpt lat="44.72189" lon="3.76798">
        <ele>1099.4</ele>
        <time>2025-07-14T14:04:55Z</time>
      </trkpt>
      <trkpt lat="44.72189" lon="3.768">
        <ele>1099.4</ele>
        <time>2025-07-14T14:04:56Z</time>
      </trkpt>
      <trkpt lat="44.7219" lon="3.76802">
        <ele>1099.4</ele>
        <time>2025-07-14T14:04:57Z</time>
      </trkpt>
      <trkpt lat="44.7219" lon="3.76803">
        <ele>1099.89</ele>
        <time>2025-07-14T14:04:58Z</time>
      </trkpt>
      <trkpt lat="44.72191" lon="3.76811">
        <ele>1098.92</ele>
        <time>2025-07-14T14:05:02Z</time>
      </trkpt>
      <trkpt lat="44.72191" lon="3.76816">
        <ele>1098.92</ele>
        <time>2025-07-14T14:05:05Z</time>
      </trkpt>
      <trkpt lat="44.72193" lon="3.7682">
        <ele>1099.4</ele>
        <time>2025-07-14T14:05:07Z</time>
      </trkpt>
      <trkpt lat="44.72196" lon="3.76848">
        <ele>1099.4</ele>
        <time>2025-07-14T14:05:22Z</time>
      </trkpt>
      <trkpt lat="44.72196" lon="3.7685">
        <ele>1098.92</ele>
        <time>2025-07-14T14:05:23Z</time>
      </trkpt>
      <trkpt lat="44.72197" lon="3.76852">
        <ele>1098.92</ele>
        <time>2025-07-14T14:05:24Z</time>
      </trkpt>
      <trkpt lat="44.72197" lon="3.76854">
        <ele>1098.92</ele>
        <time>2025-07-14T14:05:25Z</time>
      </trkpt>
      <trkpt lat="44.72197" lon="3.76857">
        <ele>1098.92</ele>
        <time>2025-07-14T14:05:26Z</time>
      </trkpt>
      <trkpt lat="44.72198" lon="3.76859">
        <ele>1098.92</ele>
        <time>2025-07-14T14:05:27Z</time>
      </trkpt>
      <trkpt lat="44.72198" lon="3.7686">
        <ele>1099.4</ele>
        <time>2025-07-14T14:05:28Z</time>
      </trkpt>
      <trkpt lat="44.72198" lon="3.76863">
        <ele>1099.4</ele>
        <time>2025-07-14T14:05:29Z</time>
      </trkpt>
      <trkpt lat="44.72199" lon="3.76865">
        <ele>1099.4</ele>
        <time>2025-07-14T14:05:30Z</time>
      </trkpt>
      <trkpt lat="44.722" lon="3.76868">
        <ele>1099.89</ele>
        <time>2025-07-14T14:05:31Z</time>
      </trkpt>
      <trkpt lat="44.72201" lon="3.7687">
        <ele>1099.89</ele>
        <time>2025-07-14T14:05:32Z</time>
      </trkpt>
      <trkpt lat="44.72202" lon="3.76872">
        <ele>1099.89</ele>
        <time>2025-07-14T14:05:33Z</time>
      </trkpt>
      <trkpt lat="44.72203" lon="3.76874">
        <ele>1100.37</ele>
        <time>2025-07-14T14:05:34Z</time>
      </trkpt>
      <trkpt lat="44.72204" lon="3.76876">
        <ele>1099.89</ele>
        <time>2025-07-14T14:05:35Z</time>
      </trkpt>
      <trkpt lat="44.72205" lon="3.76878">
        <ele>1099.89</ele>
        <time>2025-07-14T14:05:36Z</time>
      </trkpt>
      <trkpt lat="44.72206" lon="3.7688">
        <ele>1099.89</ele>
        <time>2025-07-14T14:05:37Z</time>
      </trkpt>
      <trkpt lat="44.72207" lon="3.76883">
        <ele>1099.4</ele>
        <time>2025-07-14T14:05:38Z</time>
      </trkpt>
      <trkpt lat="44.7222" lon="3.76911">
        <ele>1098.44</ele>
        <time>2025-07-14T14:05:53Z</time>
      </trkpt>
      <trkpt lat="44.72221" lon="3.76913">
        <ele>1098.44</ele>
        <time>2025-07-14T14:05:54Z</time>
      </trkpt>
      <trkpt lat="44.72221" lon="3.76915">
        <ele>1097.96</ele>
        <time>2025-07-14T14:05:55Z</time>
      </trkpt>
      <trkpt lat="44.72222" lon="3.76919">
        <ele>1097.96</ele>
        <time>2025-07-14T14:05:57Z</time>
      </trkpt>
      <trkpt lat="44.72223" lon="3.76921">
        <ele>1097.96</ele>
        <time>2025-07-14T14:05:58Z</time>
      </trkpt>
      <trkpt lat="44.72224" lon="3.76923">
        <ele>1097.96</ele>
        <time>2025-07-14T14:05:59Z</time>
      </trkpt>
      <trkpt lat="44.72225" lon="3.76925">
        <ele>1097.96</ele>
        <time>2025-07-14T14:06:00Z</time>
      </trkpt>
      <trkpt lat="44.72226" lon="3.76927">
        <ele>1097.48</ele>
        <time>2025-07-14T14:06:01Z</time>
      </trkpt>
      <trkpt lat="44.72227" lon="3.76929">
        <ele>1097.48</ele>
        <time>2025-07-14T14:06:02Z</time>
      </trkpt>
      <trkpt lat="44.72243" lon="3.76957">
        <ele>1096.52</ele>
        <time>2025-07-14T14:06:16Z</time>
      </trkpt>
      <trkpt lat="44.72256" lon="3.76978">
        <ele>1096.52</ele>
        <time>2025-07-14T14:06:29Z</time>
      </trkpt>
      <trkpt lat="44.72264" lon="3.77008">
        <ele>1094.6</ele>
        <time>2025-07-14T14:06:45Z</time>
      </trkpt>
      <trkpt lat="44.72269" lon="3.77019">
        <ele>1093.16</ele>
        <time>2025-07-14T14:06:52Z</time>
      </trkpt>
      <trkpt lat="44.7227" lon="3.77023">
        <ele>1093.64</ele>
        <time>2025-07-14T14:06:54Z</time>
      </trkpt>
      <trkpt lat="44.72271" lon="3.77025">
        <ele>1093.16</ele>
        <time>2025-07-14T14:06:55Z</time>
      </trkpt>
      <trkpt lat="44.72285" lon="3.77053">
        <ele>1092.2</ele>
        <time>2025-07-14T14:07:09Z</time>
      </trkpt>
      <trkpt lat="44.72298" lon="3.77073">
        <ele>1093.16</ele>
        <time>2025-07-14T14:07:21Z</time>
      </trkpt>
      <trkpt lat="44.72302" lon="3.77082">
        <ele>1093.64</ele>
        <time>2025-07-14T14:07:25Z</time>
      </trkpt>
      <trkpt lat="44.72303" lon="3.77083">
        <ele>1093.16</ele>
        <time>2025-07-14T14:07:26Z</time>
      </trkpt>
      <trkpt lat="44.72304" lon="3.77085">
        <ele>1093.16</ele>
        <time>2025-07-14T14:07:27Z</time>
      </trkpt>
      <trkpt lat="44.72314" lon="3.771">
        <ele>1092.2</ele>
        <time>2025-07-14T14:07:39Z</time>
      </trkpt>
      <trkpt lat="44.72327" lon="3.77131">
        <ele>1092.68</ele>
        <time>2025-07-14T14:07:54Z</time>
      </trkpt>
      <trkpt lat="44.72336" lon="3.77158">
        <ele>1090.75</ele>
        <time>2025-07-14T14:08:07Z</time>
      </trkpt>
      <trkpt lat="44.7234" lon="3.77163">
        <ele>1089.31</ele>
        <time>2025-07-14T14:08:11Z</time>
      </trkpt>
      <trkpt lat="44.72352" lon="3.77179">
        <ele>1086.91</ele>
        <time>2025-07-14T14:08:22Z</time>
      </trkpt>
      <trkpt lat="44.72352" lon="3.77182">
        <ele>1086.43</ele>
        <time>2025-07-14T14:08:23Z</time>
      </trkpt>
      <trkpt lat="44.72352" lon="3.77184">
        <ele>1086.43</ele>
        <time>2025-07-14T14:08:24Z</time>
      </trkpt>
      <trkpt lat="44.72353" lon="3.77187">
        <ele>1085.95</ele>
        <time>2025-07-14T14:08:25Z</time>
      </trkpt>
      <trkpt lat="44.72353" lon="3.7719">
        <ele>1085.95</ele>
        <time>2025-07-14T14:08:26Z</time>
      </trkpt>
      <trkpt lat="44.72353" lon="3.77192">
        <ele>1085.47</ele>
        <time>2025-07-14T14:08:27Z</time>
      </trkpt>
      <trkpt lat="44.72353" lon="3.77194">
        <ele>1084.99</ele>
        <time>2025-07-14T14:08:28Z</time>
      </trkpt>
      <trkpt lat="44.72354" lon="3.77234">
        <ele>1081.62</ele>
        <time>2025-07-14T14:08:45Z</time>
      </trkpt>
      <trkpt lat="44.72357" lon="3.77244">
        <ele>1080.66</ele>
        <time>2025-07-14T14:08:50Z</time>
      </trkpt>
      <trkpt lat="44.72358" lon="3.77246">
        <ele>1080.18</ele>
        <time>2025-07-14T14:08:51Z</time>
      </trkpt>
      <trkpt lat="44.72366" lon="3.7727">
        <ele>1078.26</ele>
        <time>2025-07-14T14:09:05Z</time>
      </trkpt>
      <trkpt lat="44.72367" lon="3.77272">
        <ele>1078.26</ele>
        <time>2025-07-14T14:09:06Z</time>
      </trkpt>
      <trkpt lat="44.72373" lon="3.77282">
        <ele>1077.29</ele>
        <time>2025-07-14T14:09:13Z</time>
      </trkpt>
      <trkpt lat="44.72383" lon="3.77313">
        <ele>1072.49</ele>
        <time>2025-07-14T14:09:29Z</time>
      </trkpt>
      <trkpt lat="44.72384" lon="3.7732">
        <ele>1072.01</ele>
        <time>2025-07-14T14:09:32Z</time>
      </trkpt>
      <trkpt lat="44.72384" lon="3.77322">
        <ele>1071.53</ele>
        <time>2025-07-14T14:09:33Z</time>
      </trkpt>
      <trkpt lat="44.72384" lon="3.77324">
        <ele>1071.53</ele>
        <time>2025-07-14T14:09:34Z</time>
      </trkpt>
      <trkpt lat="44.72384" lon="3.77326">
        <ele>1071.05</ele>
        <time>2025-07-14T14:09:35Z</time>
      </trkpt>
      <trkpt lat="44.72384" lon="3.77328">
        <ele>1070.57</ele>
        <time>2025-07-14T14:09:36Z</time>
      </trkpt>
      <trkpt lat="44.72385" lon="3.77336">
        <ele>1070.57</ele>
        <time>2025-07-14T14:09:40Z</time>
      </trkpt>
      <trkpt lat="44.72386" lon="3.77338">
        <ele>1070.08</ele>
        <time>2025-07-14T14:09:41Z</time>
      </trkpt>
      <trkpt lat="44.72386" lon="3.7734">
        <ele>1070.08</ele>
        <time>2025-07-14T14:09:42Z</time>
      </trkpt>
      <trkpt lat="44.72386" lon="3.77342">
        <ele>1070.08</ele>
        <time>2025-07-14T14:09:43Z</time>
      </trkpt>
      <trkpt lat="44.72386" lon="3.77345">
        <ele>1069.6</ele>
        <time>2025-07-14T14:09:45Z</time>
      </trkpt>
      <trkpt lat="44.72387" lon="3.77361">
        <ele>1069.12</ele>
        <time>2025-07-14T14:09:53Z</time>
      </trkpt>
      <trkpt lat="44.7239" lon="3.77398">
        <ele>1066.24</ele>
        <time>2025-07-14T14:10:08Z</time>
      </trkpt>
      <trkpt lat="44.72397" lon="3.77441">
        <ele>1063.36</ele>
        <time>2025-07-14T14:10:27Z</time>
      </trkpt>
      <trkpt lat="44.72403" lon="3.77465">
        <ele>1063.36</ele>
        <time>2025-07-14T14:10:37Z</time>
      </trkpt>
      <trkpt lat="44.72403" lon="3.77467">
        <ele>1063.36</ele>
        <time>2025-07-14T14:10:38Z</time>
      </trkpt>
      <trkpt lat="44.72404" lon="3.77469">
        <ele>1063.84</ele>
        <time>2025-07-14T14:10:39Z</time>
      </trkpt>
      <trkpt lat="44.72405" lon="3.77471">
        <ele>1063.84</ele>
        <time>2025-07-14T14:10:40Z</time>
      </trkpt>
      <trkpt lat="44.72406" lon="3.77472">
        <ele>1064.32</ele>
        <time>2025-07-14T14:10:41Z</time>
      </trkpt>
      <trkpt lat="44.72407" lon="3.77474">
        <ele>1064.32</ele>
        <time>2025-07-14T14:10:42Z</time>
      </trkpt>
      <trkpt lat="44.72409" lon="3.77476">
        <ele>1064.32</ele>
        <time>2025-07-14T14:10:43Z</time>
      </trkpt>
      <trkpt lat="44.72418" lon="3.77513">
        <ele>1064.8</ele>
        <time>2025-07-14T14:10:59Z</time>
      </trkpt>
      <trkpt lat="44.72422" lon="3.77544">
        <ele>1064.8</ele>
        <time>2025-07-14T14:11:14Z</time>
      </trkpt>
      <trkpt lat="44.72418" lon="3.77584">
        <ele>1060.95</ele>
        <time>2025-07-14T14:11:32Z</time>
      </trkpt>
      <trkpt lat="44.72426" lon="3.77622">
        <ele>1059.51</ele>
        <time>2025-07-14T14:11:50Z</time>
      </trkpt>
      <trkpt lat="44.72441" lon="3.7766">
        <ele>1058.55</ele>
        <time>2025-07-14T14:12:09Z</time>
      </trkpt>
      <trkpt lat="44.72458" lon="3.77691">
        <ele>1058.55</ele>
        <time>2025-07-14T14:12:27Z</time>
      </trkpt>
      <trkpt lat="44.72478" lon="3.77713">
        <ele>1058.55</ele>
        <time>2025-07-14T14:12:46Z</time>
      </trkpt>
      <trkpt lat="44.72503" lon="3.77718">
        <ele>1060.47</ele>
        <time>2025-07-14T14:13:04Z</time>
      </trkpt>
      <trkpt lat="44.72517" lon="3.77752">
        <ele>1060.47</ele>
        <time>2025-07-14T14:13:23Z</time>
      </trkpt>
      <trkpt lat="44.72522" lon="3.77791">
        <ele>1060.47</ele>
        <time>2025-07-14T14:13:41Z</time>
      </trkpt>
      <trkpt lat="44.72539" lon="3.77827">
        <ele>1062.39</ele>
        <time>2025-07-14T14:14:00Z</time>
      </trkpt>
      <trkpt lat="44.72561" lon="3.77848">
        <ele>1062.87</ele>
        <time>2025-07-14T14:14:17Z</time>
      </trkpt>
      <trkpt lat="44.7258" lon="3.77866">
        <ele>1061.91</ele>
        <time>2025-07-14T14:14:33Z</time>
      </trkpt>
      <trkpt lat="44.72606" lon="3.77894">
        <ele>1062.87</ele>
        <time>2025-07-14T14:14:54Z</time>
      </trkpt>
      <trkpt lat="44.72627" lon="3.77914">
        <ele>1062.87</ele>
        <time>2025-07-14T14:15:13Z</time>
      </trkpt>
      <trkpt lat="44.72651" lon="3.77932">
        <ele>1062.87</ele>
        <time>2025-07-14T14:15:32Z</time>
      </trkpt>
      <trkpt lat="44.72678" lon="3.77948">
        <ele>1063.36</ele>
        <time>2025-07-14T14:15:50Z</time>
      </trkpt>
      <trkpt lat="44.72704" lon="3.77973">
        <ele>1064.32</ele>
        <time>2025-07-14T14:16:10Z</time>
      </trkpt>
      <trkpt lat="44.72725" lon="3.78">
        <ele>1063.84</ele>
        <time>2025-07-14T14:16:28Z</time>
      </trkpt>
      <trkpt lat="44.72748" lon="3.78023">
        <ele>1061.91</ele>
        <time>2025-07-14T14:16:46Z</time>
      </trkpt>
      <trkpt lat="44.72764" lon="3.78052">
        <ele>1063.84</ele>
        <time>2025-07-14T14:17:03Z</time>
      </trkpt>
      <trkpt lat="44.72781" lon="3.78093">
        <ele>1063.36</ele>
        <time>2025-07-14T14:17:25Z</time>
      </trkpt>
      <trkpt lat="44.728" lon="3.78127">
        <ele>1062.87</ele>
        <time>2025-07-14T14:17:46Z</time>
      </trkpt>
      <trkpt lat="44.72828" lon="3.78157">
        <ele>1062.39</ele>
        <time>2025-07-14T14:18:08Z</time>
      </trkpt>
      <trkpt lat="44.72854" lon="3.78192">
        <ele>1059.99</ele>
        <time>2025-07-14T14:18:29Z</time>
      </trkpt>
      <trkpt lat="44.72872" lon="3.78224">
        <ele>1058.07</ele>
        <time>2025-07-14T14:18:48Z</time>
      </trkpt>
      <trkpt lat="44.72894" lon="3.7826">
        <ele>1059.03</ele>
        <time>2025-07-14T14:19:09Z</time>
      </trkpt>
      <trkpt lat="44.72913" lon="3.78299">
        <ele>1059.51</ele>
        <time>2025-07-14T14:19:29Z</time>
      </trkpt>
      <trkpt lat="44.7293" lon="3.78334">
        <ele>1059.03</ele>
        <time>2025-07-14T14:19:47Z</time>
      </trkpt>
      <trkpt lat="44.7295" lon="3.78367">
        <ele>1058.07</ele>
        <time>2025-07-14T14:20:06Z</time>
      </trkpt>
      <trkpt lat="44.72962" lon="3.78405">
        <ele>1056.15</ele>
        <time>2025-07-14T14:20:25Z</time>
      </trkpt>
      <trkpt lat="44.72967" lon="3.78451">
        <ele>1054.22</ele>
        <time>2025-07-14T14:20:46Z</time>
      </trkpt>
      <trkpt lat="44.72968" lon="3.78488">
        <ele>1055.18</ele>
        <time>2025-07-14T14:21:04Z</time>
      </trkpt>
      <trkpt lat="44.7297" lon="3.78528">
        <ele>1055.18</ele>
        <time>2025-07-14T14:21:22Z</time>
      </trkpt>
      <trkpt lat="44.72976" lon="3.78567">
        <ele>1055.18</ele>
        <time>2025-07-14T14:21:40Z</time>
      </trkpt>
      <trkpt lat="44.72991" lon="3.78597">
        <ele>1052.78</ele>
        <time>2025-07-14T14:21:56Z</time>
      </trkpt>
      <trkpt lat="44.73006" lon="3.78623">
        <ele>1051.82</ele>
        <time>2025-07-14T14:22:11Z</time>
      </trkpt>
      <trkpt lat="44.73015" lon="3.78647">
        <ele>1049.9</ele>
        <time>2025-07-14T14:22:24Z</time>
      </trkpt>
      <trkpt lat="44.73037" lon="3.78674">
        <ele>1049.9</ele>
        <time>2025-07-14T14:22:42Z</time>
      </trkpt>
      <trkpt lat="44.73055" lon="3.78692">
        <ele>1045.09</ele>
        <time>2025-07-14T14:22:56Z</time>
      </trkpt>
      <trkpt lat="44.73065" lon="3.78717">
        <ele>1043.17</ele>
        <time>2025-07-14T14:23:09Z</time>
      </trkpt>
      <trkpt lat="44.73066" lon="3.78716">
        <ele>1044.13</ele>
        <time>2025-07-14T14:23:20Z</time>
      </trkpt>
      <trkpt lat="44.73067" lon="3.78716">
        <ele>1047.01</ele>
        <time>2025-07-14T14:23:44Z</time>
      </trkpt>
      <trkpt lat="44.73068" lon="3.78716">
        <ele>1046.53</ele>
        <time>2025-07-14T14:23:58Z</time>
      </trkpt>
      <trkpt lat="44.73069" lon="3.78715">
        <ele>1046.05</ele>
        <time>2025-07-14T14:24:15Z</time>
      </trkpt>
      <trkpt lat="44.73068" lon="3.78715">
        <ele>1045.57</ele>
        <time>2025-07-14T14:24:30Z</time>
      </trkpt>
      <trkpt lat="44.73068" lon="3.78725">
        <ele>1044.61</ele>
        <time>2025-07-14T14:24:46Z</time>
      </trkpt>
      <trkpt lat="44.73073" lon="3.78753">
        <ele>1041.73</ele>
        <time>2025-07-14T14:25:01Z</time>
      </trkpt>
      <trkpt lat="44.73087" lon="3.78779">
        <ele>1038.36</ele>
        <time>2025-07-14T14:25:17Z</time>
      </trkpt>
      <trkpt lat="44.73096" lon="3.78809">
        <ele>1036.44</ele>
        <time>2025-07-14T14:25:32Z</time>
      </trkpt>
      <trkpt lat="44.73108" lon="3.78844">
        <ele>1034.52</ele>
        <time>2025-07-14T14:25:48Z</time>
      </trkpt>
      <trkpt lat="44.7312" lon="3.78834">
        <ele>1035</ele>
        <time>2025-07-14T14:26:00Z</time>
      </trkpt>
      <trkpt lat="44.73127" lon="3.78809">
        <ele>1036.44</ele>
        <time>2025-07-14T14:26:15Z</time>
      </trkpt>
      <trkpt lat="44.7313" lon="3.78793">
        <ele>1035.48</ele>
        <time>2025-07-14T14:26:28Z</time>
      </trkpt>
      <trkpt lat="44.73131" lon="3.7879">
        <ele>1035</ele>
        <time>2025-07-14T14:26:42Z</time>
      </trkpt>
      <trkpt lat="44.73132" lon="3.78778">
        <ele>1035</ele>
        <time>2025-07-14T14:27:00Z</time>
      </trkpt>
      <trkpt lat="44.73136" lon="3.78755">
        <ele>1033.55</ele>
        <time>2025-07-14T14:27:14Z</time>
      </trkpt>
      <trkpt lat="44.73141" lon="3.78729">
        <ele>1035</ele>
        <time>2025-07-14T14:27:29Z</time>
      </trkpt>
      <trkpt lat="44.73149" lon="3.78709">
        <ele>1037.4</ele>
        <time>2025-07-14T14:27:42Z</time>
      </trkpt>
      <trkpt lat="44.73156" lon="3.78674">
        <ele>1039.32</ele>
        <time>2025-07-14T14:27:58Z</time>
      </trkpt>
      <trkpt lat="44.73162" lon="3.78645">
        <ele>1039.32</ele>
        <time>2025-07-14T14:28:13Z</time>
      </trkpt>
      <trkpt lat="44.73166" lon="3.78611">
        <ele>1039.32</ele>
        <time>2025-07-14T14:28:29Z</time>
      </trkpt>
      <trkpt lat="44.73164" lon="3.78603">
        <ele>1040.76</ele>
        <time>2025-07-14T14:28:43Z</time>
      </trkpt>
      <trkpt lat="44.73162" lon="3.78604">
        <ele>1042.21</ele>
        <time>2025-07-14T14:29:01Z</time>
      </trkpt>
      <trkpt lat="44.73161" lon="3.78602">
        <ele>1042.21</ele>
        <time>2025-07-14T14:29:18Z</time>
      </trkpt>
      <trkpt lat="44.73163" lon="3.78605">
        <ele>1043.17</ele>
        <time>2025-07-14T14:29:37Z</time>
      </trkpt>
      <trkpt lat="44.73166" lon="3.78603">
        <ele>1043.65</ele>
        <time>2025-07-14T14:29:51Z</time>
      </trkpt>
      <trkpt lat="44.73165" lon="3.78602">
        <ele>1044.13</ele>
        <time>2025-07-14T14:30:05Z</time>
      </trkpt>
      <trkpt lat="44.73164" lon="3.786">
        <ele>1044.13</ele>
        <time>2025-07-14T14:30:21Z</time>
      </trkpt>
      <trkpt lat="44.73167" lon="3.78594">
        <ele>1044.61</ele>
        <time>2025-07-14T14:30:26Z</time>
      </trkpt>
      <trkpt lat="44.73173" lon="3.78573">
        <ele>1045.57</ele>
        <time>2025-07-14T14:30:39Z</time>
      </trkpt>
      <trkpt lat="44.73181" lon="3.78541">
        <ele>1044.13</ele>
        <time>2025-07-14T14:30:53Z</time>
      </trkpt>
      <trkpt lat="44.73183" lon="3.78514">
        <ele>1045.09</ele>
        <time>2025-07-14T14:31:05Z</time>
      </trkpt>
      <trkpt lat="44.73183" lon="3.78512">
        <ele>1045.09</ele>
        <time>2025-07-14T14:31:23Z</time>
      </trkpt>
      <trkpt lat="44.73183" lon="3.7851">
        <ele>1044.13</ele>
        <time>2025-07-14T14:31:42Z</time>
      </trkpt>
      <trkpt lat="44.73183" lon="3.78509">
        <ele>1044.13</ele>
        <time>2025-07-14T14:31:58Z</time>
      </trkpt>
      <trkpt lat="44.73186" lon="3.78509">
        <ele>1042.21</ele>
        <time>2025-07-14T14:32:12Z</time>
      </trkpt>
      <trkpt lat="44.73187" lon="3.78507">
        <ele>1043.17</ele>
        <time>2025-07-14T14:32:31Z</time>
      </trkpt>
      <trkpt lat="44.73187" lon="3.78508">
        <ele>1041.73</ele>
        <time>2025-07-14T14:32:59Z</time>
      </trkpt>
      <trkpt lat="44.73186" lon="3.78508">
        <ele>1041.25</ele>
        <time>2025-07-14T14:33:18Z</time>
      </trkpt>
      <trkpt lat="44.73186" lon="3.78507">
        <ele>1040.76</ele>
        <time>2025-07-14T14:33:34Z</time>
      </trkpt>
      <trkpt lat="44.73187" lon="3.78506">
        <ele>1038.36</ele>
        <time>2025-07-14T14:34:14Z</time>
      </trkpt>
      <trkpt lat="44.73186" lon="3.78508">
        <ele>1038.36</ele>
        <time>2025-07-14T14:34:44Z</time>
      </trkpt>
      <trkpt lat="44.73188" lon="3.78506">
        <ele>1039.8</ele>
        <time>2025-07-14T14:35:17Z</time>
      </trkpt>
      <trkpt lat="44.73186" lon="3.78509">
        <ele>1040.28</ele>
        <time>2025-07-14T14:35:50Z</time>
      </trkpt>
      <trkpt lat="44.73189" lon="3.78509">
        <ele>1041.73</ele>
        <time>2025-07-14T14:36:27Z</time>
      </trkpt>
      <trkpt lat="44.73191" lon="3.78509">
        <ele>1043.17</ele>
        <time>2025-07-14T14:36:52Z</time>
      </trkpt>
      <trkpt lat="44.73187" lon="3.78508">
        <ele>1040.76</ele>
        <time>2025-07-14T14:37:09Z</time>
      </trkpt>
      <trkpt lat="44.73185" lon="3.78498">
        <ele>1041.73</ele>
        <time>2025-07-14T14:37:28Z</time>
      </trkpt>
      <trkpt lat="44.73185" lon="3.78472">
        <ele>1045.57</ele>
        <time>2025-07-14T14:37:42Z</time>
      </trkpt>
      <trkpt lat="44.73188" lon="3.78461">
        <ele>1045.09</ele>
        <time>2025-07-14T14:37:49Z</time>
      </trkpt>
      <trkpt lat="44.73189" lon="3.7846">
        <ele>1045.09</ele>
        <time>2025-07-14T14:37:50Z</time>
      </trkpt>
      <trkpt lat="44.73191" lon="3.7846">
        <ele>1044.61</ele>
        <time>2025-07-14T14:37:51Z</time>
      </trkpt>
      <trkpt lat="44.73203" lon="3.78477">
        <ele>1043.17</ele>
        <time>2025-07-14T14:38:04Z</time>
      </trkpt>
      <trkpt lat="44.73217" lon="3.78503">
        <ele>1041.25</ele>
        <time>2025-07-14T14:38:21Z</time>
      </trkpt>
      <trkpt lat="44.73237" lon="3.78531">
        <ele>1037.88</ele>
        <time>2025-07-14T14:38:40Z</time>
      </trkpt>
      <trkpt lat="44.73256" lon="3.78546">
        <ele>1035.96</ele>
        <time>2025-07-14T14:38:58Z</time>
      </trkpt>
      <trkpt lat="44.73267" lon="3.78562">
        <ele>1034.52</ele>
        <time>2025-07-14T14:39:12Z</time>
      </trkpt>
      <trkpt lat="44.73293" lon="3.78585">
        <ele>1031.63</ele>
        <time>2025-07-14T14:39:32Z</time>
      </trkpt>
      <trkpt lat="44.7331" lon="3.78597">
        <ele>1032.11</ele>
        <time>2025-07-14T14:39:50Z</time>
      </trkpt>
      <trkpt lat="44.73321" lon="3.78604">
        <ele>1030.67</ele>
        <time>2025-07-14T14:40:01Z</time>
      </trkpt>
      <trkpt lat="44.73335" lon="3.78614">
        <ele>1027.79</ele>
        <time>2025-07-14T14:40:14Z</time>
      </trkpt>
      <trkpt lat="44.7334" lon="3.78614">
        <ele>1028.27</ele>
        <time>2025-07-14T14:40:31Z</time>
      </trkpt>
      <trkpt lat="44.73348" lon="3.78622">
        <ele>1027.31</ele>
        <time>2025-07-14T14:40:48Z</time>
      </trkpt>
      <trkpt lat="44.73358" lon="3.7864">
        <ele>1023.46</ele>
        <time>2025-07-14T14:41:04Z</time>
      </trkpt>
      <trkpt lat="44.73376" lon="3.78661">
        <ele>1023.94</ele>
        <time>2025-07-14T14:41:19Z</time>
      </trkpt>
      <trkpt lat="44.73393" lon="3.78677">
        <ele>1023.94</ele>
        <time>2025-07-14T14:41:32Z</time>
      </trkpt>
      <trkpt lat="44.73411" lon="3.78694">
        <ele>1023.94</ele>
        <time>2025-07-14T14:41:48Z</time>
      </trkpt>
      <trkpt lat="44.73433" lon="3.78702">
        <ele>1024.42</ele>
        <time>2025-07-14T14:42:06Z</time>
      </trkpt>
      <trkpt lat="44.73445" lon="3.78688">
        <ele>1022.5</ele>
        <time>2025-07-14T14:42:18Z</time>
      </trkpt>
      <trkpt lat="44.73446" lon="3.78686">
        <ele>1022.98</ele>
        <time>2025-07-14T14:42:19Z</time>
      </trkpt>
      <trkpt lat="44.73461" lon="3.78671">
        <ele>1023.46</ele>
        <time>2025-07-14T14:42:32Z</time>
      </trkpt>
      <trkpt lat="44.7348" lon="3.7865">
        <ele>1023.94</ele>
        <time>2025-07-14T14:42:48Z</time>
      </trkpt>
      <trkpt lat="44.73496" lon="3.78618">
        <ele>1022.5</ele>
        <time>2025-07-14T14:43:06Z</time>
      </trkpt>
      <trkpt lat="44.73512" lon="3.7859">
        <ele>1022.5</ele>
        <time>2025-07-14T14:43:23Z</time>
      </trkpt>
      <trkpt lat="44.73521" lon="3.78569">
        <ele>1022.98</ele>
        <time>2025-07-14T14:43:37Z</time>
      </trkpt>
      <trkpt lat="44.73522" lon="3.78548">
        <ele>1022.5</ele>
        <time>2025-07-14T14:43:53Z</time>
      </trkpt>
      <trkpt lat="44.73522" lon="3.78548">
        <ele>1023.46</ele>
        <time>2025-07-14T14:44:09Z</time>
      </trkpt>
      <trkpt lat="44.73523" lon="3.78544">
        <ele>1022.98</ele>
        <time>2025-07-14T14:44:22Z</time>
      </trkpt>
      <trkpt lat="44.73525" lon="3.78542">
        <ele>1022.98</ele>
        <time>2025-07-14T14:44:24Z</time>
      </trkpt>
      <trkpt lat="44.73526" lon="3.78539">
        <ele>1022.5</ele>
        <time>2025-07-14T14:44:26Z</time>
      </trkpt>
      <trkpt lat="44.73526" lon="3.78537">
        <ele>1022.5</ele>
        <time>2025-07-14T14:44:27Z</time>
      </trkpt>
      <trkpt lat="44.73527" lon="3.78535">
        <ele>1022.02</ele>
        <time>2025-07-14T14:44:28Z</time>
      </trkpt>
      <trkpt lat="44.73527" lon="3.78509">
        <ele>1020.58</ele>
        <time>2025-07-14T14:44:43Z</time>
      </trkpt>
      <trkpt lat="44.73528" lon="3.78508">
        <ele>1020.58</ele>
        <time>2025-07-14T14:44:44Z</time>
      </trkpt>
      <trkpt lat="44.73528" lon="3.78506">
        <ele>1020.58</ele>
        <time>2025-07-14T14:44:45Z</time>
      </trkpt>
      <trkpt lat="44.73528" lon="3.78504">
        <ele>1020.1</ele>
        <time>2025-07-14T14:44:46Z</time>
      </trkpt>
      <trkpt lat="44.73528" lon="3.78502">
        <ele>1020.58</ele>
        <time>2025-07-14T14:44:47Z</time>
      </trkpt>
      <trkpt lat="44.73525" lon="3.78472">
        <ele>1020.58</ele>
        <time>2025-07-14T14:45:02Z</time>
      </trkpt>
      <trkpt lat="44.73528" lon="3.78448">
        <ele>1020.58</ele>
        <time>2025-07-14T14:45:15Z</time>
      </trkpt>
      <trkpt lat="44.73544" lon="3.78424">
        <ele>1019.13</ele>
        <time>2025-07-14T14:45:32Z</time>
      </trkpt>
      <trkpt lat="44.73559" lon="3.78405">
        <ele>1016.25</ele>
        <time>2025-07-14T14:45:46Z</time>
      </trkpt>
      <trkpt lat="44.73576" lon="3.7838">
        <ele>1014.81</ele>
        <time>2025-07-14T14:46:03Z</time>
      </trkpt>
      <trkpt lat="44.73593" lon="3.78353">
        <ele>1012.41</ele>
        <time>2025-07-14T14:46:21Z</time>
      </trkpt>
      <trkpt lat="44.736" lon="3.78336">
        <ele>1011.44</ele>
        <time>2025-07-14T14:46:32Z</time>
      </trkpt>
      <trkpt lat="44.73601" lon="3.78317">
        <ele>1010.48</ele>
        <time>2025-07-14T14:46:43Z</time>
      </trkpt>
      <trkpt lat="44.73601" lon="3.78315">
        <ele>1010.48</ele>
        <time>2025-07-14T14:46:44Z</time>
      </trkpt>
      <trkpt lat="44.73603" lon="3.78284">
        <ele>1012.89</ele>
        <time>2025-07-14T14:47:02Z</time>
      </trkpt>
      <trkpt lat="44.73604" lon="3.78282">
        <ele>1012.89</ele>
        <time>2025-07-14T14:47:03Z</time>
      </trkpt>
      <trkpt lat="44.73609" lon="3.78262">
        <ele>1015.29</ele>
        <time>2025-07-14T14:47:15Z</time>
      </trkpt>
      <trkpt lat="44.73613" lon="3.7824">
        <ele>1015.77</ele>
        <time>2025-07-14T14:47:29Z</time>
      </trkpt>
      <trkpt lat="44.73616" lon="3.78217">
        <ele>1015.77</ele>
        <time>2025-07-14T14:47:42Z</time>
      </trkpt>
      <trkpt lat="44.73623" lon="3.78192">
        <ele>1019.62</ele>
        <time>2025-07-14T14:47:58Z</time>
      </trkpt>
      <trkpt lat="44.73625" lon="3.78188">
        <ele>1020.1</ele>
        <time>2025-07-14T14:48:01Z</time>
      </trkpt>
      <trkpt lat="44.73626" lon="3.78186">
        <ele>1020.1</ele>
        <time>2025-07-14T14:48:02Z</time>
      </trkpt>
      <trkpt lat="44.73633" lon="3.78163">
        <ele>1020.58</ele>
        <time>2025-07-14T14:48:17Z</time>
      </trkpt>
      <trkpt lat="44.73636" lon="3.78148">
        <ele>1019.62</ele>
        <time>2025-07-14T14:48:30Z</time>
      </trkpt>
      <trkpt lat="44.73635" lon="3.78136">
        <ele>1019.13</ele>
        <time>2025-07-14T14:48:38Z</time>
      </trkpt>
      <trkpt lat="44.73635" lon="3.78135">
        <ele>1018.65</ele>
        <time>2025-07-14T14:48:39Z</time>
      </trkpt>
      <trkpt lat="44.73627" lon="3.78106">
        <ele>1018.65</ele>
        <time>2025-07-14T14:48:55Z</time>
      </trkpt>
      <trkpt lat="44.73617" lon="3.78072">
        <ele>1020.58</ele>
        <time>2025-07-14T14:49:14Z</time>
      </trkpt>
      <trkpt lat="44.73603" lon="3.78044">
        <ele>1026.83</ele>
        <time>2025-07-14T14:49:30Z</time>
      </trkpt>
      <trkpt lat="44.7358" lon="3.78024">
        <ele>1031.15</ele>
        <time>2025-07-14T14:49:51Z</time>
      </trkpt>
      <trkpt lat="44.73575" lon="3.78024">
        <ele>1032.11</ele>
        <time>2025-07-14T14:50:03Z</time>
      </trkpt>
      <trkpt lat="44.73573" lon="3.78027">
        <ele>1032.11</ele>
        <time>2025-07-14T14:50:08Z</time>
      </trkpt>
      <trkpt lat="44.73571" lon="3.78027">
        <ele>1032.11</ele>
        <time>2025-07-14T14:50:09Z</time>
      </trkpt>
      <trkpt lat="44.7357" lon="3.78028">
        <ele>1032.59</ele>
        <time>2025-07-14T14:50:10Z</time>
      </trkpt>
      <trkpt lat="44.73568" lon="3.78029">
        <ele>1032.59</ele>
        <time>2025-07-14T14:50:11Z</time>
      </trkpt>
      <trkpt lat="44.73567" lon="3.78029">
        <ele>1033.07</ele>
        <time>2025-07-14T14:50:12Z</time>
      </trkpt>
      <trkpt lat="44.73565" lon="3.7803">
        <ele>1033.55</ele>
        <time>2025-07-14T14:50:13Z</time>
      </trkpt>
      <trkpt lat="44.73538" lon="3.78033">
        <ele>1035.96</ele>
        <time>2025-07-14T14:50:33Z</time>
      </trkpt>
      <trkpt lat="44.7352" lon="3.78028">
        <ele>1036.92</ele>
        <time>2025-07-14T14:50:48Z</time>
      </trkpt>
      <trkpt lat="44.73498" lon="3.78033">
        <ele>1038.84</ele>
        <time>2025-07-14T14:51:07Z</time>
      </trkpt>
      <trkpt lat="44.73479" lon="3.78039">
        <ele>1040.76</ele>
        <time>2025-07-14T14:51:21Z</time>
      </trkpt>
      <trkpt lat="44.73461" lon="3.78035">
        <ele>1042.21</ele>
        <time>2025-07-14T14:51:37Z</time>
      </trkpt>
      <trkpt lat="44.73442" lon="3.78035">
        <ele>1043.65</ele>
        <time>2025-07-14T14:51:54Z</time>
      </trkpt>
      <trkpt lat="44.73421" lon="3.7803">
        <ele>1044.61</ele>
        <time>2025-07-14T14:52:11Z</time>
      </trkpt>
      <trkpt lat="44.734" lon="3.78027">
        <ele>1046.53</ele>
        <time>2025-07-14T14:52:26Z</time>
      </trkpt>
      <trkpt lat="44.73377" lon="3.78021">
        <ele>1047.97</ele>
        <time>2025-07-14T14:52:42Z</time>
      </trkpt>
      <trkpt lat="44.7335" lon="3.78012">
        <ele>1049.42</ele>
        <time>2025-07-14T14:53:01Z</time>
      </trkpt>
      <trkpt lat="44.73322" lon="3.78015">
        <ele>1048.94</ele>
        <time>2025-07-14T14:53:20Z</time>
      </trkpt>
      <trkpt lat="44.73299" lon="3.78021">
        <ele>1048.94</ele>
        <time>2025-07-14T14:53:37Z</time>
      </trkpt>
      <trkpt lat="44.73278" lon="3.78016">
        <ele>1049.42</ele>
        <time>2025-07-14T14:53:54Z</time>
      </trkpt>
      <trkpt lat="44.73258" lon="3.78012">
        <ele>1050.86</ele>
        <time>2025-07-14T14:54:09Z</time>
      </trkpt>
      <trkpt lat="44.73246" lon="3.78037">
        <ele>1050.86</ele>
        <time>2025-07-14T14:54:24Z</time>
      </trkpt>
      <trkpt lat="44.73235" lon="3.78066">
        <ele>1049.9</ele>
        <time>2025-07-14T14:54:40Z</time>
      </trkpt>
      <trkpt lat="44.73225" lon="3.78104">
        <ele>1047.49</ele>
        <time>2025-07-14T14:55:00Z</time>
      </trkpt>
      <trkpt lat="44.73226" lon="3.78114">
        <ele>1045.57</ele>
        <time>2025-07-14T14:55:06Z</time>
      </trkpt>
      <trkpt lat="44.73243" lon="3.78123">
        <ele>1041.73</ele>
        <time>2025-07-14T14:55:20Z</time>
      </trkpt>
      <trkpt lat="44.73248" lon="3.78118">
        <ele>1041.25</ele>
        <time>2025-07-14T14:55:37Z</time>
      </trkpt>
      <trkpt lat="44.73251" lon="3.78116">
        <ele>1043.65</ele>
        <time>2025-07-14T14:55:49Z</time>
      </trkpt>
      <trkpt lat="44.73256" lon="3.78111">
        <ele>1043.65</ele>
        <time>2025-07-14T14:56:09Z</time>
      </trkpt>
      <trkpt lat="44.73256" lon="3.78111">
        <ele>1047.01</ele>
        <time>2025-07-14T14:56:30Z</time>
      </trkpt>
      <trkpt lat="44.73261" lon="3.7811">
        <ele>1049.9</ele>
        <time>2025-07-14T14:56:45Z</time>
      </trkpt>
      <trkpt lat="44.7326" lon="3.78112">
        <ele>1051.82</ele>
        <time>2025-07-14T14:57:05Z</time>
      </trkpt>
      <trkpt lat="44.73261" lon="3.78116">
        <ele>1052.3</ele>
        <time>2025-07-14T14:57:26Z</time>
      </trkpt>
      <trkpt lat="44.73262" lon="3.78116">
        <ele>1052.3</ele>
        <time>2025-07-14T14:57:48Z</time>
      </trkpt>
      <trkpt lat="44.73262" lon="3.78116">
        <ele>1051.34</ele>
        <time>2025-07-14T14:58:06Z</time>
      </trkpt>
      <trkpt lat="44.73259" lon="3.78117">
        <ele>1051.82</ele>
        <time>2025-07-14T14:58:20Z</time>
      </trkpt>
      <trkpt lat="44.73259" lon="3.78116">
        <ele>1051.82</ele>
        <time>2025-07-14T14:58:41Z</time>
      </trkpt>
      <trkpt lat="44.7326" lon="3.78112">
        <ele>1049.42</ele>
        <time>2025-07-14T14:58:58Z</time>
      </trkpt>
      <trkpt lat="44.7326" lon="3.78117">
        <ele>1047.97</ele>
        <time>2025-07-14T14:59:12Z</time>
      </trkpt>
      <trkpt lat="44.73258" lon="3.78117">
        <ele>1046.53</ele>
        <time>2025-07-14T14:59:27Z</time>
      </trkpt>
      <trkpt lat="44.73259" lon="3.78114">
        <ele>1045.57</ele>
        <time>2025-07-14T14:59:42Z</time>
      </trkpt>
      <trkpt lat="44.7326" lon="3.78111">
        <ele>1044.61</ele>
        <time>2025-07-14T15:00:03Z</time>
      </trkpt>
      <trkpt lat="44.73264" lon="3.78113">
        <ele>1043.65</ele>
        <time>2025-07-14T15:00:27Z</time>
      </trkpt>
      <trkpt lat="44.73261" lon="3.78118">
        <ele>1044.13</ele>
        <time>2025-07-14T15:00:40Z</time>
      </trkpt>
      <trkpt lat="44.73261" lon="3.78111">
        <ele>1042.21</ele>
        <time>2025-07-14T15:00:59Z</time>
      </trkpt>
      <trkpt lat="44.73254" lon="3.78115">
        <ele>1042.69</ele>
        <time>2025-07-14T15:01:12Z</time>
      </trkpt>
      <trkpt lat="44.73256" lon="3.78115">
        <ele>1044.61</ele>
        <time>2025-07-14T15:01:28Z</time>
      </trkpt>
      <trkpt lat="44.73256" lon="3.78116">
        <ele>1046.05</ele>
        <time>2025-07-14T15:01:53Z</time>
      </trkpt>
      <trkpt lat="44.73257" lon="3.78113">
        <ele>1048.94</ele>
        <time>2025-07-14T15:02:12Z</time>
        <extensions>
          <visugpx:TrkExtension xmlns:visugpx="https://www.visugpx.com/editgpx/">
            <visugpx:node>1</visugpx:node>
            </visugpx:TrkExtension>
        </extensions>
      </trkpt>
    </trkseg>
  </trk>
</gpx>